<?xml version="1.0" encoding="UTF-8" standalone="no" ?>
<gpx xmlns="http://www.topografix.com/GPX/1/1" xmlns:xsi="http://www.w3.org/2001/XMLSchema-instance" xsi:schemaLocation="http://www.topografix.com/GPX/1/1 http://www.topografix.com/GPX/1/1/gpx.xsd" version="1.1" creator="VisuGPX - https://www.visugpx.com">
  <metadata>
    <name>Le Rouët - La Motte / Le Muy</name>
    <desc><![CDATA[Circuit très facile - pour tout le monde.
Des paysages extraordinaires, des petits lacs etc...
Pas beaucoup d'ombre - n’oubliez pas l'eau en quantité suffisante.]]></desc>
  </metadata>
  <trk>
    <name><![CDATA[2018-06-17 10:05:23 Day]]></name>
    <trkseg>
      <trkpt lat="43.50421" lon="6.59022">
        <ele>34.74</ele>
        <time>2018-06-17T08:05:23Z</time>
      </trkpt>
      <trkpt lat="43.50421" lon="6.59022">
        <ele>34.74</ele>
        <time>2018-06-17T08:05:24Z</time>
      </trkpt>
      <trkpt lat="43.50421" lon="6.59021">
        <ele>34.74</ele>
        <time>2018-06-17T08:05:25Z</time>
      </trkpt>
      <trkpt lat="43.50426" lon="6.59026">
        <ele>34.74</ele>
        <time>2018-06-17T08:05:50Z</time>
      </trkpt>
      <trkpt lat="43.50427" lon="6.59029">
        <ele>34.26</ele>
        <time>2018-06-17T08:06:10Z</time>
      </trkpt>
      <trkpt lat="43.50425" lon="6.59026">
        <ele>34.74</ele>
        <time>2018-06-17T08:06:37Z</time>
      </trkpt>
      <trkpt lat="43.50426" lon="6.59028">
        <ele>35.23</ele>
        <time>2018-06-17T08:06:58Z</time>
      </trkpt>
      <trkpt lat="43.50425" lon="6.59029">
        <ele>35.23</ele>
        <time>2018-06-17T08:07:15Z</time>
      </trkpt>
      <trkpt lat="43.50426" lon="6.59032">
        <ele>34.74</ele>
        <time>2018-06-17T08:07:38Z</time>
      </trkpt>
      <trkpt lat="43.50426" lon="6.59033">
        <ele>35.23</ele>
        <time>2018-06-17T08:07:59Z</time>
      </trkpt>
      <trkpt lat="43.50428" lon="6.59035">
        <ele>35.23</ele>
        <time>2018-06-17T08:08:29Z</time>
      </trkpt>
      <trkpt lat="43.50428" lon="6.59035">
        <ele>35.23</ele>
        <time>2018-06-17T08:08:46Z</time>
      </trkpt>
      <trkpt lat="43.50431" lon="6.59036">
        <ele>36.19</ele>
        <time>2018-06-17T08:09:06Z</time>
      </trkpt>
      <trkpt lat="43.50435" lon="6.59035">
        <ele>35.23</ele>
        <time>2018-06-17T08:09:11Z</time>
      </trkpt>
      <trkpt lat="43.50451" lon="6.59035">
        <ele>36.19</ele>
        <time>2018-06-17T08:09:28Z</time>
      </trkpt>
      <trkpt lat="43.50469" lon="6.59034">
        <ele>36.19</ele>
        <time>2018-06-17T08:09:46Z</time>
      </trkpt>
      <trkpt lat="43.50485" lon="6.59029">
        <ele>36.19</ele>
        <time>2018-06-17T08:10:03Z</time>
      </trkpt>
      <trkpt lat="43.50508" lon="6.59029">
        <ele>37.15</ele>
        <time>2018-06-17T08:10:24Z</time>
      </trkpt>
      <trkpt lat="43.50529" lon="6.59025">
        <ele>37.15</ele>
        <time>2018-06-17T08:10:42Z</time>
      </trkpt>
      <trkpt lat="43.50546" lon="6.59022">
        <ele>38.11</ele>
        <time>2018-06-17T08:10:58Z</time>
      </trkpt>
      <trkpt lat="43.50569" lon="6.59021">
        <ele>37.63</ele>
        <time>2018-06-17T08:11:17Z</time>
      </trkpt>
      <trkpt lat="43.50595" lon="6.59017">
        <ele>37.15</ele>
        <time>2018-06-17T08:11:36Z</time>
      </trkpt>
      <trkpt lat="43.50617" lon="6.59014">
        <ele>37.15</ele>
        <time>2018-06-17T08:11:55Z</time>
      </trkpt>
      <trkpt lat="43.50634" lon="6.5901">
        <ele>37.15</ele>
        <time>2018-06-17T08:12:12Z</time>
      </trkpt>
      <trkpt lat="43.50659" lon="6.59005">
        <ele>37.15</ele>
        <time>2018-06-17T08:12:32Z</time>
      </trkpt>
      <trkpt lat="43.50682" lon="6.59002">
        <ele>36.67</ele>
        <time>2018-06-17T08:12:54Z</time>
      </trkpt>
      <trkpt lat="43.50701" lon="6.58992">
        <ele>35.23</ele>
        <time>2018-06-17T08:13:13Z</time>
      </trkpt>
      <trkpt lat="43.50721" lon="6.58985">
        <ele>35.23</ele>
        <time>2018-06-17T08:13:32Z</time>
      </trkpt>
      <trkpt lat="43.50739" lon="6.58977">
        <ele>36.67</ele>
        <time>2018-06-17T08:13:49Z</time>
      </trkpt>
      <trkpt lat="43.50744" lon="6.58975">
        <ele>36.67</ele>
        <time>2018-06-17T08:13:53Z</time>
      </trkpt>
      <trkpt lat="43.50764" lon="6.58962">
        <ele>36.19</ele>
        <time>2018-06-17T08:14:12Z</time>
      </trkpt>
      <trkpt lat="43.5078" lon="6.58946">
        <ele>37.63</ele>
        <time>2018-06-17T08:14:30Z</time>
      </trkpt>
      <trkpt lat="43.508" lon="6.58934">
        <ele>37.15</ele>
        <time>2018-06-17T08:14:49Z</time>
      </trkpt>
      <trkpt lat="43.50818" lon="6.58932">
        <ele>37.63</ele>
        <time>2018-06-17T08:15:04Z</time>
      </trkpt>
      <trkpt lat="43.50842" lon="6.58932">
        <ele>38.59</ele>
        <time>2018-06-17T08:15:28Z</time>
      </trkpt>
      <trkpt lat="43.50852" lon="6.58931">
        <ele>38.11</ele>
        <time>2018-06-17T08:15:45Z</time>
      </trkpt>
      <trkpt lat="43.50878" lon="6.58932">
        <ele>38.59</ele>
        <time>2018-06-17T08:16:08Z</time>
      </trkpt>
      <trkpt lat="43.50898" lon="6.58931">
        <ele>38.11</ele>
        <time>2018-06-17T08:16:27Z</time>
      </trkpt>
      <trkpt lat="43.50923" lon="6.58929">
        <ele>38.11</ele>
        <time>2018-06-17T08:16:48Z</time>
      </trkpt>
      <trkpt lat="43.50942" lon="6.58926">
        <ele>38.59</ele>
        <time>2018-06-17T08:17:05Z</time>
      </trkpt>
      <trkpt lat="43.50967" lon="6.58918">
        <ele>38.59</ele>
        <time>2018-06-17T08:17:26Z</time>
      </trkpt>
      <trkpt lat="43.50996" lon="6.58916">
        <ele>39.55</ele>
        <time>2018-06-17T08:17:53Z</time>
      </trkpt>
      <trkpt lat="43.51022" lon="6.58902">
        <ele>40.03</ele>
        <time>2018-06-17T08:18:17Z</time>
      </trkpt>
      <trkpt lat="43.51044" lon="6.58883">
        <ele>40.03</ele>
        <time>2018-06-17T08:18:39Z</time>
      </trkpt>
      <trkpt lat="43.51062" lon="6.58862">
        <ele>39.55</ele>
        <time>2018-06-17T08:19:01Z</time>
      </trkpt>
      <trkpt lat="43.51082" lon="6.58838">
        <ele>39.07</ele>
        <time>2018-06-17T08:19:24Z</time>
      </trkpt>
      <trkpt lat="43.51104" lon="6.58815">
        <ele>40.03</ele>
        <time>2018-06-17T08:19:48Z</time>
      </trkpt>
      <trkpt lat="43.51122" lon="6.58793">
        <ele>39.55</ele>
        <time>2018-06-17T08:20:12Z</time>
      </trkpt>
      <trkpt lat="43.51125" lon="6.58789">
        <ele>39.55</ele>
        <time>2018-06-17T08:20:31Z</time>
      </trkpt>
      <trkpt lat="43.5114" lon="6.58769">
        <ele>39.55</ele>
        <time>2018-06-17T08:20:50Z</time>
      </trkpt>
      <trkpt lat="43.51147" lon="6.58755">
        <ele>38.59</ele>
        <time>2018-06-17T08:21:01Z</time>
      </trkpt>
      <trkpt lat="43.5115" lon="6.58748">
        <ele>38.59</ele>
        <time>2018-06-17T08:21:05Z</time>
      </trkpt>
      <trkpt lat="43.51161" lon="6.58726">
        <ele>38.59</ele>
        <time>2018-06-17T08:21:23Z</time>
      </trkpt>
      <trkpt lat="43.51165" lon="6.58721">
        <ele>38.59</ele>
        <time>2018-06-17T08:21:29Z</time>
      </trkpt>
      <trkpt lat="43.51189" lon="6.58709">
        <ele>38.59</ele>
        <time>2018-06-17T08:21:52Z</time>
      </trkpt>
      <trkpt lat="43.51214" lon="6.58695">
        <ele>38.59</ele>
        <time>2018-06-17T08:22:15Z</time>
      </trkpt>
      <trkpt lat="43.51233" lon="6.58693">
        <ele>39.55</ele>
        <time>2018-06-17T08:22:32Z</time>
      </trkpt>
      <trkpt lat="43.51241" lon="6.58695">
        <ele>39.55</ele>
        <time>2018-06-17T08:22:44Z</time>
      </trkpt>
      <trkpt lat="43.51243" lon="6.58696">
        <ele>40.03</ele>
        <time>2018-06-17T08:22:46Z</time>
      </trkpt>
      <trkpt lat="43.51256" lon="6.58703">
        <ele>39.07</ele>
        <time>2018-06-17T08:23:04Z</time>
      </trkpt>
      <trkpt lat="43.51256" lon="6.58704">
        <ele>39.07</ele>
        <time>2018-06-17T08:23:05Z</time>
      </trkpt>
      <trkpt lat="43.51247" lon="6.58729">
        <ele>38.59</ele>
        <time>2018-06-17T08:23:26Z</time>
      </trkpt>
      <trkpt lat="43.51244" lon="6.58739">
        <ele>38.59</ele>
        <time>2018-06-17T08:23:35Z</time>
      </trkpt>
      <trkpt lat="43.51257" lon="6.58749">
        <ele>39.07</ele>
        <time>2018-06-17T08:23:54Z</time>
      </trkpt>
      <trkpt lat="43.51256" lon="6.58753">
        <ele>39.07</ele>
        <time>2018-06-17T08:24:10Z</time>
      </trkpt>
      <trkpt lat="43.51248" lon="6.58748">
        <ele>38.59</ele>
        <time>2018-06-17T08:24:25Z</time>
      </trkpt>
      <trkpt lat="43.51244" lon="6.58746">
        <ele>39.07</ele>
        <time>2018-06-17T08:24:34Z</time>
      </trkpt>
      <trkpt lat="43.51239" lon="6.58743">
        <ele>38.59</ele>
        <time>2018-06-17T08:24:39Z</time>
      </trkpt>
      <trkpt lat="43.51222" lon="6.58738">
        <ele>39.07</ele>
        <time>2018-06-17T08:24:57Z</time>
      </trkpt>
      <trkpt lat="43.51219" lon="6.58737">
        <ele>39.55</ele>
        <time>2018-06-17T08:25:13Z</time>
      </trkpt>
      <trkpt lat="43.51217" lon="6.58739">
        <ele>40.03</ele>
        <time>2018-06-17T08:25:30Z</time>
      </trkpt>
      <trkpt lat="43.51219" lon="6.58735">
        <ele>40.03</ele>
        <time>2018-06-17T08:25:49Z</time>
      </trkpt>
      <trkpt lat="43.51221" lon="6.58734">
        <ele>39.55</ele>
        <time>2018-06-17T08:26:02Z</time>
      </trkpt>
      <trkpt lat="43.5123" lon="6.58735">
        <ele>39.07</ele>
        <time>2018-06-17T08:26:18Z</time>
      </trkpt>
      <trkpt lat="43.51242" lon="6.58737">
        <ele>38.59</ele>
        <time>2018-06-17T08:26:32Z</time>
      </trkpt>
      <trkpt lat="43.51243" lon="6.58736">
        <ele>38.11</ele>
        <time>2018-06-17T08:26:33Z</time>
      </trkpt>
      <trkpt lat="43.51262" lon="6.58719">
        <ele>39.07</ele>
        <time>2018-06-17T08:26:53Z</time>
      </trkpt>
      <trkpt lat="43.5127" lon="6.58719">
        <ele>38.59</ele>
        <time>2018-06-17T08:27:02Z</time>
      </trkpt>
      <trkpt lat="43.5128" lon="6.58724">
        <ele>40.51</ele>
        <time>2018-06-17T08:27:20Z</time>
      </trkpt>
      <trkpt lat="43.51293" lon="6.58717">
        <ele>40.03</ele>
        <time>2018-06-17T08:27:37Z</time>
      </trkpt>
      <trkpt lat="43.51301" lon="6.58716">
        <ele>40.99</ele>
        <time>2018-06-17T08:27:52Z</time>
      </trkpt>
      <trkpt lat="43.51314" lon="6.58713">
        <ele>40.99</ele>
        <time>2018-06-17T08:28:10Z</time>
      </trkpt>
      <trkpt lat="43.51316" lon="6.58717">
        <ele>40.99</ele>
        <time>2018-06-17T08:28:40Z</time>
      </trkpt>
      <trkpt lat="43.51316" lon="6.58715">
        <ele>40.03</ele>
        <time>2018-06-17T08:29:13Z</time>
      </trkpt>
      <trkpt lat="43.51321" lon="6.58714">
        <ele>40.03</ele>
        <time>2018-06-17T08:29:43Z</time>
      </trkpt>
      <trkpt lat="43.51331" lon="6.58717">
        <ele>40.51</ele>
        <time>2018-06-17T08:29:57Z</time>
      </trkpt>
      <trkpt lat="43.51344" lon="6.58722">
        <ele>42.44</ele>
        <time>2018-06-17T08:30:13Z</time>
      </trkpt>
      <trkpt lat="43.51353" lon="6.58735">
        <ele>43.88</ele>
        <time>2018-06-17T08:30:26Z</time>
      </trkpt>
      <trkpt lat="43.51352" lon="6.58741">
        <ele>44.36</ele>
        <time>2018-06-17T08:30:31Z</time>
      </trkpt>
      <trkpt lat="43.51336" lon="6.58753">
        <ele>46.28</ele>
        <time>2018-06-17T08:30:49Z</time>
      </trkpt>
      <trkpt lat="43.51317" lon="6.58769">
        <ele>47.24</ele>
        <time>2018-06-17T08:31:10Z</time>
      </trkpt>
      <trkpt lat="43.513" lon="6.58782">
        <ele>47.72</ele>
        <time>2018-06-17T08:31:29Z</time>
      </trkpt>
      <trkpt lat="43.5128" lon="6.58794">
        <ele>49.16</ele>
        <time>2018-06-17T08:31:50Z</time>
      </trkpt>
      <trkpt lat="43.5126" lon="6.58795">
        <ele>50.61</ele>
        <time>2018-06-17T08:32:09Z</time>
      </trkpt>
      <trkpt lat="43.51236" lon="6.58785">
        <ele>51.57</ele>
        <time>2018-06-17T08:32:32Z</time>
      </trkpt>
      <trkpt lat="43.51233" lon="6.58782">
        <ele>53.01</ele>
        <time>2018-06-17T08:32:46Z</time>
      </trkpt>
      <trkpt lat="43.51234" lon="6.58784">
        <ele>52.53</ele>
        <time>2018-06-17T08:33:02Z</time>
      </trkpt>
      <trkpt lat="43.51238" lon="6.58785">
        <ele>52.05</ele>
        <time>2018-06-17T08:33:16Z</time>
      </trkpt>
      <trkpt lat="43.51256" lon="6.58793">
        <ele>51.09</ele>
        <time>2018-06-17T08:33:35Z</time>
      </trkpt>
      <trkpt lat="43.51263" lon="6.58794">
        <ele>50.61</ele>
        <time>2018-06-17T08:33:51Z</time>
      </trkpt>
      <trkpt lat="43.51273" lon="6.58795">
        <ele>49.16</ele>
        <time>2018-06-17T08:34:14Z</time>
      </trkpt>
      <trkpt lat="43.51285" lon="6.58789">
        <ele>48.68</ele>
        <time>2018-06-17T08:34:27Z</time>
      </trkpt>
      <trkpt lat="43.51309" lon="6.58775">
        <ele>47.24</ele>
        <time>2018-06-17T08:34:48Z</time>
      </trkpt>
      <trkpt lat="43.51328" lon="6.5876">
        <ele>46.28</ele>
        <time>2018-06-17T08:35:07Z</time>
      </trkpt>
      <trkpt lat="43.51342" lon="6.58747">
        <ele>45.32</ele>
        <time>2018-06-17T08:35:21Z</time>
      </trkpt>
      <trkpt lat="43.5136" lon="6.58744">
        <ele>44.36</ele>
        <time>2018-06-17T08:35:38Z</time>
      </trkpt>
      <trkpt lat="43.51369" lon="6.58751">
        <ele>44.84</ele>
        <time>2018-06-17T08:35:56Z</time>
      </trkpt>
      <trkpt lat="43.51369" lon="6.58745">
        <ele>44.84</ele>
        <time>2018-06-17T08:36:19Z</time>
      </trkpt>
      <trkpt lat="43.5137" lon="6.58746">
        <ele>44.84</ele>
        <time>2018-06-17T08:36:40Z</time>
      </trkpt>
      <trkpt lat="43.51366" lon="6.58746">
        <ele>44.84</ele>
        <time>2018-06-17T08:37:05Z</time>
      </trkpt>
      <trkpt lat="43.5135" lon="6.58743">
        <ele>44.36</ele>
        <time>2018-06-17T08:37:21Z</time>
      </trkpt>
      <trkpt lat="43.51347" lon="6.58747">
        <ele>44.36</ele>
        <time>2018-06-17T08:37:25Z</time>
      </trkpt>
      <trkpt lat="43.51329" lon="6.58761">
        <ele>46.28</ele>
        <time>2018-06-17T08:37:44Z</time>
      </trkpt>
      <trkpt lat="43.51309" lon="6.58776">
        <ele>47.24</ele>
        <time>2018-06-17T08:38:05Z</time>
      </trkpt>
      <trkpt lat="43.51288" lon="6.5879">
        <ele>48.68</ele>
        <time>2018-06-17T08:38:25Z</time>
      </trkpt>
      <trkpt lat="43.51269" lon="6.58797">
        <ele>50.13</ele>
        <time>2018-06-17T08:38:45Z</time>
      </trkpt>
      <trkpt lat="43.51245" lon="6.58788">
        <ele>52.05</ele>
        <time>2018-06-17T08:39:08Z</time>
      </trkpt>
      <trkpt lat="43.51223" lon="6.58786">
        <ele>53.49</ele>
        <time>2018-06-17T08:39:28Z</time>
      </trkpt>
      <trkpt lat="43.51214" lon="6.588">
        <ele>53.97</ele>
        <time>2018-06-17T08:39:41Z</time>
      </trkpt>
      <trkpt lat="43.51227" lon="6.58818">
        <ele>54.45</ele>
        <time>2018-06-17T08:39:59Z</time>
      </trkpt>
      <trkpt lat="43.51242" lon="6.58829">
        <ele>54.93</ele>
        <time>2018-06-17T08:40:14Z</time>
      </trkpt>
      <trkpt lat="43.51257" lon="6.58845">
        <ele>55.89</ele>
        <time>2018-06-17T08:40:32Z</time>
      </trkpt>
      <trkpt lat="43.51268" lon="6.58871">
        <ele>56.86</ele>
        <time>2018-06-17T08:40:52Z</time>
      </trkpt>
      <trkpt lat="43.51272" lon="6.5888">
        <ele>56.86</ele>
        <time>2018-06-17T08:41:07Z</time>
      </trkpt>
      <trkpt lat="43.5127" lon="6.5888">
        <ele>57.34</ele>
        <time>2018-06-17T08:41:21Z</time>
      </trkpt>
      <trkpt lat="43.51284" lon="6.58857">
        <ele>56.37</ele>
        <time>2018-06-17T08:41:40Z</time>
      </trkpt>
      <trkpt lat="43.51298" lon="6.58842">
        <ele>55.41</ele>
        <time>2018-06-17T08:41:59Z</time>
      </trkpt>
      <trkpt lat="43.513" lon="6.58841">
        <ele>54.45</ele>
        <time>2018-06-17T08:42:01Z</time>
      </trkpt>
      <trkpt lat="43.51317" lon="6.58836">
        <ele>54.45</ele>
        <time>2018-06-17T08:42:20Z</time>
      </trkpt>
      <trkpt lat="43.51317" lon="6.58836">
        <ele>53.49</ele>
        <time>2018-06-17T08:42:27Z</time>
      </trkpt>
      <trkpt lat="43.51315" lon="6.58847">
        <ele>53.49</ele>
        <time>2018-06-17T08:42:43Z</time>
      </trkpt>
      <trkpt lat="43.5132" lon="6.58851">
        <ele>52.53</ele>
        <time>2018-06-17T08:42:50Z</time>
      </trkpt>
      <trkpt lat="43.51342" lon="6.58858">
        <ele>52.53</ele>
        <time>2018-06-17T08:43:13Z</time>
      </trkpt>
      <trkpt lat="43.51355" lon="6.58863">
        <ele>53.01</ele>
        <time>2018-06-17T08:43:30Z</time>
      </trkpt>
      <trkpt lat="43.51366" lon="6.5886">
        <ele>52.05</ele>
        <time>2018-06-17T08:43:48Z</time>
      </trkpt>
      <trkpt lat="43.51382" lon="6.58864">
        <ele>53.01</ele>
        <time>2018-06-17T08:44:06Z</time>
      </trkpt>
      <trkpt lat="43.51389" lon="6.58873">
        <ele>53.97</ele>
        <time>2018-06-17T08:44:25Z</time>
      </trkpt>
      <trkpt lat="43.51391" lon="6.58874">
        <ele>53.97</ele>
        <time>2018-06-17T08:44:38Z</time>
      </trkpt>
      <trkpt lat="43.5139" lon="6.58875">
        <ele>53.97</ele>
        <time>2018-06-17T08:44:58Z</time>
      </trkpt>
      <trkpt lat="43.51389" lon="6.58872">
        <ele>53.97</ele>
        <time>2018-06-17T08:45:15Z</time>
      </trkpt>
      <trkpt lat="43.51391" lon="6.58875">
        <ele>53.49</ele>
        <time>2018-06-17T08:45:29Z</time>
      </trkpt>
      <trkpt lat="43.5139" lon="6.58875">
        <ele>53.49</ele>
        <time>2018-06-17T08:45:44Z</time>
      </trkpt>
      <trkpt lat="43.51388" lon="6.58873">
        <ele>53.49</ele>
        <time>2018-06-17T08:45:57Z</time>
      </trkpt>
      <trkpt lat="43.51386" lon="6.58873">
        <ele>53.49</ele>
        <time>2018-06-17T08:46:14Z</time>
      </trkpt>
      <trkpt lat="43.5139" lon="6.58874">
        <ele>53.49</ele>
        <time>2018-06-17T08:46:29Z</time>
      </trkpt>
      <trkpt lat="43.51391" lon="6.58873">
        <ele>53.01</ele>
        <time>2018-06-17T08:46:51Z</time>
      </trkpt>
      <trkpt lat="43.51388" lon="6.58873">
        <ele>53.97</ele>
        <time>2018-06-17T08:47:14Z</time>
      </trkpt>
      <trkpt lat="43.51386" lon="6.58876">
        <ele>53.97</ele>
        <time>2018-06-17T08:47:27Z</time>
      </trkpt>
      <trkpt lat="43.51387" lon="6.58876">
        <ele>53.97</ele>
        <time>2018-06-17T08:47:49Z</time>
      </trkpt>
      <trkpt lat="43.51386" lon="6.58876">
        <ele>54.45</ele>
        <time>2018-06-17T08:48:25Z</time>
      </trkpt>
      <trkpt lat="43.51385" lon="6.58877">
        <ele>54.45</ele>
        <time>2018-06-17T08:48:58Z</time>
      </trkpt>
      <trkpt lat="43.51387" lon="6.58876">
        <ele>54.45</ele>
        <time>2018-06-17T08:49:22Z</time>
      </trkpt>
      <trkpt lat="43.51386" lon="6.58876">
        <ele>54.45</ele>
        <time>2018-06-17T08:49:42Z</time>
      </trkpt>
      <trkpt lat="43.51387" lon="6.58875">
        <ele>54.45</ele>
        <time>2018-06-17T08:50:10Z</time>
      </trkpt>
      <trkpt lat="43.51387" lon="6.58872">
        <ele>54.45</ele>
        <time>2018-06-17T08:50:35Z</time>
      </trkpt>
      <trkpt lat="43.51385" lon="6.58868">
        <ele>53.49</ele>
        <time>2018-06-17T08:50:49Z</time>
      </trkpt>
      <trkpt lat="43.51384" lon="6.58866">
        <ele>53.97</ele>
        <time>2018-06-17T08:51:07Z</time>
      </trkpt>
      <trkpt lat="43.51376" lon="6.58866">
        <ele>53.49</ele>
        <time>2018-06-17T08:51:22Z</time>
      </trkpt>
      <trkpt lat="43.51373" lon="6.58865">
        <ele>54.45</ele>
        <time>2018-06-17T08:51:37Z</time>
      </trkpt>
      <trkpt lat="43.51373" lon="6.58864">
        <ele>53.97</ele>
        <time>2018-06-17T08:52:04Z</time>
      </trkpt>
      <trkpt lat="43.51364" lon="6.58862">
        <ele>53.01</ele>
        <time>2018-06-17T08:52:21Z</time>
      </trkpt>
      <trkpt lat="43.51352" lon="6.58858">
        <ele>52.05</ele>
        <time>2018-06-17T08:52:38Z</time>
      </trkpt>
      <trkpt lat="43.51344" lon="6.58861">
        <ele>52.53</ele>
        <time>2018-06-17T08:52:47Z</time>
      </trkpt>
      <trkpt lat="43.51324" lon="6.58855">
        <ele>53.01</ele>
        <time>2018-06-17T08:53:07Z</time>
      </trkpt>
      <trkpt lat="43.51315" lon="6.5885">
        <ele>53.49</ele>
        <time>2018-06-17T08:53:20Z</time>
      </trkpt>
      <trkpt lat="43.51314" lon="6.5885">
        <ele>53.97</ele>
        <time>2018-06-17T08:53:21Z</time>
      </trkpt>
      <trkpt lat="43.51304" lon="6.58841">
        <ele>55.89</ele>
        <time>2018-06-17T08:53:36Z</time>
      </trkpt>
      <trkpt lat="43.51303" lon="6.58841">
        <ele>55.41</ele>
        <time>2018-06-17T08:53:37Z</time>
      </trkpt>
      <trkpt lat="43.51285" lon="6.58857">
        <ele>57.82</ele>
        <time>2018-06-17T08:53:57Z</time>
      </trkpt>
      <trkpt lat="43.51283" lon="6.5886">
        <ele>57.82</ele>
        <time>2018-06-17T08:54:12Z</time>
      </trkpt>
      <trkpt lat="43.51283" lon="6.58858">
        <ele>57.82</ele>
        <time>2018-06-17T08:54:38Z</time>
      </trkpt>
      <trkpt lat="43.51274" lon="6.58873">
        <ele>58.3</ele>
        <time>2018-06-17T08:54:55Z</time>
      </trkpt>
      <trkpt lat="43.51272" lon="6.58884">
        <ele>58.3</ele>
        <time>2018-06-17T08:55:04Z</time>
      </trkpt>
      <trkpt lat="43.51273" lon="6.58915">
        <ele>58.78</ele>
        <time>2018-06-17T08:55:26Z</time>
      </trkpt>
      <trkpt lat="43.51281" lon="6.58939">
        <ele>60.22</ele>
        <time>2018-06-17T08:55:45Z</time>
      </trkpt>
      <trkpt lat="43.51283" lon="6.58943">
        <ele>60.7</ele>
        <time>2018-06-17T08:55:48Z</time>
      </trkpt>
      <trkpt lat="43.5129" lon="6.58972">
        <ele>60.7</ele>
        <time>2018-06-17T08:56:08Z</time>
      </trkpt>
      <trkpt lat="43.51289" lon="6.59001">
        <ele>61.18</ele>
        <time>2018-06-17T08:56:26Z</time>
      </trkpt>
      <trkpt lat="43.51282" lon="6.5903">
        <ele>61.66</ele>
        <time>2018-06-17T08:56:46Z</time>
      </trkpt>
      <trkpt lat="43.51273" lon="6.59053">
        <ele>61.18</ele>
        <time>2018-06-17T08:57:03Z</time>
      </trkpt>
      <trkpt lat="43.51266" lon="6.59061">
        <ele>61.18</ele>
        <time>2018-06-17T08:57:11Z</time>
      </trkpt>
      <trkpt lat="43.51246" lon="6.59074">
        <ele>61.18</ele>
        <time>2018-06-17T08:57:31Z</time>
      </trkpt>
      <trkpt lat="43.51237" lon="6.5909">
        <ele>62.62</ele>
        <time>2018-06-17T08:57:46Z</time>
      </trkpt>
      <trkpt lat="43.51231" lon="6.59108">
        <ele>65.03</ele>
        <time>2018-06-17T08:58:05Z</time>
      </trkpt>
      <trkpt lat="43.51229" lon="6.59118">
        <ele>65.99</ele>
        <time>2018-06-17T08:58:13Z</time>
      </trkpt>
      <trkpt lat="43.51228" lon="6.59125">
        <ele>65.99</ele>
        <time>2018-06-17T08:58:32Z</time>
      </trkpt>
      <trkpt lat="43.51226" lon="6.59129">
        <ele>65.99</ele>
        <time>2018-06-17T08:58:50Z</time>
      </trkpt>
      <trkpt lat="43.5123" lon="6.59129">
        <ele>65.99</ele>
        <time>2018-06-17T08:59:26Z</time>
      </trkpt>
      <trkpt lat="43.51225" lon="6.59125">
        <ele>65.99</ele>
        <time>2018-06-17T08:59:55Z</time>
      </trkpt>
      <trkpt lat="43.51223" lon="6.59143">
        <ele>67.43</ele>
        <time>2018-06-17T09:00:12Z</time>
      </trkpt>
      <trkpt lat="43.51218" lon="6.59156">
        <ele>67.91</ele>
        <time>2018-06-17T09:00:24Z</time>
      </trkpt>
      <trkpt lat="43.51214" lon="6.59166">
        <ele>66.47</ele>
        <time>2018-06-17T09:00:33Z</time>
      </trkpt>
      <trkpt lat="43.51207" lon="6.59184">
        <ele>67.43</ele>
        <time>2018-06-17T09:00:51Z</time>
      </trkpt>
      <trkpt lat="43.51203" lon="6.59184">
        <ele>67.43</ele>
        <time>2018-06-17T09:01:08Z</time>
      </trkpt>
      <trkpt lat="43.51205" lon="6.59186">
        <ele>67.43</ele>
        <time>2018-06-17T09:01:27Z</time>
      </trkpt>
      <trkpt lat="43.51203" lon="6.59186">
        <ele>67.43</ele>
        <time>2018-06-17T09:01:50Z</time>
      </trkpt>
      <trkpt lat="43.51201" lon="6.59186">
        <ele>66.47</ele>
        <time>2018-06-17T09:02:05Z</time>
      </trkpt>
      <trkpt lat="43.51201" lon="6.59183">
        <ele>67.43</ele>
        <time>2018-06-17T09:02:26Z</time>
      </trkpt>
      <trkpt lat="43.51201" lon="6.5918">
        <ele>66.95</ele>
        <time>2018-06-17T09:02:47Z</time>
      </trkpt>
      <trkpt lat="43.5121" lon="6.59188">
        <ele>67.43</ele>
        <time>2018-06-17T09:03:19Z</time>
      </trkpt>
      <trkpt lat="43.51211" lon="6.59186">
        <ele>67.43</ele>
        <time>2018-06-17T09:04:05Z</time>
      </trkpt>
      <trkpt lat="43.51204" lon="6.59184">
        <ele>67.43</ele>
        <time>2018-06-17T09:04:33Z</time>
      </trkpt>
      <trkpt lat="43.51204" lon="6.59184">
        <ele>67.43</ele>
        <time>2018-06-17T09:04:49Z</time>
      </trkpt>
      <trkpt lat="43.51204" lon="6.59187">
        <ele>67.43</ele>
        <time>2018-06-17T09:05:05Z</time>
      </trkpt>
      <trkpt lat="43.51203" lon="6.59187">
        <ele>66.95</ele>
        <time>2018-06-17T09:05:18Z</time>
      </trkpt>
      <trkpt lat="43.51203" lon="6.59184">
        <ele>67.43</ele>
        <time>2018-06-17T09:05:34Z</time>
      </trkpt>
      <trkpt lat="43.51201" lon="6.59185">
        <ele>67.43</ele>
        <time>2018-06-17T09:05:49Z</time>
      </trkpt>
      <trkpt lat="43.51202" lon="6.5919">
        <ele>66.47</ele>
        <time>2018-06-17T09:06:07Z</time>
      </trkpt>
      <trkpt lat="43.51202" lon="6.59184">
        <ele>66.47</ele>
        <time>2018-06-17T09:06:26Z</time>
      </trkpt>
      <trkpt lat="43.51202" lon="6.59182">
        <ele>66.95</ele>
        <time>2018-06-17T09:06:40Z</time>
      </trkpt>
      <trkpt lat="43.512" lon="6.59183">
        <ele>65.99</ele>
        <time>2018-06-17T09:06:55Z</time>
      </trkpt>
      <trkpt lat="43.51203" lon="6.59182">
        <ele>66.47</ele>
        <time>2018-06-17T09:07:09Z</time>
      </trkpt>
      <trkpt lat="43.51204" lon="6.59182">
        <ele>66.95</ele>
        <time>2018-06-17T09:07:23Z</time>
      </trkpt>
      <trkpt lat="43.51204" lon="6.59187">
        <ele>66.95</ele>
        <time>2018-06-17T09:07:36Z</time>
      </trkpt>
      <trkpt lat="43.51203" lon="6.59185">
        <ele>66.95</ele>
        <time>2018-06-17T09:07:55Z</time>
      </trkpt>
      <trkpt lat="43.512" lon="6.59188">
        <ele>66.47</ele>
        <time>2018-06-17T09:08:10Z</time>
      </trkpt>
      <trkpt lat="43.51201" lon="6.59185">
        <ele>66.47</ele>
        <time>2018-06-17T09:08:28Z</time>
      </trkpt>
      <trkpt lat="43.51203" lon="6.59185">
        <ele>66.95</ele>
        <time>2018-06-17T09:08:44Z</time>
      </trkpt>
      <trkpt lat="43.51202" lon="6.59186">
        <ele>66.95</ele>
        <time>2018-06-17T09:09:03Z</time>
      </trkpt>
      <trkpt lat="43.51204" lon="6.59187">
        <ele>66.47</ele>
        <time>2018-06-17T09:09:30Z</time>
      </trkpt>
      <trkpt lat="43.51202" lon="6.5919">
        <ele>66.47</ele>
        <time>2018-06-17T09:10:00Z</time>
      </trkpt>
      <trkpt lat="43.51198" lon="6.59185">
        <ele>66.47</ele>
        <time>2018-06-17T09:10:14Z</time>
      </trkpt>
      <trkpt lat="43.51198" lon="6.59184">
        <ele>66.47</ele>
        <time>2018-06-17T09:10:32Z</time>
      </trkpt>
      <trkpt lat="43.51199" lon="6.59179">
        <ele>66.47</ele>
        <time>2018-06-17T09:10:44Z</time>
      </trkpt>
      <trkpt lat="43.51201" lon="6.59183">
        <ele>66.95</ele>
        <time>2018-06-17T09:11:00Z</time>
      </trkpt>
      <trkpt lat="43.51202" lon="6.59186">
        <ele>66.47</ele>
        <time>2018-06-17T09:11:19Z</time>
      </trkpt>
      <trkpt lat="43.51201" lon="6.59187">
        <ele>66.47</ele>
        <time>2018-06-17T09:11:45Z</time>
      </trkpt>
      <trkpt lat="43.51202" lon="6.59184">
        <ele>65.99</ele>
        <time>2018-06-17T09:12:02Z</time>
      </trkpt>
      <trkpt lat="43.51202" lon="6.59183">
        <ele>66.47</ele>
        <time>2018-06-17T09:12:19Z</time>
      </trkpt>
      <trkpt lat="43.51203" lon="6.59186">
        <ele>66.95</ele>
        <time>2018-06-17T09:12:40Z</time>
      </trkpt>
      <trkpt lat="43.51203" lon="6.59187">
        <ele>66.95</ele>
        <time>2018-06-17T09:12:53Z</time>
      </trkpt>
      <trkpt lat="43.51205" lon="6.59186">
        <ele>66.47</ele>
        <time>2018-06-17T09:13:06Z</time>
      </trkpt>
      <trkpt lat="43.51207" lon="6.59185">
        <ele>66.95</ele>
        <time>2018-06-17T09:13:26Z</time>
      </trkpt>
      <trkpt lat="43.51208" lon="6.59186">
        <ele>66.95</ele>
        <time>2018-06-17T09:13:39Z</time>
      </trkpt>
      <trkpt lat="43.51208" lon="6.59185">
        <ele>66.95</ele>
        <time>2018-06-17T09:13:59Z</time>
      </trkpt>
      <trkpt lat="43.51204" lon="6.59187">
        <ele>67.43</ele>
        <time>2018-06-17T09:14:20Z</time>
      </trkpt>
      <trkpt lat="43.512" lon="6.59185">
        <ele>66.47</ele>
        <time>2018-06-17T09:14:34Z</time>
      </trkpt>
      <trkpt lat="43.51201" lon="6.59182">
        <ele>65.99</ele>
        <time>2018-06-17T09:14:40Z</time>
      </trkpt>
      <trkpt lat="43.51204" lon="6.59182">
        <ele>66.95</ele>
        <time>2018-06-17T09:14:44Z</time>
      </trkpt>
      <trkpt lat="43.51208" lon="6.59183">
        <ele>66.47</ele>
        <time>2018-06-17T09:15:02Z</time>
      </trkpt>
      <trkpt lat="43.51209" lon="6.59184">
        <ele>67.43</ele>
        <time>2018-06-17T09:15:15Z</time>
      </trkpt>
      <trkpt lat="43.51205" lon="6.59184">
        <ele>66.95</ele>
        <time>2018-06-17T09:15:29Z</time>
      </trkpt>
      <trkpt lat="43.51207" lon="6.59185">
        <ele>67.43</ele>
        <time>2018-06-17T09:15:47Z</time>
      </trkpt>
      <trkpt lat="43.51208" lon="6.59182">
        <ele>67.43</ele>
        <time>2018-06-17T09:16:12Z</time>
      </trkpt>
      <trkpt lat="43.51206" lon="6.59182">
        <ele>67.43</ele>
        <time>2018-06-17T09:16:32Z</time>
      </trkpt>
      <trkpt lat="43.51206" lon="6.59182">
        <ele>67.91</ele>
        <time>2018-06-17T09:16:46Z</time>
      </trkpt>
      <trkpt lat="43.51205" lon="6.59182">
        <ele>67.43</ele>
        <time>2018-06-17T09:17:11Z</time>
      </trkpt>
      <trkpt lat="43.51206" lon="6.59182">
        <ele>67.43</ele>
        <time>2018-06-17T09:17:31Z</time>
      </trkpt>
      <trkpt lat="43.51203" lon="6.59183">
        <ele>67.43</ele>
        <time>2018-06-17T09:17:59Z</time>
      </trkpt>
      <trkpt lat="43.51208" lon="6.59186">
        <ele>67.43</ele>
        <time>2018-06-17T09:18:28Z</time>
      </trkpt>
      <trkpt lat="43.51206" lon="6.59185">
        <ele>67.91</ele>
        <time>2018-06-17T09:18:45Z</time>
      </trkpt>
      <trkpt lat="43.51207" lon="6.59187">
        <ele>67.43</ele>
        <time>2018-06-17T09:19:07Z</time>
      </trkpt>
      <trkpt lat="43.51205" lon="6.59202">
        <ele>66.47</ele>
        <time>2018-06-17T09:19:23Z</time>
      </trkpt>
      <trkpt lat="43.51206" lon="6.59203">
        <ele>66.47</ele>
        <time>2018-06-17T09:19:37Z</time>
      </trkpt>
      <trkpt lat="43.51213" lon="6.59208">
        <ele>66.47</ele>
        <time>2018-06-17T09:19:50Z</time>
      </trkpt>
      <trkpt lat="43.51222" lon="6.59216">
        <ele>66.95</ele>
        <time>2018-06-17T09:20:02Z</time>
      </trkpt>
      <trkpt lat="43.51236" lon="6.59222">
        <ele>68.39</ele>
        <time>2018-06-17T09:20:18Z</time>
      </trkpt>
      <trkpt lat="43.51235" lon="6.59222">
        <ele>68.39</ele>
        <time>2018-06-17T09:20:32Z</time>
      </trkpt>
      <trkpt lat="43.51224" lon="6.59219">
        <ele>67.91</ele>
        <time>2018-06-17T09:20:45Z</time>
      </trkpt>
      <trkpt lat="43.51209" lon="6.59207">
        <ele>66.95</ele>
        <time>2018-06-17T09:21:04Z</time>
      </trkpt>
      <trkpt lat="43.51206" lon="6.5919">
        <ele>67.43</ele>
        <time>2018-06-17T09:21:19Z</time>
      </trkpt>
      <trkpt lat="43.51203" lon="6.59188">
        <ele>67.91</ele>
        <time>2018-06-17T09:21:34Z</time>
      </trkpt>
      <trkpt lat="43.51198" lon="6.59187">
        <ele>66.95</ele>
        <time>2018-06-17T09:21:48Z</time>
      </trkpt>
      <trkpt lat="43.51204" lon="6.59193">
        <ele>66.95</ele>
        <time>2018-06-17T09:22:04Z</time>
      </trkpt>
      <trkpt lat="43.51204" lon="6.59199">
        <ele>66.95</ele>
        <time>2018-06-17T09:22:09Z</time>
      </trkpt>
      <trkpt lat="43.51203" lon="6.59213">
        <ele>66.47</ele>
        <time>2018-06-17T09:22:18Z</time>
      </trkpt>
      <trkpt lat="43.51211" lon="6.59217">
        <ele>67.43</ele>
        <time>2018-06-17T09:22:27Z</time>
      </trkpt>
      <trkpt lat="43.51228" lon="6.59221">
        <ele>67.91</ele>
        <time>2018-06-17T09:22:44Z</time>
      </trkpt>
      <trkpt lat="43.51231" lon="6.59227">
        <ele>68.39</ele>
        <time>2018-06-17T09:23:03Z</time>
      </trkpt>
      <trkpt lat="43.51233" lon="6.59224">
        <ele>68.39</ele>
        <time>2018-06-17T09:23:23Z</time>
      </trkpt>
      <trkpt lat="43.51252" lon="6.59221">
        <ele>69.83</ele>
        <time>2018-06-17T09:23:42Z</time>
      </trkpt>
      <trkpt lat="43.51268" lon="6.5922">
        <ele>70.31</ele>
        <time>2018-06-17T09:23:58Z</time>
      </trkpt>
      <trkpt lat="43.51291" lon="6.59232">
        <ele>71.27</ele>
        <time>2018-06-17T09:24:21Z</time>
      </trkpt>
      <trkpt lat="43.51316" lon="6.59227">
        <ele>72.24</ele>
        <time>2018-06-17T09:24:43Z</time>
      </trkpt>
      <trkpt lat="43.51338" lon="6.59223">
        <ele>73.68</ele>
        <time>2018-06-17T09:25:04Z</time>
      </trkpt>
      <trkpt lat="43.5135" lon="6.59225">
        <ele>73.68</ele>
        <time>2018-06-17T09:25:18Z</time>
      </trkpt>
      <trkpt lat="43.51372" lon="6.59236">
        <ele>73.68</ele>
        <time>2018-06-17T09:25:40Z</time>
      </trkpt>
      <trkpt lat="43.5139" lon="6.59252">
        <ele>74.64</ele>
        <time>2018-06-17T09:26:00Z</time>
      </trkpt>
      <trkpt lat="43.51409" lon="6.59265">
        <ele>74.16</ele>
        <time>2018-06-17T09:26:21Z</time>
      </trkpt>
      <trkpt lat="43.51429" lon="6.59278">
        <ele>75.12</ele>
        <time>2018-06-17T09:26:42Z</time>
      </trkpt>
      <trkpt lat="43.51443" lon="6.59299">
        <ele>76.08</ele>
        <time>2018-06-17T09:27:02Z</time>
      </trkpt>
      <trkpt lat="43.51458" lon="6.59321">
        <ele>77.52</ele>
        <time>2018-06-17T09:27:23Z</time>
      </trkpt>
      <trkpt lat="43.51473" lon="6.5934">
        <ele>78.97</ele>
        <time>2018-06-17T09:27:44Z</time>
      </trkpt>
      <trkpt lat="43.51484" lon="6.59356">
        <ele>79.93</ele>
        <time>2018-06-17T09:27:59Z</time>
      </trkpt>
      <trkpt lat="43.51499" lon="6.59373">
        <ele>80.89</ele>
        <time>2018-06-17T09:28:18Z</time>
      </trkpt>
      <trkpt lat="43.51508" lon="6.5939">
        <ele>80.41</ele>
        <time>2018-06-17T09:28:33Z</time>
      </trkpt>
      <trkpt lat="43.51522" lon="6.59416">
        <ele>80.89</ele>
        <time>2018-06-17T09:28:57Z</time>
      </trkpt>
      <trkpt lat="43.51541" lon="6.59436">
        <ele>79.93</ele>
        <time>2018-06-17T09:29:20Z</time>
      </trkpt>
      <trkpt lat="43.51558" lon="6.59453">
        <ele>80.41</ele>
        <time>2018-06-17T09:29:38Z</time>
      </trkpt>
      <trkpt lat="43.51558" lon="6.59472">
        <ele>78.48</ele>
        <time>2018-06-17T09:29:54Z</time>
      </trkpt>
      <trkpt lat="43.51551" lon="6.59488">
        <ele>78</ele>
        <time>2018-06-17T09:30:10Z</time>
      </trkpt>
      <trkpt lat="43.51548" lon="6.59499">
        <ele>77.52</ele>
        <time>2018-06-17T09:30:19Z</time>
      </trkpt>
      <trkpt lat="43.51541" lon="6.59515">
        <ele>76.56</ele>
        <time>2018-06-17T09:30:33Z</time>
      </trkpt>
      <trkpt lat="43.51535" lon="6.59538">
        <ele>76.08</ele>
        <time>2018-06-17T09:30:50Z</time>
      </trkpt>
      <trkpt lat="43.51529" lon="6.59551">
        <ele>75.6</ele>
        <time>2018-06-17T09:31:03Z</time>
      </trkpt>
      <trkpt lat="43.51512" lon="6.59565">
        <ele>74.16</ele>
        <time>2018-06-17T09:31:22Z</time>
      </trkpt>
      <trkpt lat="43.51498" lon="6.59578">
        <ele>72.24</ele>
        <time>2018-06-17T09:31:41Z</time>
      </trkpt>
      <trkpt lat="43.51499" lon="6.59582">
        <ele>73.2</ele>
        <time>2018-06-17T09:31:44Z</time>
      </trkpt>
      <trkpt lat="43.51496" lon="6.59589">
        <ele>71.76</ele>
        <time>2018-06-17T09:32:01Z</time>
      </trkpt>
      <trkpt lat="43.51487" lon="6.59589">
        <ele>71.27</ele>
        <time>2018-06-17T09:32:17Z</time>
      </trkpt>
      <trkpt lat="43.51482" lon="6.59596">
        <ele>70.31</ele>
        <time>2018-06-17T09:32:31Z</time>
      </trkpt>
      <trkpt lat="43.51483" lon="6.59607">
        <ele>69.83</ele>
        <time>2018-06-17T09:32:46Z</time>
      </trkpt>
      <trkpt lat="43.51479" lon="6.59612">
        <ele>68.39</ele>
        <time>2018-06-17T09:33:00Z</time>
      </trkpt>
      <trkpt lat="43.51478" lon="6.59612">
        <ele>67.91</ele>
        <time>2018-06-17T09:33:17Z</time>
      </trkpt>
      <trkpt lat="43.51479" lon="6.59611">
        <ele>68.39</ele>
        <time>2018-06-17T09:33:35Z</time>
      </trkpt>
      <trkpt lat="43.51479" lon="6.59611">
        <ele>68.39</ele>
        <time>2018-06-17T09:33:50Z</time>
      </trkpt>
      <trkpt lat="43.51478" lon="6.59611">
        <ele>68.39</ele>
        <time>2018-06-17T09:34:19Z</time>
      </trkpt>
      <trkpt lat="43.5148" lon="6.59609">
        <ele>68.39</ele>
        <time>2018-06-17T09:34:40Z</time>
      </trkpt>
      <trkpt lat="43.51479" lon="6.59608">
        <ele>68.87</ele>
        <time>2018-06-17T09:35:12Z</time>
      </trkpt>
      <trkpt lat="43.5148" lon="6.59609">
        <ele>68.39</ele>
        <time>2018-06-17T09:35:34Z</time>
      </trkpt>
      <trkpt lat="43.5148" lon="6.59607">
        <ele>69.35</ele>
        <time>2018-06-17T09:35:49Z</time>
      </trkpt>
      <trkpt lat="43.51483" lon="6.59589">
        <ele>70.31</ele>
        <time>2018-06-17T09:36:05Z</time>
      </trkpt>
      <trkpt lat="43.51491" lon="6.59581">
        <ele>71.76</ele>
        <time>2018-06-17T09:36:20Z</time>
      </trkpt>
      <trkpt lat="43.51494" lon="6.59577">
        <ele>71.76</ele>
        <time>2018-06-17T09:36:25Z</time>
      </trkpt>
      <trkpt lat="43.51495" lon="6.59574">
        <ele>72.24</ele>
        <time>2018-06-17T09:36:27Z</time>
      </trkpt>
      <trkpt lat="43.5151" lon="6.59563">
        <ele>72.72</ele>
        <time>2018-06-17T09:36:45Z</time>
      </trkpt>
      <trkpt lat="43.51528" lon="6.59551">
        <ele>74.64</ele>
        <time>2018-06-17T09:37:06Z</time>
      </trkpt>
      <trkpt lat="43.51538" lon="6.59519">
        <ele>75.12</ele>
        <time>2018-06-17T09:37:31Z</time>
      </trkpt>
      <trkpt lat="43.51546" lon="6.59498">
        <ele>76.56</ele>
        <time>2018-06-17T09:37:49Z</time>
      </trkpt>
      <trkpt lat="43.51555" lon="6.59478">
        <ele>77.52</ele>
        <time>2018-06-17T09:38:08Z</time>
      </trkpt>
      <trkpt lat="43.51559" lon="6.59461">
        <ele>78.97</ele>
        <time>2018-06-17T09:38:24Z</time>
      </trkpt>
      <trkpt lat="43.51558" lon="6.59455">
        <ele>78.97</ele>
        <time>2018-06-17T09:38:39Z</time>
      </trkpt>
      <trkpt lat="43.5156" lon="6.59456">
        <ele>78.97</ele>
        <time>2018-06-17T09:39:00Z</time>
      </trkpt>
      <trkpt lat="43.51556" lon="6.59454">
        <ele>78.48</ele>
        <time>2018-06-17T09:39:34Z</time>
      </trkpt>
      <trkpt lat="43.51556" lon="6.59452">
        <ele>79.45</ele>
        <time>2018-06-17T09:39:54Z</time>
      </trkpt>
      <trkpt lat="43.51546" lon="6.59439">
        <ele>78.97</ele>
        <time>2018-06-17T09:40:14Z</time>
      </trkpt>
      <trkpt lat="43.51523" lon="6.59418">
        <ele>78.97</ele>
        <time>2018-06-17T09:40:38Z</time>
      </trkpt>
      <trkpt lat="43.51512" lon="6.59401">
        <ele>79.45</ele>
        <time>2018-06-17T09:40:56Z</time>
      </trkpt>
      <trkpt lat="43.51503" lon="6.59384">
        <ele>79.45</ele>
        <time>2018-06-17T09:41:13Z</time>
      </trkpt>
      <trkpt lat="43.5149" lon="6.59363">
        <ele>78.48</ele>
        <time>2018-06-17T09:41:31Z</time>
      </trkpt>
      <trkpt lat="43.51472" lon="6.5934">
        <ele>77.04</ele>
        <time>2018-06-17T09:41:52Z</time>
      </trkpt>
      <trkpt lat="43.51457" lon="6.5932">
        <ele>75.12</ele>
        <time>2018-06-17T09:42:10Z</time>
      </trkpt>
      <trkpt lat="43.51443" lon="6.59298">
        <ele>74.64</ele>
        <time>2018-06-17T09:42:27Z</time>
      </trkpt>
      <trkpt lat="43.51429" lon="6.59278">
        <ele>74.16</ele>
        <time>2018-06-17T09:42:45Z</time>
      </trkpt>
      <trkpt lat="43.51412" lon="6.59269">
        <ele>73.2</ele>
        <time>2018-06-17T09:43:01Z</time>
      </trkpt>
      <trkpt lat="43.51392" lon="6.59254">
        <ele>73.2</ele>
        <time>2018-06-17T09:43:20Z</time>
      </trkpt>
      <trkpt lat="43.51369" lon="6.59235">
        <ele>72.72</ele>
        <time>2018-06-17T09:43:42Z</time>
      </trkpt>
      <trkpt lat="43.5134" lon="6.59225">
        <ele>71.27</ele>
        <time>2018-06-17T09:44:07Z</time>
      </trkpt>
      <trkpt lat="43.51314" lon="6.59229">
        <ele>70.31</ele>
        <time>2018-06-17T09:44:29Z</time>
      </trkpt>
      <trkpt lat="43.51288" lon="6.59231">
        <ele>68.87</ele>
        <time>2018-06-17T09:44:51Z</time>
      </trkpt>
      <trkpt lat="43.5126" lon="6.59219">
        <ele>67.43</ele>
        <time>2018-06-17T09:45:15Z</time>
      </trkpt>
      <trkpt lat="43.51237" lon="6.59223">
        <ele>65.99</ele>
        <time>2018-06-17T09:45:35Z</time>
      </trkpt>
      <trkpt lat="43.51215" lon="6.5922">
        <ele>64.55</ele>
        <time>2018-06-17T09:45:53Z</time>
      </trkpt>
      <trkpt lat="43.5119" lon="6.59208">
        <ele>63.1</ele>
        <time>2018-06-17T09:46:16Z</time>
      </trkpt>
      <trkpt lat="43.51169" lon="6.59213">
        <ele>61.18</ele>
        <time>2018-06-17T09:46:35Z</time>
      </trkpt>
      <trkpt lat="43.51154" lon="6.59231">
        <ele>61.18</ele>
        <time>2018-06-17T09:46:51Z</time>
      </trkpt>
      <trkpt lat="43.51148" lon="6.59238">
        <ele>61.18</ele>
        <time>2018-06-17T09:47:06Z</time>
      </trkpt>
      <trkpt lat="43.51147" lon="6.59239">
        <ele>60.7</ele>
        <time>2018-06-17T09:47:25Z</time>
      </trkpt>
      <trkpt lat="43.51145" lon="6.59246">
        <ele>60.7</ele>
        <time>2018-06-17T09:47:44Z</time>
      </trkpt>
      <trkpt lat="43.51135" lon="6.59268">
        <ele>60.7</ele>
        <time>2018-06-17T09:48:01Z</time>
      </trkpt>
      <trkpt lat="43.51135" lon="6.59276">
        <ele>60.7</ele>
        <time>2018-06-17T09:48:07Z</time>
      </trkpt>
      <trkpt lat="43.51144" lon="6.593">
        <ele>60.22</ele>
        <time>2018-06-17T09:48:26Z</time>
      </trkpt>
      <trkpt lat="43.51153" lon="6.5932">
        <ele>59.26</ele>
        <time>2018-06-17T09:48:43Z</time>
      </trkpt>
      <trkpt lat="43.51156" lon="6.59339">
        <ele>58.78</ele>
        <time>2018-06-17T09:48:58Z</time>
      </trkpt>
      <trkpt lat="43.51144" lon="6.59355">
        <ele>57.82</ele>
        <time>2018-06-17T09:49:13Z</time>
      </trkpt>
      <trkpt lat="43.51129" lon="6.59388">
        <ele>57.34</ele>
        <time>2018-06-17T09:49:36Z</time>
      </trkpt>
      <trkpt lat="43.51131" lon="6.59397">
        <ele>57.34</ele>
        <time>2018-06-17T09:49:43Z</time>
      </trkpt>
      <trkpt lat="43.51145" lon="6.59417">
        <ele>56.86</ele>
        <time>2018-06-17T09:50:02Z</time>
      </trkpt>
      <trkpt lat="43.51161" lon="6.59433">
        <ele>55.89</ele>
        <time>2018-06-17T09:50:20Z</time>
      </trkpt>
      <trkpt lat="43.51176" lon="6.59458">
        <ele>55.41</ele>
        <time>2018-06-17T09:50:40Z</time>
      </trkpt>
      <trkpt lat="43.5118" lon="6.59472">
        <ele>55.41</ele>
        <time>2018-06-17T09:50:57Z</time>
      </trkpt>
      <trkpt lat="43.5118" lon="6.59478">
        <ele>55.41</ele>
        <time>2018-06-17T09:51:14Z</time>
      </trkpt>
      <trkpt lat="43.51181" lon="6.59481">
        <ele>54.93</ele>
        <time>2018-06-17T09:51:17Z</time>
      </trkpt>
      <trkpt lat="43.51178" lon="6.59494">
        <ele>54.93</ele>
        <time>2018-06-17T09:51:27Z</time>
      </trkpt>
      <trkpt lat="43.51157" lon="6.59504">
        <ele>55.89</ele>
        <time>2018-06-17T09:51:47Z</time>
      </trkpt>
      <trkpt lat="43.5113" lon="6.59507">
        <ele>56.37</ele>
        <time>2018-06-17T09:52:11Z</time>
      </trkpt>
      <trkpt lat="43.51122" lon="6.59518">
        <ele>57.34</ele>
        <time>2018-06-17T09:52:28Z</time>
      </trkpt>
      <trkpt lat="43.51127" lon="6.59535">
        <ele>60.22</ele>
        <time>2018-06-17T09:52:46Z</time>
      </trkpt>
      <trkpt lat="43.51128" lon="6.59539">
        <ele>59.74</ele>
        <time>2018-06-17T09:53:02Z</time>
      </trkpt>
      <trkpt lat="43.51129" lon="6.59538">
        <ele>60.22</ele>
        <time>2018-06-17T09:53:17Z</time>
      </trkpt>
      <trkpt lat="43.51128" lon="6.59549">
        <ele>60.22</ele>
        <time>2018-06-17T09:53:30Z</time>
      </trkpt>
      <trkpt lat="43.51136" lon="6.59548">
        <ele>61.18</ele>
        <time>2018-06-17T09:53:45Z</time>
      </trkpt>
      <trkpt lat="43.51135" lon="6.59545">
        <ele>61.18</ele>
        <time>2018-06-17T09:54:01Z</time>
      </trkpt>
      <trkpt lat="43.51133" lon="6.5955">
        <ele>61.66</ele>
        <time>2018-06-17T09:54:20Z</time>
      </trkpt>
      <trkpt lat="43.51132" lon="6.5955">
        <ele>60.7</ele>
        <time>2018-06-17T09:54:22Z</time>
      </trkpt>
      <trkpt lat="43.51135" lon="6.59549">
        <ele>61.18</ele>
        <time>2018-06-17T09:54:53Z</time>
      </trkpt>
      <trkpt lat="43.51134" lon="6.59549">
        <ele>61.66</ele>
        <time>2018-06-17T09:55:09Z</time>
      </trkpt>
      <trkpt lat="43.51135" lon="6.59547">
        <ele>61.66</ele>
        <time>2018-06-17T09:55:26Z</time>
      </trkpt>
      <trkpt lat="43.51134" lon="6.59545">
        <ele>61.18</ele>
        <time>2018-06-17T09:55:43Z</time>
      </trkpt>
      <trkpt lat="43.51134" lon="6.59544">
        <ele>61.18</ele>
        <time>2018-06-17T09:55:58Z</time>
      </trkpt>
      <trkpt lat="43.51133" lon="6.59545">
        <ele>60.7</ele>
        <time>2018-06-17T09:56:16Z</time>
      </trkpt>
      <trkpt lat="43.51132" lon="6.59545">
        <ele>61.18</ele>
        <time>2018-06-17T09:56:31Z</time>
      </trkpt>
      <trkpt lat="43.51134" lon="6.59543">
        <ele>61.18</ele>
        <time>2018-06-17T09:56:48Z</time>
      </trkpt>
      <trkpt lat="43.51137" lon="6.59547">
        <ele>61.18</ele>
        <time>2018-06-17T09:57:09Z</time>
      </trkpt>
      <trkpt lat="43.51136" lon="6.59544">
        <ele>60.22</ele>
        <time>2018-06-17T09:57:22Z</time>
      </trkpt>
      <trkpt lat="43.51136" lon="6.59548">
        <ele>59.74</ele>
        <time>2018-06-17T09:57:41Z</time>
      </trkpt>
      <trkpt lat="43.51134" lon="6.59552">
        <ele>60.7</ele>
        <time>2018-06-17T09:57:54Z</time>
      </trkpt>
      <trkpt lat="43.51135" lon="6.59552">
        <ele>59.74</ele>
        <time>2018-06-17T09:58:10Z</time>
      </trkpt>
      <trkpt lat="43.51133" lon="6.59554">
        <ele>60.7</ele>
        <time>2018-06-17T09:58:30Z</time>
      </trkpt>
      <trkpt lat="43.51131" lon="6.59553">
        <ele>60.22</ele>
        <time>2018-06-17T09:58:42Z</time>
      </trkpt>
      <trkpt lat="43.5113" lon="6.59547">
        <ele>61.18</ele>
        <time>2018-06-17T09:58:57Z</time>
      </trkpt>
      <trkpt lat="43.51129" lon="6.59547">
        <ele>60.7</ele>
        <time>2018-06-17T09:59:11Z</time>
      </trkpt>
      <trkpt lat="43.51127" lon="6.59545">
        <ele>60.22</ele>
        <time>2018-06-17T09:59:26Z</time>
      </trkpt>
      <trkpt lat="43.51126" lon="6.59542">
        <ele>59.74</ele>
        <time>2018-06-17T09:59:40Z</time>
      </trkpt>
      <trkpt lat="43.51126" lon="6.59541">
        <ele>59.26</ele>
        <time>2018-06-17T09:59:53Z</time>
      </trkpt>
      <trkpt lat="43.51126" lon="6.59538">
        <ele>58.78</ele>
        <time>2018-06-17T10:00:06Z</time>
      </trkpt>
      <trkpt lat="43.5113" lon="6.59538">
        <ele>58.78</ele>
        <time>2018-06-17T10:00:40Z</time>
      </trkpt>
      <trkpt lat="43.51129" lon="6.59538">
        <ele>58.78</ele>
        <time>2018-06-17T10:01:16Z</time>
      </trkpt>
      <trkpt lat="43.51126" lon="6.59538">
        <ele>58.78</ele>
        <time>2018-06-17T10:01:55Z</time>
      </trkpt>
      <trkpt lat="43.51128" lon="6.59538">
        <ele>59.26</ele>
        <time>2018-06-17T10:02:37Z</time>
      </trkpt>
      <trkpt lat="43.51136" lon="6.5954">
        <ele>60.7</ele>
        <time>2018-06-17T10:02:50Z</time>
      </trkpt>
      <trkpt lat="43.51137" lon="6.59545">
        <ele>61.18</ele>
        <time>2018-06-17T10:03:04Z</time>
      </trkpt>
      <trkpt lat="43.51138" lon="6.59546">
        <ele>61.18</ele>
        <time>2018-06-17T10:03:23Z</time>
      </trkpt>
      <trkpt lat="43.51139" lon="6.5955">
        <ele>62.14</ele>
        <time>2018-06-17T10:03:53Z</time>
      </trkpt>
      <trkpt lat="43.51136" lon="6.59551">
        <ele>61.18</ele>
        <time>2018-06-17T10:04:19Z</time>
      </trkpt>
      <trkpt lat="43.51137" lon="6.59549">
        <ele>60.7</ele>
        <time>2018-06-17T10:04:42Z</time>
      </trkpt>
      <trkpt lat="43.51135" lon="6.59546">
        <ele>61.66</ele>
        <time>2018-06-17T10:04:58Z</time>
      </trkpt>
      <trkpt lat="43.51135" lon="6.59545">
        <ele>61.18</ele>
        <time>2018-06-17T10:05:14Z</time>
      </trkpt>
      <trkpt lat="43.51135" lon="6.59548">
        <ele>60.7</ele>
        <time>2018-06-17T10:05:27Z</time>
      </trkpt>
      <trkpt lat="43.51136" lon="6.59542">
        <ele>60.7</ele>
        <time>2018-06-17T10:05:45Z</time>
      </trkpt>
      <trkpt lat="43.5113" lon="6.59542">
        <ele>59.74</ele>
        <time>2018-06-17T10:06:03Z</time>
      </trkpt>
      <trkpt lat="43.51126" lon="6.59546">
        <ele>60.22</ele>
        <time>2018-06-17T10:06:32Z</time>
      </trkpt>
      <trkpt lat="43.51126" lon="6.5955">
        <ele>60.22</ele>
        <time>2018-06-17T10:07:08Z</time>
      </trkpt>
      <trkpt lat="43.51126" lon="6.59546">
        <ele>60.22</ele>
        <time>2018-06-17T10:07:31Z</time>
      </trkpt>
      <trkpt lat="43.51126" lon="6.5954">
        <ele>60.22</ele>
        <time>2018-06-17T10:08:01Z</time>
      </trkpt>
      <trkpt lat="43.51127" lon="6.59537">
        <ele>58.78</ele>
        <time>2018-06-17T10:08:25Z</time>
      </trkpt>
      <trkpt lat="43.51127" lon="6.59545">
        <ele>60.22</ele>
        <time>2018-06-17T10:08:41Z</time>
      </trkpt>
      <trkpt lat="43.51125" lon="6.59543">
        <ele>59.74</ele>
        <time>2018-06-17T10:09:08Z</time>
      </trkpt>
      <trkpt lat="43.51127" lon="6.59543">
        <ele>59.74</ele>
        <time>2018-06-17T10:09:39Z</time>
      </trkpt>
      <trkpt lat="43.51128" lon="6.5954">
        <ele>60.22</ele>
        <time>2018-06-17T10:09:57Z</time>
      </trkpt>
      <trkpt lat="43.51125" lon="6.5954">
        <ele>59.26</ele>
        <time>2018-06-17T10:10:20Z</time>
      </trkpt>
      <trkpt lat="43.51126" lon="6.59539">
        <ele>59.74</ele>
        <time>2018-06-17T10:10:45Z</time>
      </trkpt>
      <trkpt lat="43.51127" lon="6.59536">
        <ele>60.22</ele>
        <time>2018-06-17T10:11:09Z</time>
      </trkpt>
      <trkpt lat="43.51127" lon="6.5954">
        <ele>59.74</ele>
        <time>2018-06-17T10:11:34Z</time>
      </trkpt>
      <trkpt lat="43.51125" lon="6.59534">
        <ele>60.22</ele>
        <time>2018-06-17T10:11:38Z</time>
      </trkpt>
      <trkpt lat="43.51121" lon="6.5952">
        <ele>57.82</ele>
        <time>2018-06-17T10:11:52Z</time>
      </trkpt>
      <trkpt lat="43.51116" lon="6.59513">
        <ele>56.37</ele>
        <time>2018-06-17T10:12:08Z</time>
      </trkpt>
      <trkpt lat="43.51113" lon="6.59517">
        <ele>55.89</ele>
        <time>2018-06-17T10:12:19Z</time>
      </trkpt>
      <trkpt lat="43.51112" lon="6.59529">
        <ele>55.89</ele>
        <time>2018-06-17T10:12:27Z</time>
      </trkpt>
      <trkpt lat="43.51115" lon="6.59551">
        <ele>56.86</ele>
        <time>2018-06-17T10:12:46Z</time>
      </trkpt>
      <trkpt lat="43.51109" lon="6.5957">
        <ele>55.89</ele>
        <time>2018-06-17T10:13:01Z</time>
      </trkpt>
      <trkpt lat="43.51102" lon="6.5957">
        <ele>56.37</ele>
        <time>2018-06-17T10:13:08Z</time>
      </trkpt>
      <trkpt lat="43.51098" lon="6.59568">
        <ele>56.86</ele>
        <time>2018-06-17T10:13:12Z</time>
      </trkpt>
      <trkpt lat="43.51077" lon="6.59546">
        <ele>56.86</ele>
        <time>2018-06-17T10:13:34Z</time>
      </trkpt>
      <trkpt lat="43.51062" lon="6.59522">
        <ele>56.37</ele>
        <time>2018-06-17T10:13:55Z</time>
      </trkpt>
      <trkpt lat="43.51039" lon="6.59513">
        <ele>57.34</ele>
        <time>2018-06-17T10:14:17Z</time>
      </trkpt>
      <trkpt lat="43.51015" lon="6.59503">
        <ele>58.3</ele>
        <time>2018-06-17T10:14:39Z</time>
      </trkpt>
      <trkpt lat="43.51007" lon="6.59495">
        <ele>57.82</ele>
        <time>2018-06-17T10:14:48Z</time>
      </trkpt>
      <trkpt lat="43.50989" lon="6.59474">
        <ele>58.78</ele>
        <time>2018-06-17T10:15:11Z</time>
      </trkpt>
      <trkpt lat="43.5097" lon="6.5947">
        <ele>59.26</ele>
        <time>2018-06-17T10:15:31Z</time>
      </trkpt>
      <trkpt lat="43.50967" lon="6.59476">
        <ele>59.74</ele>
        <time>2018-06-17T10:15:37Z</time>
      </trkpt>
      <trkpt lat="43.50964" lon="6.59505">
        <ele>59.26</ele>
        <time>2018-06-17T10:15:57Z</time>
      </trkpt>
      <trkpt lat="43.50965" lon="6.59521">
        <ele>59.74</ele>
        <time>2018-06-17T10:16:07Z</time>
      </trkpt>
      <trkpt lat="43.50968" lon="6.5955">
        <ele>59.26</ele>
        <time>2018-06-17T10:16:27Z</time>
      </trkpt>
      <trkpt lat="43.50972" lon="6.59567">
        <ele>58.78</ele>
        <time>2018-06-17T10:16:39Z</time>
      </trkpt>
      <trkpt lat="43.50978" lon="6.59598">
        <ele>59.74</ele>
        <time>2018-06-17T10:16:59Z</time>
      </trkpt>
      <trkpt lat="43.50979" lon="6.5961">
        <ele>58.78</ele>
        <time>2018-06-17T10:17:07Z</time>
      </trkpt>
      <trkpt lat="43.50977" lon="6.59626">
        <ele>58.78</ele>
        <time>2018-06-17T10:17:24Z</time>
      </trkpt>
      <trkpt lat="43.50966" lon="6.59646">
        <ele>58.78</ele>
        <time>2018-06-17T10:17:39Z</time>
      </trkpt>
      <trkpt lat="43.50958" lon="6.59653">
        <ele>59.26</ele>
        <time>2018-06-17T10:17:54Z</time>
      </trkpt>
      <trkpt lat="43.50948" lon="6.59656">
        <ele>57.82</ele>
        <time>2018-06-17T10:18:12Z</time>
      </trkpt>
      <trkpt lat="43.50942" lon="6.59662">
        <ele>57.34</ele>
        <time>2018-06-17T10:18:26Z</time>
      </trkpt>
      <trkpt lat="43.5094" lon="6.59662">
        <ele>56.86</ele>
        <time>2018-06-17T10:18:41Z</time>
      </trkpt>
      <trkpt lat="43.50941" lon="6.59675">
        <ele>57.34</ele>
        <time>2018-06-17T10:18:56Z</time>
      </trkpt>
      <trkpt lat="43.50945" lon="6.59679">
        <ele>58.3</ele>
        <time>2018-06-17T10:19:11Z</time>
      </trkpt>
      <trkpt lat="43.50945" lon="6.59677">
        <ele>57.34</ele>
        <time>2018-06-17T10:19:31Z</time>
      </trkpt>
      <trkpt lat="43.50944" lon="6.59678">
        <ele>57.82</ele>
        <time>2018-06-17T10:19:48Z</time>
      </trkpt>
      <trkpt lat="43.50945" lon="6.5968">
        <ele>57.82</ele>
        <time>2018-06-17T10:20:04Z</time>
      </trkpt>
      <trkpt lat="43.50942" lon="6.59677">
        <ele>57.82</ele>
        <time>2018-06-17T10:20:19Z</time>
      </trkpt>
      <trkpt lat="43.5094" lon="6.59676">
        <ele>57.34</ele>
        <time>2018-06-17T10:20:34Z</time>
      </trkpt>
      <trkpt lat="43.50941" lon="6.59681">
        <ele>57.34</ele>
        <time>2018-06-17T10:20:46Z</time>
      </trkpt>
      <trkpt lat="43.50943" lon="6.59681">
        <ele>56.86</ele>
        <time>2018-06-17T10:21:00Z</time>
      </trkpt>
      <trkpt lat="43.5094" lon="6.59681">
        <ele>56.86</ele>
        <time>2018-06-17T10:21:15Z</time>
      </trkpt>
      <trkpt lat="43.50942" lon="6.59675">
        <ele>57.82</ele>
        <time>2018-06-17T10:21:30Z</time>
      </trkpt>
      <trkpt lat="43.50944" lon="6.59672">
        <ele>57.82</ele>
        <time>2018-06-17T10:21:44Z</time>
      </trkpt>
      <trkpt lat="43.50945" lon="6.59673">
        <ele>58.3</ele>
        <time>2018-06-17T10:22:12Z</time>
      </trkpt>
      <trkpt lat="43.50949" lon="6.59674">
        <ele>58.3</ele>
        <time>2018-06-17T10:22:24Z</time>
      </trkpt>
      <trkpt lat="43.50946" lon="6.5968">
        <ele>57.82</ele>
        <time>2018-06-17T10:22:37Z</time>
      </trkpt>
      <trkpt lat="43.50945" lon="6.59683">
        <ele>57.34</ele>
        <time>2018-06-17T10:22:49Z</time>
      </trkpt>
      <trkpt lat="43.50948" lon="6.59685">
        <ele>57.82</ele>
        <time>2018-06-17T10:23:02Z</time>
      </trkpt>
      <trkpt lat="43.50949" lon="6.59681">
        <ele>57.82</ele>
        <time>2018-06-17T10:23:15Z</time>
      </trkpt>
      <trkpt lat="43.50948" lon="6.59679">
        <ele>58.3</ele>
        <time>2018-06-17T10:23:30Z</time>
      </trkpt>
      <trkpt lat="43.50948" lon="6.59677">
        <ele>57.34</ele>
        <time>2018-06-17T10:23:47Z</time>
      </trkpt>
      <trkpt lat="43.50947" lon="6.59677">
        <ele>57.34</ele>
        <time>2018-06-17T10:24:01Z</time>
      </trkpt>
      <trkpt lat="43.50947" lon="6.59668">
        <ele>58.3</ele>
        <time>2018-06-17T10:24:16Z</time>
      </trkpt>
      <trkpt lat="43.50948" lon="6.59667">
        <ele>58.78</ele>
        <time>2018-06-17T10:24:33Z</time>
      </trkpt>
      <trkpt lat="43.50948" lon="6.59671">
        <ele>58.78</ele>
        <time>2018-06-17T10:24:51Z</time>
      </trkpt>
      <trkpt lat="43.50952" lon="6.59675">
        <ele>59.74</ele>
        <time>2018-06-17T10:25:01Z</time>
      </trkpt>
      <trkpt lat="43.50952" lon="6.59684">
        <ele>59.26</ele>
        <time>2018-06-17T10:25:14Z</time>
      </trkpt>
      <trkpt lat="43.50952" lon="6.59683">
        <ele>58.78</ele>
        <time>2018-06-17T10:25:31Z</time>
      </trkpt>
      <trkpt lat="43.50948" lon="6.59684">
        <ele>57.82</ele>
        <time>2018-06-17T10:25:47Z</time>
      </trkpt>
      <trkpt lat="43.50944" lon="6.59679">
        <ele>57.82</ele>
        <time>2018-06-17T10:26:03Z</time>
      </trkpt>
      <trkpt lat="43.50944" lon="6.59683">
        <ele>57.34</ele>
        <time>2018-06-17T10:26:16Z</time>
      </trkpt>
      <trkpt lat="43.50944" lon="6.59683">
        <ele>57.34</ele>
        <time>2018-06-17T10:26:29Z</time>
      </trkpt>
      <trkpt lat="43.50943" lon="6.59681">
        <ele>57.82</ele>
        <time>2018-06-17T10:26:46Z</time>
      </trkpt>
      <trkpt lat="43.50944" lon="6.59682">
        <ele>57.82</ele>
        <time>2018-06-17T10:27:02Z</time>
      </trkpt>
      <trkpt lat="43.50945" lon="6.5968">
        <ele>58.3</ele>
        <time>2018-06-17T10:27:18Z</time>
      </trkpt>
      <trkpt lat="43.50945" lon="6.59679">
        <ele>58.3</ele>
        <time>2018-06-17T10:27:35Z</time>
      </trkpt>
      <trkpt lat="43.50947" lon="6.59679">
        <ele>58.3</ele>
        <time>2018-06-17T10:27:50Z</time>
      </trkpt>
      <trkpt lat="43.50948" lon="6.59681">
        <ele>58.3</ele>
        <time>2018-06-17T10:28:09Z</time>
      </trkpt>
      <trkpt lat="43.50946" lon="6.59681">
        <ele>57.82</ele>
        <time>2018-06-17T10:28:39Z</time>
      </trkpt>
      <trkpt lat="43.50945" lon="6.59677">
        <ele>58.3</ele>
        <time>2018-06-17T10:29:09Z</time>
      </trkpt>
      <trkpt lat="43.50944" lon="6.59678">
        <ele>57.82</ele>
        <time>2018-06-17T10:29:25Z</time>
      </trkpt>
      <trkpt lat="43.50945" lon="6.59677">
        <ele>57.34</ele>
        <time>2018-06-17T10:29:46Z</time>
      </trkpt>
      <trkpt lat="43.50942" lon="6.59677">
        <ele>57.34</ele>
        <time>2018-06-17T10:30:02Z</time>
      </trkpt>
      <trkpt lat="43.50944" lon="6.59681">
        <ele>57.34</ele>
        <time>2018-06-17T10:30:15Z</time>
      </trkpt>
      <trkpt lat="43.5095" lon="6.59687">
        <ele>58.3</ele>
        <time>2018-06-17T10:30:30Z</time>
      </trkpt>
      <trkpt lat="43.5095" lon="6.59683">
        <ele>58.3</ele>
        <time>2018-06-17T10:30:43Z</time>
      </trkpt>
      <trkpt lat="43.50949" lon="6.5968">
        <ele>57.82</ele>
        <time>2018-06-17T10:31:12Z</time>
      </trkpt>
      <trkpt lat="43.50948" lon="6.5968">
        <ele>57.82</ele>
        <time>2018-06-17T10:31:32Z</time>
      </trkpt>
      <trkpt lat="43.50948" lon="6.59675">
        <ele>58.3</ele>
        <time>2018-06-17T10:31:46Z</time>
      </trkpt>
      <trkpt lat="43.50949" lon="6.59677">
        <ele>57.82</ele>
        <time>2018-06-17T10:32:28Z</time>
      </trkpt>
      <trkpt lat="43.5095" lon="6.59678">
        <ele>57.82</ele>
        <time>2018-06-17T10:32:51Z</time>
      </trkpt>
      <trkpt lat="43.50951" lon="6.59676">
        <ele>58.3</ele>
        <time>2018-06-17T10:33:17Z</time>
      </trkpt>
      <trkpt lat="43.50949" lon="6.59677">
        <ele>58.3</ele>
        <time>2018-06-17T10:33:48Z</time>
      </trkpt>
      <trkpt lat="43.50946" lon="6.59679">
        <ele>58.3</ele>
        <time>2018-06-17T10:34:05Z</time>
      </trkpt>
      <trkpt lat="43.50948" lon="6.59673">
        <ele>58.78</ele>
        <time>2018-06-17T10:34:23Z</time>
      </trkpt>
      <trkpt lat="43.50949" lon="6.59669">
        <ele>58.78</ele>
        <time>2018-06-17T10:34:36Z</time>
      </trkpt>
      <trkpt lat="43.50949" lon="6.59671">
        <ele>59.26</ele>
        <time>2018-06-17T10:34:54Z</time>
      </trkpt>
      <trkpt lat="43.50947" lon="6.59666">
        <ele>58.3</ele>
        <time>2018-06-17T10:35:14Z</time>
      </trkpt>
      <trkpt lat="43.50948" lon="6.59667">
        <ele>58.78</ele>
        <time>2018-06-17T10:35:37Z</time>
      </trkpt>
      <trkpt lat="43.50951" lon="6.5967">
        <ele>59.74</ele>
        <time>2018-06-17T10:35:56Z</time>
      </trkpt>
      <trkpt lat="43.50958" lon="6.59693">
        <ele>59.26</ele>
        <time>2018-06-17T10:36:14Z</time>
      </trkpt>
      <trkpt lat="43.50965" lon="6.59713">
        <ele>59.74</ele>
        <time>2018-06-17T10:36:34Z</time>
      </trkpt>
      <trkpt lat="43.50967" lon="6.59715">
        <ele>59.74</ele>
        <time>2018-06-17T10:36:53Z</time>
      </trkpt>
      <trkpt lat="43.50977" lon="6.59738">
        <ele>60.22</ele>
        <time>2018-06-17T10:37:10Z</time>
      </trkpt>
      <trkpt lat="43.50978" lon="6.59751">
        <ele>60.22</ele>
        <time>2018-06-17T10:37:26Z</time>
      </trkpt>
      <trkpt lat="43.50974" lon="6.59763">
        <ele>60.7</ele>
        <time>2018-06-17T10:37:44Z</time>
      </trkpt>
      <trkpt lat="43.50971" lon="6.59772">
        <ele>60.7</ele>
        <time>2018-06-17T10:37:58Z</time>
      </trkpt>
      <trkpt lat="43.50969" lon="6.59785">
        <ele>61.18</ele>
        <time>2018-06-17T10:38:14Z</time>
      </trkpt>
      <trkpt lat="43.50968" lon="6.59792">
        <ele>61.18</ele>
        <time>2018-06-17T10:38:19Z</time>
      </trkpt>
      <trkpt lat="43.50968" lon="6.59815">
        <ele>61.66</ele>
        <time>2018-06-17T10:38:36Z</time>
      </trkpt>
      <trkpt lat="43.5097" lon="6.59834">
        <ele>62.62</ele>
        <time>2018-06-17T10:38:50Z</time>
      </trkpt>
      <trkpt lat="43.50974" lon="6.59857">
        <ele>62.14</ele>
        <time>2018-06-17T10:39:07Z</time>
      </trkpt>
      <trkpt lat="43.50984" lon="6.59879">
        <ele>63.1</ele>
        <time>2018-06-17T10:39:25Z</time>
      </trkpt>
      <trkpt lat="43.50986" lon="6.59882">
        <ele>63.1</ele>
        <time>2018-06-17T10:39:28Z</time>
      </trkpt>
      <trkpt lat="43.50989" lon="6.59885">
        <ele>62.62</ele>
        <time>2018-06-17T10:39:31Z</time>
      </trkpt>
      <trkpt lat="43.51008" lon="6.59893">
        <ele>64.07</ele>
        <time>2018-06-17T10:39:52Z</time>
      </trkpt>
      <trkpt lat="43.51021" lon="6.59892">
        <ele>65.51</ele>
        <time>2018-06-17T10:40:05Z</time>
      </trkpt>
      <trkpt lat="43.5104" lon="6.59888">
        <ele>65.99</ele>
        <time>2018-06-17T10:40:25Z</time>
      </trkpt>
      <trkpt lat="43.51059" lon="6.59896">
        <ele>66.47</ele>
        <time>2018-06-17T10:40:44Z</time>
      </trkpt>
      <trkpt lat="43.51062" lon="6.59903">
        <ele>66.47</ele>
        <time>2018-06-17T10:41:03Z</time>
      </trkpt>
      <trkpt lat="43.51068" lon="6.59923">
        <ele>66.95</ele>
        <time>2018-06-17T10:41:21Z</time>
      </trkpt>
      <trkpt lat="43.51067" lon="6.59926">
        <ele>66.47</ele>
        <time>2018-06-17T10:41:32Z</time>
      </trkpt>
      <trkpt lat="43.51069" lon="6.59942">
        <ele>66.95</ele>
        <time>2018-06-17T10:41:46Z</time>
      </trkpt>
      <trkpt lat="43.51066" lon="6.59966">
        <ele>66.47</ele>
        <time>2018-06-17T10:42:04Z</time>
      </trkpt>
      <trkpt lat="43.51073" lon="6.59971">
        <ele>67.43</ele>
        <time>2018-06-17T10:42:16Z</time>
      </trkpt>
      <trkpt lat="43.51087" lon="6.59966">
        <ele>67.91</ele>
        <time>2018-06-17T10:42:35Z</time>
      </trkpt>
      <trkpt lat="43.51099" lon="6.59964">
        <ele>69.83</ele>
        <time>2018-06-17T10:42:53Z</time>
      </trkpt>
      <trkpt lat="43.51112" lon="6.59959">
        <ele>71.27</ele>
        <time>2018-06-17T10:43:13Z</time>
      </trkpt>
      <trkpt lat="43.51122" lon="6.5996">
        <ele>72.24</ele>
        <time>2018-06-17T10:43:27Z</time>
      </trkpt>
      <trkpt lat="43.51124" lon="6.5996">
        <ele>72.72</ele>
        <time>2018-06-17T10:43:42Z</time>
      </trkpt>
      <trkpt lat="43.51127" lon="6.5996">
        <ele>72.72</ele>
        <time>2018-06-17T10:44:03Z</time>
      </trkpt>
      <trkpt lat="43.51125" lon="6.59963">
        <ele>72.72</ele>
        <time>2018-06-17T10:44:29Z</time>
      </trkpt>
      <trkpt lat="43.51124" lon="6.5996">
        <ele>73.2</ele>
        <time>2018-06-17T10:44:57Z</time>
      </trkpt>
      <trkpt lat="43.51124" lon="6.59958">
        <ele>72.72</ele>
        <time>2018-06-17T10:45:30Z</time>
      </trkpt>
      <trkpt lat="43.51123" lon="6.59959">
        <ele>72.72</ele>
        <time>2018-06-17T10:45:56Z</time>
      </trkpt>
      <trkpt lat="43.51124" lon="6.59959">
        <ele>72.72</ele>
        <time>2018-06-17T10:46:28Z</time>
      </trkpt>
      <trkpt lat="43.51126" lon="6.59961">
        <ele>73.2</ele>
        <time>2018-06-17T10:46:59Z</time>
      </trkpt>
      <trkpt lat="43.51124" lon="6.59962">
        <ele>72.72</ele>
        <time>2018-06-17T10:47:30Z</time>
      </trkpt>
      <trkpt lat="43.51122" lon="6.5996">
        <ele>73.2</ele>
        <time>2018-06-17T10:48:03Z</time>
      </trkpt>
      <trkpt lat="43.51123" lon="6.59965">
        <ele>73.2</ele>
        <time>2018-06-17T10:48:29Z</time>
      </trkpt>
      <trkpt lat="43.51118" lon="6.59957">
        <ele>72.24</ele>
        <time>2018-06-17T10:48:43Z</time>
      </trkpt>
      <trkpt lat="43.51107" lon="6.59959">
        <ele>70.31</ele>
        <time>2018-06-17T10:48:59Z</time>
      </trkpt>
      <trkpt lat="43.51091" lon="6.59965">
        <ele>69.35</ele>
        <time>2018-06-17T10:49:18Z</time>
      </trkpt>
      <trkpt lat="43.51086" lon="6.59965">
        <ele>68.87</ele>
        <time>2018-06-17T10:49:33Z</time>
      </trkpt>
      <trkpt lat="43.51082" lon="6.59967">
        <ele>67.91</ele>
        <time>2018-06-17T10:49:37Z</time>
      </trkpt>
      <trkpt lat="43.51068" lon="6.59976">
        <ele>67.43</ele>
        <time>2018-06-17T10:49:51Z</time>
      </trkpt>
      <trkpt lat="43.51063" lon="6.59984">
        <ele>67.91</ele>
        <time>2018-06-17T10:50:07Z</time>
      </trkpt>
      <trkpt lat="43.51063" lon="6.59981">
        <ele>67.43</ele>
        <time>2018-06-17T10:50:33Z</time>
      </trkpt>
      <trkpt lat="43.51063" lon="6.59987">
        <ele>67.43</ele>
        <time>2018-06-17T10:50:56Z</time>
      </trkpt>
      <trkpt lat="43.5106" lon="6.59998">
        <ele>66.95</ele>
        <time>2018-06-17T10:51:05Z</time>
      </trkpt>
      <trkpt lat="43.51053" lon="6.6002">
        <ele>67.43</ele>
        <time>2018-06-17T10:51:23Z</time>
      </trkpt>
      <trkpt lat="43.51038" lon="6.60042">
        <ele>67.91</ele>
        <time>2018-06-17T10:51:43Z</time>
      </trkpt>
      <trkpt lat="43.51026" lon="6.60058">
        <ele>68.87</ele>
        <time>2018-06-17T10:51:58Z</time>
      </trkpt>
      <trkpt lat="43.51012" lon="6.60075">
        <ele>69.35</ele>
        <time>2018-06-17T10:52:15Z</time>
      </trkpt>
      <trkpt lat="43.51003" lon="6.60084">
        <ele>69.83</ele>
        <time>2018-06-17T10:52:29Z</time>
      </trkpt>
      <trkpt lat="43.50988" lon="6.60101">
        <ele>70.79</ele>
        <time>2018-06-17T10:52:48Z</time>
      </trkpt>
      <trkpt lat="43.5098" lon="6.60104">
        <ele>70.31</ele>
        <time>2018-06-17T10:52:57Z</time>
      </trkpt>
      <trkpt lat="43.50972" lon="6.60097">
        <ele>70.79</ele>
        <time>2018-06-17T10:53:06Z</time>
      </trkpt>
      <trkpt lat="43.50968" lon="6.60071">
        <ele>69.83</ele>
        <time>2018-06-17T10:53:22Z</time>
      </trkpt>
      <trkpt lat="43.50962" lon="6.60055">
        <ele>67.43</ele>
        <time>2018-06-17T10:53:38Z</time>
      </trkpt>
      <trkpt lat="43.50962" lon="6.60054">
        <ele>67.43</ele>
        <time>2018-06-17T10:53:39Z</time>
      </trkpt>
      <trkpt lat="43.50952" lon="6.60046">
        <ele>66.95</ele>
        <time>2018-06-17T10:53:56Z</time>
      </trkpt>
      <trkpt lat="43.5094" lon="6.60038">
        <ele>66.47</ele>
        <time>2018-06-17T10:54:11Z</time>
      </trkpt>
      <trkpt lat="43.50922" lon="6.60027">
        <ele>66.47</ele>
        <time>2018-06-17T10:54:28Z</time>
      </trkpt>
      <trkpt lat="43.50899" lon="6.60021">
        <ele>68.39</ele>
        <time>2018-06-17T10:54:50Z</time>
      </trkpt>
      <trkpt lat="43.5088" lon="6.60017">
        <ele>70.31</ele>
        <time>2018-06-17T10:55:10Z</time>
      </trkpt>
      <trkpt lat="43.50861" lon="6.60005">
        <ele>71.27</ele>
        <time>2018-06-17T10:55:32Z</time>
      </trkpt>
      <trkpt lat="43.50842" lon="6.59997">
        <ele>71.76</ele>
        <time>2018-06-17T10:55:52Z</time>
      </trkpt>
      <trkpt lat="43.50838" lon="6.60001">
        <ele>73.68</ele>
        <time>2018-06-17T10:56:06Z</time>
      </trkpt>
      <trkpt lat="43.50838" lon="6.60012">
        <ele>73.2</ele>
        <time>2018-06-17T10:56:16Z</time>
      </trkpt>
      <trkpt lat="43.50833" lon="6.60032">
        <ele>74.64</ele>
        <time>2018-06-17T10:56:30Z</time>
      </trkpt>
      <trkpt lat="43.5083" lon="6.60036">
        <ele>74.16</ele>
        <time>2018-06-17T10:56:34Z</time>
      </trkpt>
      <trkpt lat="43.50815" lon="6.6005">
        <ele>74.16</ele>
        <time>2018-06-17T10:56:55Z</time>
      </trkpt>
      <trkpt lat="43.50813" lon="6.60052">
        <ele>73.68</ele>
        <time>2018-06-17T10:57:12Z</time>
      </trkpt>
      <trkpt lat="43.50811" lon="6.60055">
        <ele>73.2</ele>
        <time>2018-06-17T10:57:28Z</time>
      </trkpt>
      <trkpt lat="43.50811" lon="6.60053">
        <ele>73.2</ele>
        <time>2018-06-17T10:57:42Z</time>
      </trkpt>
      <trkpt lat="43.50809" lon="6.60058">
        <ele>72.72</ele>
        <time>2018-06-17T10:57:54Z</time>
      </trkpt>
      <trkpt lat="43.50808" lon="6.60058">
        <ele>72.72</ele>
        <time>2018-06-17T10:58:15Z</time>
      </trkpt>
      <trkpt lat="43.5081" lon="6.60055">
        <ele>72.72</ele>
        <time>2018-06-17T10:58:33Z</time>
      </trkpt>
      <trkpt lat="43.50813" lon="6.60058">
        <ele>72.72</ele>
        <time>2018-06-17T10:58:45Z</time>
      </trkpt>
      <trkpt lat="43.50812" lon="6.60058">
        <ele>73.2</ele>
        <time>2018-06-17T10:59:04Z</time>
      </trkpt>
      <trkpt lat="43.50815" lon="6.60055">
        <ele>73.2</ele>
        <time>2018-06-17T10:59:18Z</time>
      </trkpt>
      <trkpt lat="43.50815" lon="6.60051">
        <ele>73.68</ele>
        <time>2018-06-17T10:59:36Z</time>
      </trkpt>
      <trkpt lat="43.50815" lon="6.60052">
        <ele>72.72</ele>
        <time>2018-06-17T10:59:49Z</time>
      </trkpt>
      <trkpt lat="43.50816" lon="6.60053">
        <ele>73.2</ele>
        <time>2018-06-17T11:00:15Z</time>
      </trkpt>
      <trkpt lat="43.50815" lon="6.6005">
        <ele>73.2</ele>
        <time>2018-06-17T11:00:44Z</time>
      </trkpt>
      <trkpt lat="43.50817" lon="6.60055">
        <ele>73.68</ele>
        <time>2018-06-17T11:01:05Z</time>
      </trkpt>
      <trkpt lat="43.50815" lon="6.60059">
        <ele>73.2</ele>
        <time>2018-06-17T11:01:18Z</time>
      </trkpt>
      <trkpt lat="43.50814" lon="6.60058">
        <ele>73.68</ele>
        <time>2018-06-17T11:01:44Z</time>
      </trkpt>
      <trkpt lat="43.50813" lon="6.60058">
        <ele>73.2</ele>
        <time>2018-06-17T11:02:04Z</time>
      </trkpt>
      <trkpt lat="43.50813" lon="6.6006">
        <ele>73.2</ele>
        <time>2018-06-17T11:02:31Z</time>
      </trkpt>
      <trkpt lat="43.50812" lon="6.60061">
        <ele>72.72</ele>
        <time>2018-06-17T11:03:02Z</time>
      </trkpt>
      <trkpt lat="43.50813" lon="6.60062">
        <ele>73.68</ele>
        <time>2018-06-17T11:03:30Z</time>
      </trkpt>
      <trkpt lat="43.50813" lon="6.6006">
        <ele>73.2</ele>
        <time>2018-06-17T11:03:52Z</time>
      </trkpt>
      <trkpt lat="43.50816" lon="6.60057">
        <ele>73.68</ele>
        <time>2018-06-17T11:04:18Z</time>
      </trkpt>
      <trkpt lat="43.50815" lon="6.60058">
        <ele>73.2</ele>
        <time>2018-06-17T11:04:56Z</time>
      </trkpt>
      <trkpt lat="43.50814" lon="6.6006">
        <ele>73.68</ele>
        <time>2018-06-17T11:05:24Z</time>
      </trkpt>
      <trkpt lat="43.50812" lon="6.60053">
        <ele>73.68</ele>
        <time>2018-06-17T11:05:41Z</time>
      </trkpt>
      <trkpt lat="43.50813" lon="6.60056">
        <ele>73.2</ele>
        <time>2018-06-17T11:06:06Z</time>
      </trkpt>
      <trkpt lat="43.50811" lon="6.60056">
        <ele>72.72</ele>
        <time>2018-06-17T11:06:32Z</time>
      </trkpt>
      <trkpt lat="43.50811" lon="6.60053">
        <ele>73.2</ele>
        <time>2018-06-17T11:07:03Z</time>
      </trkpt>
      <trkpt lat="43.50811" lon="6.60055">
        <ele>73.68</ele>
        <time>2018-06-17T11:07:28Z</time>
      </trkpt>
      <trkpt lat="43.50811" lon="6.60056">
        <ele>73.68</ele>
        <time>2018-06-17T11:07:45Z</time>
      </trkpt>
      <trkpt lat="43.5081" lon="6.60054">
        <ele>73.2</ele>
        <time>2018-06-17T11:08:00Z</time>
      </trkpt>
      <trkpt lat="43.50812" lon="6.60048">
        <ele>73.68</ele>
        <time>2018-06-17T11:08:30Z</time>
      </trkpt>
      <trkpt lat="43.50815" lon="6.60049">
        <ele>74.16</ele>
        <time>2018-06-17T11:08:50Z</time>
      </trkpt>
      <trkpt lat="43.50823" lon="6.60043">
        <ele>74.64</ele>
        <time>2018-06-17T11:09:05Z</time>
      </trkpt>
      <trkpt lat="43.50824" lon="6.60033">
        <ele>73.68</ele>
        <time>2018-06-17T11:09:13Z</time>
      </trkpt>
      <trkpt lat="43.50827" lon="6.6001">
        <ele>73.68</ele>
        <time>2018-06-17T11:09:30Z</time>
      </trkpt>
      <trkpt lat="43.50835" lon="6.59997">
        <ele>73.2</ele>
        <time>2018-06-17T11:09:45Z</time>
      </trkpt>
      <trkpt lat="43.50838" lon="6.59999">
        <ele>73.68</ele>
        <time>2018-06-17T11:09:49Z</time>
      </trkpt>
      <trkpt lat="43.50848" lon="6.60001">
        <ele>73.68</ele>
        <time>2018-06-17T11:10:05Z</time>
      </trkpt>
      <trkpt lat="43.50854" lon="6.59999">
        <ele>72.24</ele>
        <time>2018-06-17T11:10:21Z</time>
      </trkpt>
      <trkpt lat="43.50877" lon="6.60011">
        <ele>71.27</ele>
        <time>2018-06-17T11:10:42Z</time>
      </trkpt>
      <trkpt lat="43.50898" lon="6.60021">
        <ele>68.87</ele>
        <time>2018-06-17T11:11:04Z</time>
      </trkpt>
      <trkpt lat="43.50911" lon="6.60022">
        <ele>67.43</ele>
        <time>2018-06-17T11:11:18Z</time>
      </trkpt>
      <trkpt lat="43.50929" lon="6.60029">
        <ele>66.95</ele>
        <time>2018-06-17T11:11:36Z</time>
      </trkpt>
      <trkpt lat="43.50945" lon="6.60037">
        <ele>66.47</ele>
        <time>2018-06-17T11:11:52Z</time>
      </trkpt>
      <trkpt lat="43.5095" lon="6.60043">
        <ele>66.95</ele>
        <time>2018-06-17T11:11:58Z</time>
      </trkpt>
      <trkpt lat="43.50959" lon="6.60066">
        <ele>67.91</ele>
        <time>2018-06-17T11:12:15Z</time>
      </trkpt>
      <trkpt lat="43.50963" lon="6.60092">
        <ele>69.83</ele>
        <time>2018-06-17T11:12:35Z</time>
      </trkpt>
      <trkpt lat="43.50969" lon="6.60117">
        <ele>70.79</ele>
        <time>2018-06-17T11:12:54Z</time>
      </trkpt>
      <trkpt lat="43.50978" lon="6.60148">
        <ele>71.76</ele>
        <time>2018-06-17T11:13:18Z</time>
      </trkpt>
      <trkpt lat="43.50979" lon="6.6015">
        <ele>71.76</ele>
        <time>2018-06-17T11:13:20Z</time>
      </trkpt>
      <trkpt lat="43.51" lon="6.60172">
        <ele>73.68</ele>
        <time>2018-06-17T11:13:45Z</time>
      </trkpt>
      <trkpt lat="43.51016" lon="6.60191">
        <ele>76.08</ele>
        <time>2018-06-17T11:14:08Z</time>
      </trkpt>
      <trkpt lat="43.51033" lon="6.60208">
        <ele>77.04</ele>
        <time>2018-06-17T11:14:29Z</time>
      </trkpt>
      <trkpt lat="43.51041" lon="6.60218">
        <ele>77.04</ele>
        <time>2018-06-17T11:14:40Z</time>
      </trkpt>
      <trkpt lat="43.51057" lon="6.60238">
        <ele>77.04</ele>
        <time>2018-06-17T11:15:01Z</time>
      </trkpt>
      <trkpt lat="43.51072" lon="6.60254">
        <ele>77.52</ele>
        <time>2018-06-17T11:15:18Z</time>
      </trkpt>
      <trkpt lat="43.51076" lon="6.60259">
        <ele>77.52</ele>
        <time>2018-06-17T11:15:23Z</time>
      </trkpt>
      <trkpt lat="43.51075" lon="6.60267">
        <ele>77.52</ele>
        <time>2018-06-17T11:15:30Z</time>
      </trkpt>
      <trkpt lat="43.51064" lon="6.60274">
        <ele>78</ele>
        <time>2018-06-17T11:15:43Z</time>
      </trkpt>
      <trkpt lat="43.51051" lon="6.60281">
        <ele>77.52</ele>
        <time>2018-06-17T11:16:01Z</time>
      </trkpt>
      <trkpt lat="43.51056" lon="6.60295">
        <ele>77.52</ele>
        <time>2018-06-17T11:16:17Z</time>
      </trkpt>
      <trkpt lat="43.51059" lon="6.60296">
        <ele>77.04</ele>
        <time>2018-06-17T11:16:34Z</time>
      </trkpt>
      <trkpt lat="43.51059" lon="6.60297">
        <ele>78</ele>
        <time>2018-06-17T11:16:58Z</time>
      </trkpt>
      <trkpt lat="43.5106" lon="6.60298">
        <ele>77.52</ele>
        <time>2018-06-17T11:17:15Z</time>
      </trkpt>
      <trkpt lat="43.51062" lon="6.60297">
        <ele>77.04</ele>
        <time>2018-06-17T11:17:30Z</time>
      </trkpt>
      <trkpt lat="43.5106" lon="6.60297">
        <ele>76.56</ele>
        <time>2018-06-17T11:17:47Z</time>
      </trkpt>
      <trkpt lat="43.51061" lon="6.60298">
        <ele>77.04</ele>
        <time>2018-06-17T11:18:00Z</time>
      </trkpt>
      <trkpt lat="43.51061" lon="6.60297">
        <ele>77.52</ele>
        <time>2018-06-17T11:18:16Z</time>
      </trkpt>
      <trkpt lat="43.51061" lon="6.60298">
        <ele>77.04</ele>
        <time>2018-06-17T11:18:30Z</time>
      </trkpt>
      <trkpt lat="43.51061" lon="6.60298">
        <ele>77.04</ele>
        <time>2018-06-17T11:18:54Z</time>
      </trkpt>
      <trkpt lat="43.51062" lon="6.60298">
        <ele>78</ele>
        <time>2018-06-17T11:19:17Z</time>
      </trkpt>
      <trkpt lat="43.5106" lon="6.60299">
        <ele>78</ele>
        <time>2018-06-17T11:19:38Z</time>
      </trkpt>
      <trkpt lat="43.51061" lon="6.60298">
        <ele>77.52</ele>
        <time>2018-06-17T11:19:55Z</time>
      </trkpt>
      <trkpt lat="43.51061" lon="6.60296">
        <ele>77.52</ele>
        <time>2018-06-17T11:20:18Z</time>
      </trkpt>
      <trkpt lat="43.51062" lon="6.60297">
        <ele>78</ele>
        <time>2018-06-17T11:20:37Z</time>
      </trkpt>
      <trkpt lat="43.51061" lon="6.60297">
        <ele>78.48</ele>
        <time>2018-06-17T11:21:06Z</time>
      </trkpt>
      <trkpt lat="43.5106" lon="6.60297">
        <ele>78</ele>
        <time>2018-06-17T11:21:35Z</time>
      </trkpt>
      <trkpt lat="43.51061" lon="6.60293">
        <ele>78</ele>
        <time>2018-06-17T11:21:56Z</time>
      </trkpt>
      <trkpt lat="43.51053" lon="6.6028">
        <ele>78.48</ele>
        <time>2018-06-17T11:22:13Z</time>
      </trkpt>
      <trkpt lat="43.51053" lon="6.60275">
        <ele>78.48</ele>
        <time>2018-06-17T11:22:26Z</time>
      </trkpt>
      <trkpt lat="43.51074" lon="6.60272">
        <ele>78</ele>
        <time>2018-06-17T11:22:46Z</time>
      </trkpt>
      <trkpt lat="43.51082" lon="6.60262">
        <ele>77.52</ele>
        <time>2018-06-17T11:22:56Z</time>
      </trkpt>
      <trkpt lat="43.51106" lon="6.60255">
        <ele>77.52</ele>
        <time>2018-06-17T11:23:19Z</time>
      </trkpt>
      <trkpt lat="43.51126" lon="6.60245">
        <ele>78</ele>
        <time>2018-06-17T11:23:38Z</time>
      </trkpt>
      <trkpt lat="43.51146" lon="6.60234">
        <ele>78.48</ele>
        <time>2018-06-17T11:23:58Z</time>
      </trkpt>
      <trkpt lat="43.51171" lon="6.60223">
        <ele>79.45</ele>
        <time>2018-06-17T11:24:22Z</time>
      </trkpt>
      <trkpt lat="43.51189" lon="6.60216">
        <ele>80.41</ele>
        <time>2018-06-17T11:24:40Z</time>
      </trkpt>
      <trkpt lat="43.51201" lon="6.6021">
        <ele>79.93</ele>
        <time>2018-06-17T11:24:56Z</time>
      </trkpt>
      <trkpt lat="43.51209" lon="6.60204">
        <ele>80.41</ele>
        <time>2018-06-17T11:25:14Z</time>
      </trkpt>
      <trkpt lat="43.51231" lon="6.60188">
        <ele>80.89</ele>
        <time>2018-06-17T11:25:38Z</time>
      </trkpt>
      <trkpt lat="43.51254" lon="6.60168">
        <ele>81.85</ele>
        <time>2018-06-17T11:26:02Z</time>
      </trkpt>
      <trkpt lat="43.51268" lon="6.60165">
        <ele>82.81</ele>
        <time>2018-06-17T11:26:21Z</time>
      </trkpt>
      <trkpt lat="43.51269" lon="6.60165">
        <ele>81.85</ele>
        <time>2018-06-17T11:26:34Z</time>
      </trkpt>
      <trkpt lat="43.5127" lon="6.60171">
        <ele>82.33</ele>
        <time>2018-06-17T11:26:39Z</time>
      </trkpt>
      <trkpt lat="43.51275" lon="6.60192">
        <ele>81.37</ele>
        <time>2018-06-17T11:26:57Z</time>
      </trkpt>
      <trkpt lat="43.51276" lon="6.60196">
        <ele>81.37</ele>
        <time>2018-06-17T11:27:00Z</time>
      </trkpt>
      <trkpt lat="43.51277" lon="6.60229">
        <ele>79.45</ele>
        <time>2018-06-17T11:27:22Z</time>
      </trkpt>
      <trkpt lat="43.51278" lon="6.60249">
        <ele>78.97</ele>
        <time>2018-06-17T11:27:38Z</time>
      </trkpt>
      <trkpt lat="43.51281" lon="6.60264">
        <ele>78</ele>
        <time>2018-06-17T11:27:55Z</time>
      </trkpt>
      <trkpt lat="43.51278" lon="6.60263">
        <ele>78.48</ele>
        <time>2018-06-17T11:28:10Z</time>
      </trkpt>
      <trkpt lat="43.51277" lon="6.60262">
        <ele>78</ele>
        <time>2018-06-17T11:28:15Z</time>
      </trkpt>
      <trkpt lat="43.51278" lon="6.60262">
        <ele>78.48</ele>
        <time>2018-06-17T11:28:28Z</time>
      </trkpt>
      <trkpt lat="43.51286" lon="6.60257">
        <ele>78.48</ele>
        <time>2018-06-17T11:28:38Z</time>
      </trkpt>
      <trkpt lat="43.51293" lon="6.60255">
        <ele>78.97</ele>
        <time>2018-06-17T11:28:46Z</time>
      </trkpt>
      <trkpt lat="43.51305" lon="6.60255">
        <ele>78.48</ele>
        <time>2018-06-17T11:29:01Z</time>
      </trkpt>
      <trkpt lat="43.51314" lon="6.60253">
        <ele>78.97</ele>
        <time>2018-06-17T11:29:18Z</time>
      </trkpt>
      <trkpt lat="43.51315" lon="6.60254">
        <ele>78.48</ele>
        <time>2018-06-17T11:29:38Z</time>
      </trkpt>
      <trkpt lat="43.51315" lon="6.60255">
        <ele>77.52</ele>
        <time>2018-06-17T11:29:54Z</time>
      </trkpt>
      <trkpt lat="43.51314" lon="6.60251">
        <ele>78.48</ele>
        <time>2018-06-17T11:30:04Z</time>
      </trkpt>
      <trkpt lat="43.51313" lon="6.6025">
        <ele>78.48</ele>
        <time>2018-06-17T11:30:17Z</time>
      </trkpt>
      <trkpt lat="43.51316" lon="6.60252">
        <ele>78.48</ele>
        <time>2018-06-17T11:30:36Z</time>
      </trkpt>
      <trkpt lat="43.51315" lon="6.60252">
        <ele>78.97</ele>
        <time>2018-06-17T11:31:01Z</time>
      </trkpt>
      <trkpt lat="43.51316" lon="6.60254">
        <ele>79.45</ele>
        <time>2018-06-17T11:31:29Z</time>
      </trkpt>
      <trkpt lat="43.51316" lon="6.60251">
        <ele>79.45</ele>
        <time>2018-06-17T11:31:48Z</time>
      </trkpt>
      <trkpt lat="43.51315" lon="6.60252">
        <ele>79.45</ele>
        <time>2018-06-17T11:32:23Z</time>
      </trkpt>
      <trkpt lat="43.51315" lon="6.6025">
        <ele>79.45</ele>
        <time>2018-06-17T11:33:10Z</time>
      </trkpt>
      <trkpt lat="43.51314" lon="6.6025">
        <ele>79.93</ele>
        <time>2018-06-17T11:33:44Z</time>
      </trkpt>
      <trkpt lat="43.51313" lon="6.60249">
        <ele>79.93</ele>
        <time>2018-06-17T11:34:08Z</time>
      </trkpt>
      <trkpt lat="43.51314" lon="6.60251">
        <ele>79.93</ele>
        <time>2018-06-17T11:34:46Z</time>
      </trkpt>
      <trkpt lat="43.51316" lon="6.60252">
        <ele>79.45</ele>
        <time>2018-06-17T11:35:27Z</time>
      </trkpt>
      <trkpt lat="43.51316" lon="6.60253">
        <ele>80.41</ele>
        <time>2018-06-17T11:36:15Z</time>
      </trkpt>
      <trkpt lat="43.51317" lon="6.60249">
        <ele>80.41</ele>
        <time>2018-06-17T11:37:02Z</time>
      </trkpt>
      <trkpt lat="43.51314" lon="6.60248">
        <ele>80.41</ele>
        <time>2018-06-17T11:37:53Z</time>
      </trkpt>
      <trkpt lat="43.51313" lon="6.60247">
        <ele>79.93</ele>
        <time>2018-06-17T11:38:39Z</time>
      </trkpt>
      <trkpt lat="43.51315" lon="6.6025">
        <ele>79.93</ele>
        <time>2018-06-17T11:38:56Z</time>
      </trkpt>
      <trkpt lat="43.51316" lon="6.60249">
        <ele>79.93</ele>
        <time>2018-06-17T11:39:12Z</time>
      </trkpt>
      <trkpt lat="43.51317" lon="6.60248">
        <ele>79.93</ele>
        <time>2018-06-17T11:39:34Z</time>
      </trkpt>
      <trkpt lat="43.51319" lon="6.60249">
        <ele>80.41</ele>
        <time>2018-06-17T11:40:00Z</time>
      </trkpt>
      <trkpt lat="43.51324" lon="6.60245">
        <ele>79.93</ele>
        <time>2018-06-17T11:40:15Z</time>
      </trkpt>
      <trkpt lat="43.51324" lon="6.60243">
        <ele>79.93</ele>
        <time>2018-06-17T11:40:30Z</time>
      </trkpt>
      <trkpt lat="43.51325" lon="6.60238">
        <ele>79.93</ele>
        <time>2018-06-17T11:40:34Z</time>
      </trkpt>
      <trkpt lat="43.51326" lon="6.60213">
        <ele>80.89</ele>
        <time>2018-06-17T11:40:52Z</time>
      </trkpt>
      <trkpt lat="43.51327" lon="6.60188">
        <ele>81.85</ele>
        <time>2018-06-17T11:41:10Z</time>
      </trkpt>
      <trkpt lat="43.51319" lon="6.6016">
        <ele>84.25</ele>
        <time>2018-06-17T11:41:32Z</time>
      </trkpt>
      <trkpt lat="43.51312" lon="6.60149">
        <ele>84.73</ele>
        <time>2018-06-17T11:41:49Z</time>
      </trkpt>
      <trkpt lat="43.51309" lon="6.60144">
        <ele>86.18</ele>
        <time>2018-06-17T11:41:56Z</time>
      </trkpt>
      <trkpt lat="43.51307" lon="6.60135">
        <ele>85.21</ele>
        <time>2018-06-17T11:42:12Z</time>
      </trkpt>
      <trkpt lat="43.51307" lon="6.60118">
        <ele>85.21</ele>
        <time>2018-06-17T11:42:24Z</time>
      </trkpt>
      <trkpt lat="43.51321" lon="6.60099">
        <ele>85.69</ele>
        <time>2018-06-17T11:42:43Z</time>
      </trkpt>
      <trkpt lat="43.51323" lon="6.60095">
        <ele>85.69</ele>
        <time>2018-06-17T11:42:46Z</time>
      </trkpt>
      <trkpt lat="43.51328" lon="6.60082">
        <ele>86.66</ele>
        <time>2018-06-17T11:43:03Z</time>
      </trkpt>
      <trkpt lat="43.5133" lon="6.60082">
        <ele>86.66</ele>
        <time>2018-06-17T11:43:20Z</time>
      </trkpt>
      <trkpt lat="43.51343" lon="6.60071">
        <ele>86.66</ele>
        <time>2018-06-17T11:43:36Z</time>
      </trkpt>
      <trkpt lat="43.51359" lon="6.60051">
        <ele>87.62</ele>
        <time>2018-06-17T11:43:56Z</time>
      </trkpt>
      <trkpt lat="43.51376" lon="6.60025">
        <ele>88.58</ele>
        <time>2018-06-17T11:44:19Z</time>
      </trkpt>
      <trkpt lat="43.51383" lon="6.60015">
        <ele>89.06</ele>
        <time>2018-06-17T11:44:28Z</time>
      </trkpt>
      <trkpt lat="43.51384" lon="6.6001">
        <ele>89.06</ele>
        <time>2018-06-17T11:44:45Z</time>
      </trkpt>
      <trkpt lat="43.51384" lon="6.60012">
        <ele>88.58</ele>
        <time>2018-06-17T11:45:06Z</time>
      </trkpt>
      <trkpt lat="43.51386" lon="6.60014">
        <ele>89.54</ele>
        <time>2018-06-17T11:45:31Z</time>
      </trkpt>
      <trkpt lat="43.51388" lon="6.60011">
        <ele>89.06</ele>
        <time>2018-06-17T11:45:51Z</time>
      </trkpt>
      <trkpt lat="43.51407" lon="6.59989">
        <ele>89.54</ele>
        <time>2018-06-17T11:46:14Z</time>
      </trkpt>
      <trkpt lat="43.5143" lon="6.59987">
        <ele>89.54</ele>
        <time>2018-06-17T11:46:35Z</time>
      </trkpt>
      <trkpt lat="43.51453" lon="6.60002">
        <ele>90.02</ele>
        <time>2018-06-17T11:46:58Z</time>
      </trkpt>
      <trkpt lat="43.5147" lon="6.60022">
        <ele>90.98</ele>
        <time>2018-06-17T11:47:19Z</time>
      </trkpt>
      <trkpt lat="43.51487" lon="6.60045">
        <ele>91.46</ele>
        <time>2018-06-17T11:47:42Z</time>
      </trkpt>
      <trkpt lat="43.51504" lon="6.60061">
        <ele>92.42</ele>
        <time>2018-06-17T11:48:02Z</time>
      </trkpt>
      <trkpt lat="43.51521" lon="6.60067">
        <ele>92.42</ele>
        <time>2018-06-17T11:48:18Z</time>
      </trkpt>
      <trkpt lat="43.51543" lon="6.6007">
        <ele>90.5</ele>
        <time>2018-06-17T11:48:38Z</time>
      </trkpt>
      <trkpt lat="43.51561" lon="6.60069">
        <ele>90.02</ele>
        <time>2018-06-17T11:48:55Z</time>
      </trkpt>
      <trkpt lat="43.51569" lon="6.60066">
        <ele>90.02</ele>
        <time>2018-06-17T11:49:11Z</time>
      </trkpt>
      <trkpt lat="43.51571" lon="6.60066">
        <ele>90.02</ele>
        <time>2018-06-17T11:49:16Z</time>
      </trkpt>
      <trkpt lat="43.51594" lon="6.60068">
        <ele>89.54</ele>
        <time>2018-06-17T11:49:38Z</time>
      </trkpt>
      <trkpt lat="43.51606" lon="6.60065">
        <ele>89.54</ele>
        <time>2018-06-17T11:49:50Z</time>
      </trkpt>
      <trkpt lat="43.51609" lon="6.60047">
        <ele>89.54</ele>
        <time>2018-06-17T11:50:07Z</time>
      </trkpt>
      <trkpt lat="43.51616" lon="6.60029">
        <ele>90.02</ele>
        <time>2018-06-17T11:50:24Z</time>
      </trkpt>
      <trkpt lat="43.51624" lon="6.60021">
        <ele>90.98</ele>
        <time>2018-06-17T11:50:39Z</time>
      </trkpt>
      <trkpt lat="43.5163" lon="6.60021">
        <ele>91.46</ele>
        <time>2018-06-17T11:50:52Z</time>
      </trkpt>
      <trkpt lat="43.51631" lon="6.60028">
        <ele>90.98</ele>
        <time>2018-06-17T11:51:07Z</time>
      </trkpt>
      <trkpt lat="43.5163" lon="6.60028">
        <ele>90.98</ele>
        <time>2018-06-17T11:51:23Z</time>
      </trkpt>
      <trkpt lat="43.51631" lon="6.60026">
        <ele>91.94</ele>
        <time>2018-06-17T11:51:41Z</time>
      </trkpt>
      <trkpt lat="43.51632" lon="6.60026">
        <ele>91.46</ele>
        <time>2018-06-17T11:51:59Z</time>
      </trkpt>
      <trkpt lat="43.51632" lon="6.60027">
        <ele>91.46</ele>
        <time>2018-06-17T11:52:05Z</time>
      </trkpt>
      <trkpt lat="43.51628" lon="6.60027">
        <ele>91.46</ele>
        <time>2018-06-17T11:52:18Z</time>
      </trkpt>
      <trkpt lat="43.5163" lon="6.60026">
        <ele>90.98</ele>
        <time>2018-06-17T11:52:36Z</time>
      </trkpt>
      <trkpt lat="43.51629" lon="6.60027">
        <ele>91.46</ele>
        <time>2018-06-17T11:52:57Z</time>
      </trkpt>
      <trkpt lat="43.51632" lon="6.60028">
        <ele>91.46</ele>
        <time>2018-06-17T11:53:25Z</time>
      </trkpt>
      <trkpt lat="43.5163" lon="6.60026">
        <ele>91.46</ele>
        <time>2018-06-17T11:53:54Z</time>
      </trkpt>
      <trkpt lat="43.5163" lon="6.60026">
        <ele>91.46</ele>
        <time>2018-06-17T11:54:00Z</time>
      </trkpt>
      <trkpt lat="43.5163" lon="6.60034">
        <ele>91.46</ele>
        <time>2018-06-17T11:54:22Z</time>
      </trkpt>
      <trkpt lat="43.51634" lon="6.60047">
        <ele>90.98</ele>
        <time>2018-06-17T11:54:36Z</time>
      </trkpt>
      <trkpt lat="43.51636" lon="6.60052">
        <ele>90.98</ele>
        <time>2018-06-17T11:54:42Z</time>
      </trkpt>
      <trkpt lat="43.51648" lon="6.60066">
        <ele>88.58</ele>
        <time>2018-06-17T11:54:59Z</time>
      </trkpt>
      <trkpt lat="43.51649" lon="6.60067">
        <ele>89.06</ele>
        <time>2018-06-17T11:55:00Z</time>
      </trkpt>
      <trkpt lat="43.51653" lon="6.60068">
        <ele>89.54</ele>
        <time>2018-06-17T11:55:04Z</time>
      </trkpt>
      <trkpt lat="43.51668" lon="6.60068">
        <ele>89.06</ele>
        <time>2018-06-17T11:55:18Z</time>
      </trkpt>
      <trkpt lat="43.51676" lon="6.60071">
        <ele>89.54</ele>
        <time>2018-06-17T11:55:27Z</time>
      </trkpt>
      <trkpt lat="43.51697" lon="6.60074">
        <ele>89.54</ele>
        <time>2018-06-17T11:55:48Z</time>
      </trkpt>
      <trkpt lat="43.51711" lon="6.60076">
        <ele>89.54</ele>
        <time>2018-06-17T11:56:02Z</time>
      </trkpt>
      <trkpt lat="43.51733" lon="6.60078">
        <ele>90.5</ele>
        <time>2018-06-17T11:56:23Z</time>
      </trkpt>
      <trkpt lat="43.51751" lon="6.60077">
        <ele>91.46</ele>
        <time>2018-06-17T11:56:40Z</time>
      </trkpt>
      <trkpt lat="43.51753" lon="6.60076">
        <ele>91.94</ele>
        <time>2018-06-17T11:56:42Z</time>
      </trkpt>
      <trkpt lat="43.51769" lon="6.60077">
        <ele>92.9</ele>
        <time>2018-06-17T11:56:58Z</time>
      </trkpt>
      <trkpt lat="43.51787" lon="6.60076">
        <ele>93.87</ele>
        <time>2018-06-17T11:57:15Z</time>
      </trkpt>
      <trkpt lat="43.51808" lon="6.60078">
        <ele>95.79</ele>
        <time>2018-06-17T11:57:36Z</time>
      </trkpt>
      <trkpt lat="43.51818" lon="6.60082">
        <ele>97.23</ele>
        <time>2018-06-17T11:57:52Z</time>
      </trkpt>
      <trkpt lat="43.51833" lon="6.60084">
        <ele>98.67</ele>
        <time>2018-06-17T11:58:08Z</time>
      </trkpt>
      <trkpt lat="43.51842" lon="6.60087">
        <ele>99.63</ele>
        <time>2018-06-17T11:58:18Z</time>
      </trkpt>
      <trkpt lat="43.51854" lon="6.60092">
        <ele>99.63</ele>
        <time>2018-06-17T11:58:35Z</time>
      </trkpt>
      <trkpt lat="43.5186" lon="6.60097">
        <ele>99.63</ele>
        <time>2018-06-17T11:58:52Z</time>
      </trkpt>
      <trkpt lat="43.51863" lon="6.601">
        <ele>99.63</ele>
        <time>2018-06-17T11:58:56Z</time>
      </trkpt>
      <trkpt lat="43.51879" lon="6.60113">
        <ele>99.15</ele>
        <time>2018-06-17T11:59:16Z</time>
      </trkpt>
      <trkpt lat="43.51899" lon="6.60126">
        <ele>98.19</ele>
        <time>2018-06-17T11:59:33Z</time>
      </trkpt>
      <trkpt lat="43.51908" lon="6.60133">
        <ele>98.67</ele>
        <time>2018-06-17T11:59:48Z</time>
      </trkpt>
      <trkpt lat="43.51917" lon="6.60153">
        <ele>99.63</ele>
        <time>2018-06-17T12:00:06Z</time>
      </trkpt>
      <trkpt lat="43.51922" lon="6.60159">
        <ele>99.15</ele>
        <time>2018-06-17T12:00:19Z</time>
      </trkpt>
      <trkpt lat="43.51922" lon="6.6016">
        <ele>98.19</ele>
        <time>2018-06-17T12:00:36Z</time>
      </trkpt>
      <trkpt lat="43.51922" lon="6.60161">
        <ele>98.67</ele>
        <time>2018-06-17T12:00:54Z</time>
      </trkpt>
      <trkpt lat="43.51923" lon="6.60162">
        <ele>98.19</ele>
        <time>2018-06-17T12:01:38Z</time>
      </trkpt>
      <trkpt lat="43.51921" lon="6.6016">
        <ele>98.67</ele>
        <time>2018-06-17T12:02:14Z</time>
      </trkpt>
      <trkpt lat="43.51923" lon="6.60163">
        <ele>98.67</ele>
        <time>2018-06-17T12:03:01Z</time>
      </trkpt>
      <trkpt lat="43.51923" lon="6.60162">
        <ele>98.67</ele>
        <time>2018-06-17T12:03:38Z</time>
      </trkpt>
      <trkpt lat="43.51922" lon="6.60161">
        <ele>98.19</ele>
        <time>2018-06-17T12:04:25Z</time>
      </trkpt>
      <trkpt lat="43.51921" lon="6.60162">
        <ele>98.67</ele>
        <time>2018-06-17T12:05:02Z</time>
      </trkpt>
      <trkpt lat="43.51921" lon="6.60161">
        <ele>98.67</ele>
        <time>2018-06-17T12:05:43Z</time>
      </trkpt>
      <trkpt lat="43.51921" lon="6.60159">
        <ele>98.67</ele>
        <time>2018-06-17T12:06:28Z</time>
      </trkpt>
      <trkpt lat="43.51921" lon="6.6016">
        <ele>99.15</ele>
        <time>2018-06-17T12:07:11Z</time>
      </trkpt>
      <trkpt lat="43.51919" lon="6.60159">
        <ele>99.15</ele>
        <time>2018-06-17T12:07:53Z</time>
      </trkpt>
      <trkpt lat="43.51921" lon="6.60159">
        <ele>99.15</ele>
        <time>2018-06-17T12:08:08Z</time>
      </trkpt>
      <trkpt lat="43.51923" lon="6.60165">
        <ele>99.63</ele>
        <time>2018-06-17T12:08:40Z</time>
      </trkpt>
      <trkpt lat="43.51921" lon="6.60164">
        <ele>100.11</ele>
        <time>2018-06-17T12:09:01Z</time>
      </trkpt>
      <trkpt lat="43.5192" lon="6.60161">
        <ele>99.63</ele>
        <time>2018-06-17T12:09:20Z</time>
      </trkpt>
      <trkpt lat="43.51921" lon="6.60155">
        <ele>100.11</ele>
        <time>2018-06-17T12:09:43Z</time>
      </trkpt>
      <trkpt lat="43.51918" lon="6.60148">
        <ele>99.63</ele>
        <time>2018-06-17T12:09:54Z</time>
      </trkpt>
      <trkpt lat="43.51916" lon="6.60139">
        <ele>99.63</ele>
        <time>2018-06-17T12:10:00Z</time>
      </trkpt>
      <trkpt lat="43.51899" lon="6.60126">
        <ele>98.67</ele>
        <time>2018-06-17T12:10:20Z</time>
      </trkpt>
      <trkpt lat="43.51882" lon="6.60112">
        <ele>98.67</ele>
        <time>2018-06-17T12:10:38Z</time>
      </trkpt>
      <trkpt lat="43.51876" lon="6.60104">
        <ele>98.67</ele>
        <time>2018-06-17T12:10:46Z</time>
      </trkpt>
      <trkpt lat="43.51871" lon="6.60082">
        <ele>100.6</ele>
        <time>2018-06-17T12:11:04Z</time>
      </trkpt>
      <trkpt lat="43.5188" lon="6.60076">
        <ele>102.04</ele>
        <time>2018-06-17T12:11:17Z</time>
      </trkpt>
      <trkpt lat="43.51893" lon="6.6007">
        <ele>102.04</ele>
        <time>2018-06-17T12:11:31Z</time>
      </trkpt>
      <trkpt lat="43.51913" lon="6.60065">
        <ele>102.52</ele>
        <time>2018-06-17T12:11:52Z</time>
      </trkpt>
      <trkpt lat="43.51926" lon="6.60065">
        <ele>102.04</ele>
        <time>2018-06-17T12:12:06Z</time>
      </trkpt>
      <trkpt lat="43.51934" lon="6.60069">
        <ele>102.04</ele>
        <time>2018-06-17T12:12:14Z</time>
      </trkpt>
      <trkpt lat="43.51954" lon="6.6009">
        <ele>103</ele>
        <time>2018-06-17T12:12:38Z</time>
      </trkpt>
      <trkpt lat="43.5197" lon="6.60104">
        <ele>103</ele>
        <time>2018-06-17T12:12:58Z</time>
      </trkpt>
      <trkpt lat="43.51984" lon="6.60119">
        <ele>103.96</ele>
        <time>2018-06-17T12:13:15Z</time>
      </trkpt>
      <trkpt lat="43.51993" lon="6.60132">
        <ele>104.92</ele>
        <time>2018-06-17T12:13:30Z</time>
      </trkpt>
      <trkpt lat="43.51996" lon="6.60145">
        <ele>104.92</ele>
        <time>2018-06-17T12:13:40Z</time>
      </trkpt>
      <trkpt lat="43.52007" lon="6.60166">
        <ele>106.36</ele>
        <time>2018-06-17T12:14:00Z</time>
      </trkpt>
      <trkpt lat="43.52021" lon="6.6018">
        <ele>107.81</ele>
        <time>2018-06-17T12:14:20Z</time>
      </trkpt>
      <trkpt lat="43.52037" lon="6.60183">
        <ele>107.81</ele>
        <time>2018-06-17T12:14:38Z</time>
      </trkpt>
      <trkpt lat="43.52047" lon="6.60181">
        <ele>108.77</ele>
        <time>2018-06-17T12:14:50Z</time>
      </trkpt>
      <trkpt lat="43.52057" lon="6.60182">
        <ele>108.77</ele>
        <time>2018-06-17T12:15:09Z</time>
      </trkpt>
      <trkpt lat="43.52065" lon="6.60184">
        <ele>108.77</ele>
        <time>2018-06-17T12:15:23Z</time>
      </trkpt>
      <trkpt lat="43.52062" lon="6.6017">
        <ele>110.69</ele>
        <time>2018-06-17T12:15:40Z</time>
      </trkpt>
      <trkpt lat="43.52065" lon="6.60159">
        <ele>110.69</ele>
        <time>2018-06-17T12:15:54Z</time>
      </trkpt>
      <trkpt lat="43.52066" lon="6.60153">
        <ele>111.17</ele>
        <time>2018-06-17T12:16:08Z</time>
      </trkpt>
      <trkpt lat="43.52059" lon="6.60138">
        <ele>112.13</ele>
        <time>2018-06-17T12:16:25Z</time>
      </trkpt>
      <trkpt lat="43.52063" lon="6.60125">
        <ele>112.61</ele>
        <time>2018-06-17T12:16:39Z</time>
      </trkpt>
      <trkpt lat="43.52066" lon="6.60114">
        <ele>112.61</ele>
        <time>2018-06-17T12:16:53Z</time>
      </trkpt>
      <trkpt lat="43.52066" lon="6.60097">
        <ele>113.09</ele>
        <time>2018-06-17T12:17:10Z</time>
      </trkpt>
      <trkpt lat="43.5207" lon="6.6008">
        <ele>114.05</ele>
        <time>2018-06-17T12:17:27Z</time>
      </trkpt>
      <trkpt lat="43.52074" lon="6.60084">
        <ele>114.05</ele>
        <time>2018-06-17T12:17:38Z</time>
      </trkpt>
      <trkpt lat="43.52078" lon="6.60094">
        <ele>113.57</ele>
        <time>2018-06-17T12:17:54Z</time>
      </trkpt>
      <trkpt lat="43.52079" lon="6.60095">
        <ele>113.57</ele>
        <time>2018-06-17T12:18:13Z</time>
      </trkpt>
      <trkpt lat="43.52078" lon="6.60094">
        <ele>113.57</ele>
        <time>2018-06-17T12:18:31Z</time>
      </trkpt>
      <trkpt lat="43.52077" lon="6.60093">
        <ele>113.57</ele>
        <time>2018-06-17T12:18:49Z</time>
      </trkpt>
      <trkpt lat="43.52075" lon="6.60097">
        <ele>113.57</ele>
        <time>2018-06-17T12:19:04Z</time>
      </trkpt>
      <trkpt lat="43.52076" lon="6.60096">
        <ele>113.09</ele>
        <time>2018-06-17T12:19:22Z</time>
      </trkpt>
      <trkpt lat="43.52073" lon="6.60092">
        <ele>113.57</ele>
        <time>2018-06-17T12:19:41Z</time>
      </trkpt>
      <trkpt lat="43.52072" lon="6.60091">
        <ele>113.57</ele>
        <time>2018-06-17T12:19:48Z</time>
      </trkpt>
      <trkpt lat="43.52072" lon="6.60091">
        <ele>113.57</ele>
        <time>2018-06-17T12:20:01Z</time>
      </trkpt>
      <trkpt lat="43.52073" lon="6.60094">
        <ele>113.09</ele>
        <time>2018-06-17T12:20:23Z</time>
      </trkpt>
      <trkpt lat="43.52075" lon="6.60093">
        <ele>113.09</ele>
        <time>2018-06-17T12:20:46Z</time>
      </trkpt>
      <trkpt lat="43.52074" lon="6.6009">
        <ele>112.61</ele>
        <time>2018-06-17T12:21:11Z</time>
      </trkpt>
      <trkpt lat="43.52072" lon="6.6009">
        <ele>112.61</ele>
        <time>2018-06-17T12:21:25Z</time>
      </trkpt>
      <trkpt lat="43.52075" lon="6.60092">
        <ele>113.57</ele>
        <time>2018-06-17T12:21:42Z</time>
      </trkpt>
      <trkpt lat="43.52077" lon="6.60094">
        <ele>113.57</ele>
        <time>2018-06-17T12:22:04Z</time>
      </trkpt>
      <trkpt lat="43.52077" lon="6.60094">
        <ele>113.57</ele>
        <time>2018-06-17T12:22:28Z</time>
      </trkpt>
      <trkpt lat="43.52079" lon="6.60092">
        <ele>113.09</ele>
        <time>2018-06-17T12:23:00Z</time>
      </trkpt>
      <trkpt lat="43.52078" lon="6.60093">
        <ele>113.57</ele>
        <time>2018-06-17T12:23:32Z</time>
      </trkpt>
      <trkpt lat="43.52079" lon="6.60094">
        <ele>113.57</ele>
        <time>2018-06-17T12:23:52Z</time>
      </trkpt>
      <trkpt lat="43.52079" lon="6.60095">
        <ele>113.09</ele>
        <time>2018-06-17T12:24:08Z</time>
      </trkpt>
      <trkpt lat="43.5208" lon="6.60094">
        <ele>113.09</ele>
        <time>2018-06-17T12:24:27Z</time>
      </trkpt>
      <trkpt lat="43.52076" lon="6.60096">
        <ele>113.09</ele>
        <time>2018-06-17T12:24:49Z</time>
      </trkpt>
      <trkpt lat="43.52073" lon="6.60093">
        <ele>113.57</ele>
        <time>2018-06-17T12:25:07Z</time>
      </trkpt>
      <trkpt lat="43.52069" lon="6.60085">
        <ele>113.57</ele>
        <time>2018-06-17T12:25:23Z</time>
      </trkpt>
      <trkpt lat="43.52059" lon="6.6008">
        <ele>112.13</ele>
        <time>2018-06-17T12:25:40Z</time>
      </trkpt>
      <trkpt lat="43.52047" lon="6.60087">
        <ele>111.17</ele>
        <time>2018-06-17T12:25:58Z</time>
      </trkpt>
      <trkpt lat="43.52052" lon="6.60102">
        <ele>111.65</ele>
        <time>2018-06-17T12:26:14Z</time>
      </trkpt>
      <trkpt lat="43.52052" lon="6.6012">
        <ele>112.13</ele>
        <time>2018-06-17T12:26:30Z</time>
      </trkpt>
      <trkpt lat="43.5205" lon="6.60125">
        <ele>112.13</ele>
        <time>2018-06-17T12:26:42Z</time>
      </trkpt>
      <trkpt lat="43.52045" lon="6.60128">
        <ele>111.17</ele>
        <time>2018-06-17T12:26:55Z</time>
      </trkpt>
      <trkpt lat="43.52043" lon="6.60131">
        <ele>111.17</ele>
        <time>2018-06-17T12:27:11Z</time>
      </trkpt>
      <trkpt lat="43.52042" lon="6.6014">
        <ele>110.69</ele>
        <time>2018-06-17T12:27:25Z</time>
      </trkpt>
      <trkpt lat="43.52037" lon="6.60143">
        <ele>110.21</ele>
        <time>2018-06-17T12:27:39Z</time>
      </trkpt>
      <trkpt lat="43.52033" lon="6.60147">
        <ele>109.25</ele>
        <time>2018-06-17T12:27:52Z</time>
      </trkpt>
      <trkpt lat="43.52035" lon="6.60155">
        <ele>109.73</ele>
        <time>2018-06-17T12:28:11Z</time>
      </trkpt>
      <trkpt lat="43.52034" lon="6.60158">
        <ele>109.73</ele>
        <time>2018-06-17T12:28:25Z</time>
      </trkpt>
      <trkpt lat="43.52036" lon="6.60155">
        <ele>109.25</ele>
        <time>2018-06-17T12:28:36Z</time>
      </trkpt>
      <trkpt lat="43.52034" lon="6.60146">
        <ele>109.73</ele>
        <time>2018-06-17T12:28:52Z</time>
      </trkpt>
      <trkpt lat="43.52035" lon="6.6014">
        <ele>110.21</ele>
        <time>2018-06-17T12:29:08Z</time>
      </trkpt>
      <trkpt lat="43.52033" lon="6.60132">
        <ele>110.21</ele>
        <time>2018-06-17T12:29:21Z</time>
      </trkpt>
      <trkpt lat="43.5203" lon="6.60129">
        <ele>109.73</ele>
        <time>2018-06-17T12:29:33Z</time>
      </trkpt>
      <trkpt lat="43.52025" lon="6.60126">
        <ele>108.77</ele>
        <time>2018-06-17T12:29:47Z</time>
      </trkpt>
      <trkpt lat="43.52018" lon="6.60122">
        <ele>107.81</ele>
        <time>2018-06-17T12:30:03Z</time>
      </trkpt>
      <trkpt lat="43.52011" lon="6.60124">
        <ele>106.84</ele>
        <time>2018-06-17T12:30:20Z</time>
      </trkpt>
      <trkpt lat="43.52004" lon="6.60121">
        <ele>105.88</ele>
        <time>2018-06-17T12:30:39Z</time>
      </trkpt>
      <trkpt lat="43.52002" lon="6.60119">
        <ele>105.88</ele>
        <time>2018-06-17T12:30:55Z</time>
      </trkpt>
      <trkpt lat="43.51999" lon="6.60113">
        <ele>105.4</ele>
        <time>2018-06-17T12:31:09Z</time>
      </trkpt>
      <trkpt lat="43.51998" lon="6.60109">
        <ele>104.44</ele>
        <time>2018-06-17T12:31:25Z</time>
      </trkpt>
      <trkpt lat="43.51991" lon="6.60111">
        <ele>105.4</ele>
        <time>2018-06-17T12:31:40Z</time>
      </trkpt>
      <trkpt lat="43.51985" lon="6.60113">
        <ele>104.44</ele>
        <time>2018-06-17T12:31:56Z</time>
      </trkpt>
      <trkpt lat="43.51985" lon="6.60117">
        <ele>103.96</ele>
        <time>2018-06-17T12:32:09Z</time>
      </trkpt>
      <trkpt lat="43.5199" lon="6.60123">
        <ele>104.92</ele>
        <time>2018-06-17T12:32:28Z</time>
      </trkpt>
      <trkpt lat="43.51995" lon="6.60133">
        <ele>105.4</ele>
        <time>2018-06-17T12:32:37Z</time>
      </trkpt>
      <trkpt lat="43.52004" lon="6.60157">
        <ele>105.88</ele>
        <time>2018-06-17T12:32:57Z</time>
      </trkpt>
      <trkpt lat="43.52015" lon="6.60176">
        <ele>107.32</ele>
        <time>2018-06-17T12:33:16Z</time>
      </trkpt>
      <trkpt lat="43.52023" lon="6.60182">
        <ele>107.81</ele>
        <time>2018-06-17T12:33:25Z</time>
      </trkpt>
      <trkpt lat="43.52036" lon="6.60187">
        <ele>108.29</ele>
        <time>2018-06-17T12:33:42Z</time>
      </trkpt>
      <trkpt lat="43.5204" lon="6.60186">
        <ele>109.25</ele>
        <time>2018-06-17T12:33:46Z</time>
      </trkpt>
      <trkpt lat="43.52057" lon="6.60183">
        <ele>109.25</ele>
        <time>2018-06-17T12:34:04Z</time>
      </trkpt>
      <trkpt lat="43.5206" lon="6.60182">
        <ele>109.25</ele>
        <time>2018-06-17T12:34:18Z</time>
      </trkpt>
      <trkpt lat="43.52061" lon="6.60185">
        <ele>109.25</ele>
        <time>2018-06-17T12:34:41Z</time>
      </trkpt>
      <trkpt lat="43.52061" lon="6.60187">
        <ele>109.25</ele>
        <time>2018-06-17T12:35:01Z</time>
      </trkpt>
      <trkpt lat="43.5206" lon="6.60184">
        <ele>109.73</ele>
        <time>2018-06-17T12:35:15Z</time>
      </trkpt>
      <trkpt lat="43.5206" lon="6.60181">
        <ele>110.21</ele>
        <time>2018-06-17T12:35:32Z</time>
      </trkpt>
      <trkpt lat="43.52059" lon="6.60181">
        <ele>110.21</ele>
        <time>2018-06-17T12:35:48Z</time>
      </trkpt>
      <trkpt lat="43.52058" lon="6.6018">
        <ele>110.21</ele>
        <time>2018-06-17T12:36:15Z</time>
      </trkpt>
      <trkpt lat="43.5206" lon="6.60182">
        <ele>110.69</ele>
        <time>2018-06-17T12:36:52Z</time>
      </trkpt>
      <trkpt lat="43.52059" lon="6.60182">
        <ele>110.69</ele>
        <time>2018-06-17T12:37:20Z</time>
      </trkpt>
      <trkpt lat="43.52058" lon="6.6018">
        <ele>110.69</ele>
        <time>2018-06-17T12:37:44Z</time>
      </trkpt>
      <trkpt lat="43.52059" lon="6.60183">
        <ele>110.21</ele>
        <time>2018-06-17T12:38:18Z</time>
      </trkpt>
      <trkpt lat="43.52062" lon="6.60183">
        <ele>110.21</ele>
        <time>2018-06-17T12:38:36Z</time>
      </trkpt>
      <trkpt lat="43.52061" lon="6.60185">
        <ele>109.73</ele>
        <time>2018-06-17T12:38:59Z</time>
      </trkpt>
      <trkpt lat="43.5206" lon="6.60187">
        <ele>109.73</ele>
        <time>2018-06-17T12:39:11Z</time>
      </trkpt>
      <trkpt lat="43.52061" lon="6.60187">
        <ele>109.73</ele>
        <time>2018-06-17T12:39:13Z</time>
      </trkpt>
      <trkpt lat="43.52077" lon="6.60189">
        <ele>110.69</ele>
        <time>2018-06-17T12:39:31Z</time>
      </trkpt>
      <trkpt lat="43.5209" lon="6.60188">
        <ele>108.77</ele>
        <time>2018-06-17T12:39:47Z</time>
      </trkpt>
      <trkpt lat="43.52091" lon="6.60188">
        <ele>109.25</ele>
        <time>2018-06-17T12:39:48Z</time>
      </trkpt>
      <trkpt lat="43.52105" lon="6.60185">
        <ele>106.84</ele>
        <time>2018-06-17T12:40:02Z</time>
      </trkpt>
      <trkpt lat="43.52124" lon="6.60182">
        <ele>106.84</ele>
        <time>2018-06-17T12:40:21Z</time>
      </trkpt>
      <trkpt lat="43.52138" lon="6.6018">
        <ele>107.32</ele>
        <time>2018-06-17T12:40:34Z</time>
      </trkpt>
      <trkpt lat="43.52151" lon="6.60179">
        <ele>106.36</ele>
        <time>2018-06-17T12:40:48Z</time>
      </trkpt>
      <trkpt lat="43.52168" lon="6.6018">
        <ele>106.84</ele>
        <time>2018-06-17T12:41:04Z</time>
      </trkpt>
      <trkpt lat="43.52174" lon="6.6018">
        <ele>106.36</ele>
        <time>2018-06-17T12:41:24Z</time>
      </trkpt>
      <trkpt lat="43.52183" lon="6.60181">
        <ele>106.84</ele>
        <time>2018-06-17T12:41:46Z</time>
      </trkpt>
      <trkpt lat="43.52199" lon="6.60184">
        <ele>106.36</ele>
        <time>2018-06-17T12:42:04Z</time>
      </trkpt>
      <trkpt lat="43.52216" lon="6.60187">
        <ele>107.32</ele>
        <time>2018-06-17T12:42:22Z</time>
      </trkpt>
      <trkpt lat="43.5223" lon="6.6019">
        <ele>107.81</ele>
        <time>2018-06-17T12:42:38Z</time>
      </trkpt>
      <trkpt lat="43.52246" lon="6.60196">
        <ele>108.77</ele>
        <time>2018-06-17T12:42:54Z</time>
      </trkpt>
      <trkpt lat="43.5226" lon="6.60204">
        <ele>109.25</ele>
        <time>2018-06-17T12:43:10Z</time>
      </trkpt>
      <trkpt lat="43.52273" lon="6.60212">
        <ele>109.25</ele>
        <time>2018-06-17T12:43:26Z</time>
      </trkpt>
      <trkpt lat="43.52288" lon="6.60211">
        <ele>110.69</ele>
        <time>2018-06-17T12:43:42Z</time>
      </trkpt>
      <trkpt lat="43.52298" lon="6.60209">
        <ele>111.17</ele>
        <time>2018-06-17T12:43:56Z</time>
      </trkpt>
      <trkpt lat="43.52305" lon="6.60205">
        <ele>111.17</ele>
        <time>2018-06-17T12:44:12Z</time>
      </trkpt>
      <trkpt lat="43.52305" lon="6.60205">
        <ele>110.69</ele>
        <time>2018-06-17T12:44:48Z</time>
      </trkpt>
      <trkpt lat="43.52306" lon="6.60208">
        <ele>111.17</ele>
        <time>2018-06-17T12:45:12Z</time>
      </trkpt>
      <trkpt lat="43.52307" lon="6.60208">
        <ele>111.17</ele>
        <time>2018-06-17T12:45:30Z</time>
      </trkpt>
      <trkpt lat="43.52315" lon="6.60205">
        <ele>111.65</ele>
        <time>2018-06-17T12:45:46Z</time>
      </trkpt>
      <trkpt lat="43.52329" lon="6.60193">
        <ele>112.61</ele>
        <time>2018-06-17T12:46:04Z</time>
      </trkpt>
      <trkpt lat="43.52342" lon="6.60184">
        <ele>114.05</ele>
        <time>2018-06-17T12:46:20Z</time>
      </trkpt>
      <trkpt lat="43.52346" lon="6.60181">
        <ele>114.53</ele>
        <time>2018-06-17T12:46:25Z</time>
      </trkpt>
      <trkpt lat="43.52361" lon="6.60174">
        <ele>115.98</ele>
        <time>2018-06-17T12:46:45Z</time>
      </trkpt>
      <trkpt lat="43.52366" lon="6.60165">
        <ele>116.46</ele>
        <time>2018-06-17T12:47:01Z</time>
      </trkpt>
      <trkpt lat="43.52378" lon="6.60155">
        <ele>115.5</ele>
        <time>2018-06-17T12:47:19Z</time>
      </trkpt>
      <trkpt lat="43.52379" lon="6.60155">
        <ele>115.98</ele>
        <time>2018-06-17T12:47:20Z</time>
      </trkpt>
      <trkpt lat="43.524" lon="6.60145">
        <ele>115.01</ele>
        <time>2018-06-17T12:47:42Z</time>
      </trkpt>
      <trkpt lat="43.52407" lon="6.60135">
        <ele>114.53</ele>
        <time>2018-06-17T12:47:59Z</time>
      </trkpt>
      <trkpt lat="43.52408" lon="6.60133">
        <ele>115.01</ele>
        <time>2018-06-17T12:48:16Z</time>
      </trkpt>
      <trkpt lat="43.52408" lon="6.60135">
        <ele>115.01</ele>
        <time>2018-06-17T12:48:41Z</time>
      </trkpt>
      <trkpt lat="43.52406" lon="6.60134">
        <ele>115.01</ele>
        <time>2018-06-17T12:49:02Z</time>
      </trkpt>
      <trkpt lat="43.52404" lon="6.60132">
        <ele>114.53</ele>
        <time>2018-06-17T12:49:13Z</time>
      </trkpt>
      <trkpt lat="43.52405" lon="6.60133">
        <ele>115.01</ele>
        <time>2018-06-17T12:49:35Z</time>
      </trkpt>
      <trkpt lat="43.52401" lon="6.60129">
        <ele>114.05</ele>
        <time>2018-06-17T12:49:48Z</time>
      </trkpt>
      <trkpt lat="43.52401" lon="6.60131">
        <ele>115.01</ele>
        <time>2018-06-17T12:50:12Z</time>
      </trkpt>
      <trkpt lat="43.52398" lon="6.60131">
        <ele>115.01</ele>
        <time>2018-06-17T12:50:32Z</time>
      </trkpt>
      <trkpt lat="43.52399" lon="6.60132">
        <ele>114.05</ele>
        <time>2018-06-17T12:50:48Z</time>
      </trkpt>
      <trkpt lat="43.524" lon="6.60126">
        <ele>114.05</ele>
        <time>2018-06-17T12:51:14Z</time>
      </trkpt>
      <trkpt lat="43.52399" lon="6.60126">
        <ele>114.53</ele>
        <time>2018-06-17T12:51:35Z</time>
      </trkpt>
      <trkpt lat="43.52402" lon="6.60129">
        <ele>115.5</ele>
        <time>2018-06-17T12:51:49Z</time>
      </trkpt>
      <trkpt lat="43.52402" lon="6.60129">
        <ele>115.98</ele>
        <time>2018-06-17T12:52:09Z</time>
      </trkpt>
      <trkpt lat="43.52402" lon="6.60131">
        <ele>115.01</ele>
        <time>2018-06-17T12:52:29Z</time>
      </trkpt>
      <trkpt lat="43.524" lon="6.60129">
        <ele>115.5</ele>
        <time>2018-06-17T12:52:47Z</time>
      </trkpt>
      <trkpt lat="43.524" lon="6.60127">
        <ele>115.5</ele>
        <time>2018-06-17T12:53:12Z</time>
      </trkpt>
      <trkpt lat="43.52402" lon="6.60124">
        <ele>115.5</ele>
        <time>2018-06-17T12:53:37Z</time>
      </trkpt>
      <trkpt lat="43.5241" lon="6.60121">
        <ele>116.94</ele>
        <time>2018-06-17T12:53:51Z</time>
      </trkpt>
      <trkpt lat="43.52415" lon="6.60114">
        <ele>119.34</ele>
        <time>2018-06-17T12:54:05Z</time>
      </trkpt>
      <trkpt lat="43.5242" lon="6.60108">
        <ele>121.74</ele>
        <time>2018-06-17T12:54:16Z</time>
      </trkpt>
      <trkpt lat="43.52425" lon="6.60108">
        <ele>124.63</ele>
        <time>2018-06-17T12:54:28Z</time>
      </trkpt>
      <trkpt lat="43.5243" lon="6.60113">
        <ele>122.71</ele>
        <time>2018-06-17T12:54:40Z</time>
      </trkpt>
      <trkpt lat="43.52433" lon="6.60115">
        <ele>124.15</ele>
        <time>2018-06-17T12:54:54Z</time>
      </trkpt>
      <trkpt lat="43.52432" lon="6.60115">
        <ele>120.78</ele>
        <time>2018-06-17T12:54:55Z</time>
      </trkpt>
      <trkpt lat="43.52432" lon="6.60116">
        <ele>124.15</ele>
        <time>2018-06-17T12:54:56Z</time>
      </trkpt>
      <trkpt lat="43.5243" lon="6.60116">
        <ele>123.19</ele>
        <time>2018-06-17T12:55:19Z</time>
      </trkpt>
      <trkpt lat="43.52427" lon="6.60114">
        <ele>122.71</ele>
        <time>2018-06-17T12:55:33Z</time>
      </trkpt>
      <trkpt lat="43.52428" lon="6.60119">
        <ele>121.74</ele>
        <time>2018-06-17T12:55:47Z</time>
      </trkpt>
      <trkpt lat="43.5243" lon="6.60121">
        <ele>121.74</ele>
        <time>2018-06-17T12:56:04Z</time>
      </trkpt>
      <trkpt lat="43.52433" lon="6.60122">
        <ele>121.26</ele>
        <time>2018-06-17T12:56:21Z</time>
      </trkpt>
      <trkpt lat="43.52433" lon="6.60123">
        <ele>121.26</ele>
        <time>2018-06-17T12:56:45Z</time>
      </trkpt>
      <trkpt lat="43.52434" lon="6.60121">
        <ele>121.26</ele>
        <time>2018-06-17T12:57:10Z</time>
      </trkpt>
      <trkpt lat="43.52434" lon="6.60124">
        <ele>121.26</ele>
        <time>2018-06-17T12:57:38Z</time>
      </trkpt>
      <trkpt lat="43.52432" lon="6.60119">
        <ele>121.74</ele>
        <time>2018-06-17T12:58:16Z</time>
      </trkpt>
      <trkpt lat="43.5243" lon="6.60121">
        <ele>120.78</ele>
        <time>2018-06-17T12:58:32Z</time>
      </trkpt>
      <trkpt lat="43.52429" lon="6.60117">
        <ele>121.26</ele>
        <time>2018-06-17T12:58:54Z</time>
      </trkpt>
      <trkpt lat="43.52431" lon="6.60118">
        <ele>122.22</ele>
        <time>2018-06-17T12:59:11Z</time>
      </trkpt>
      <trkpt lat="43.52431" lon="6.60119">
        <ele>122.22</ele>
        <time>2018-06-17T12:59:28Z</time>
      </trkpt>
      <trkpt lat="43.52431" lon="6.60116">
        <ele>122.22</ele>
        <time>2018-06-17T12:59:45Z</time>
      </trkpt>
      <trkpt lat="43.52433" lon="6.6012">
        <ele>122.22</ele>
        <time>2018-06-17T13:00:03Z</time>
      </trkpt>
      <trkpt lat="43.52433" lon="6.60118">
        <ele>122.71</ele>
        <time>2018-06-17T13:00:23Z</time>
      </trkpt>
      <trkpt lat="43.52434" lon="6.6012">
        <ele>122.71</ele>
        <time>2018-06-17T13:00:39Z</time>
      </trkpt>
      <trkpt lat="43.52432" lon="6.60119">
        <ele>122.22</ele>
        <time>2018-06-17T13:00:55Z</time>
      </trkpt>
      <trkpt lat="43.52432" lon="6.6012">
        <ele>121.74</ele>
        <time>2018-06-17T13:01:10Z</time>
      </trkpt>
      <trkpt lat="43.52431" lon="6.60123">
        <ele>120.78</ele>
        <time>2018-06-17T13:01:31Z</time>
      </trkpt>
      <trkpt lat="43.52431" lon="6.60125">
        <ele>120.3</ele>
        <time>2018-06-17T13:01:47Z</time>
      </trkpt>
      <trkpt lat="43.52429" lon="6.60121">
        <ele>120.3</ele>
        <time>2018-06-17T13:02:01Z</time>
      </trkpt>
      <trkpt lat="43.52427" lon="6.6012">
        <ele>119.82</ele>
        <time>2018-06-17T13:02:18Z</time>
      </trkpt>
      <trkpt lat="43.52427" lon="6.60124">
        <ele>120.78</ele>
        <time>2018-06-17T13:02:36Z</time>
      </trkpt>
      <trkpt lat="43.52424" lon="6.60125">
        <ele>120.3</ele>
        <time>2018-06-17T13:03:04Z</time>
      </trkpt>
      <trkpt lat="43.52429" lon="6.60124">
        <ele>120.3</ele>
        <time>2018-06-17T13:03:46Z</time>
      </trkpt>
      <trkpt lat="43.52429" lon="6.6012">
        <ele>120.78</ele>
        <time>2018-06-17T13:04:06Z</time>
      </trkpt>
      <trkpt lat="43.52429" lon="6.60124">
        <ele>121.26</ele>
        <time>2018-06-17T13:04:30Z</time>
      </trkpt>
      <trkpt lat="43.52429" lon="6.6012">
        <ele>121.26</ele>
        <time>2018-06-17T13:04:48Z</time>
      </trkpt>
      <trkpt lat="43.52431" lon="6.60123">
        <ele>120.3</ele>
        <time>2018-06-17T13:05:02Z</time>
      </trkpt>
      <trkpt lat="43.52431" lon="6.60124">
        <ele>120.3</ele>
        <time>2018-06-17T13:05:27Z</time>
      </trkpt>
      <trkpt lat="43.52427" lon="6.6012">
        <ele>120.3</ele>
        <time>2018-06-17T13:06:18Z</time>
      </trkpt>
      <trkpt lat="43.52431" lon="6.60121">
        <ele>120.78</ele>
        <time>2018-06-17T13:07:05Z</time>
      </trkpt>
      <trkpt lat="43.52432" lon="6.6012">
        <ele>120.3</ele>
        <time>2018-06-17T13:07:41Z</time>
      </trkpt>
      <trkpt lat="43.52429" lon="6.60117">
        <ele>120.78</ele>
        <time>2018-06-17T13:07:59Z</time>
      </trkpt>
      <trkpt lat="43.52422" lon="6.6011">
        <ele>121.26</ele>
        <time>2018-06-17T13:08:22Z</time>
      </trkpt>
      <trkpt lat="43.5242" lon="6.60108">
        <ele>120.78</ele>
        <time>2018-06-17T13:08:26Z</time>
      </trkpt>
      <trkpt lat="43.52417" lon="6.60109">
        <ele>120.3</ele>
        <time>2018-06-17T13:08:31Z</time>
      </trkpt>
      <trkpt lat="43.52414" lon="6.60115">
        <ele>118.86</ele>
        <time>2018-06-17T13:08:47Z</time>
      </trkpt>
      <trkpt lat="43.52411" lon="6.60117">
        <ele>117.42</ele>
        <time>2018-06-17T13:09:01Z</time>
      </trkpt>
      <trkpt lat="43.52405" lon="6.60116">
        <ele>116.46</ele>
        <time>2018-06-17T13:09:16Z</time>
      </trkpt>
      <trkpt lat="43.52395" lon="6.60112">
        <ele>115.5</ele>
        <time>2018-06-17T13:09:31Z</time>
      </trkpt>
      <trkpt lat="43.52377" lon="6.60102">
        <ele>117.42</ele>
        <time>2018-06-17T13:09:52Z</time>
      </trkpt>
      <trkpt lat="43.52367" lon="6.60088">
        <ele>117.42</ele>
        <time>2018-06-17T13:10:09Z</time>
      </trkpt>
      <trkpt lat="43.52361" lon="6.60059">
        <ele>115.98</ele>
        <time>2018-06-17T13:10:31Z</time>
      </trkpt>
      <trkpt lat="43.52363" lon="6.60031">
        <ele>113.57</ele>
        <time>2018-06-17T13:10:53Z</time>
      </trkpt>
      <trkpt lat="43.5237" lon="6.60008">
        <ele>112.61</ele>
        <time>2018-06-17T13:11:12Z</time>
      </trkpt>
      <trkpt lat="43.5237" lon="6.60005">
        <ele>112.13</ele>
        <time>2018-06-17T13:11:14Z</time>
      </trkpt>
      <trkpt lat="43.52369" lon="6.59996">
        <ele>111.65</ele>
        <time>2018-06-17T13:11:20Z</time>
      </trkpt>
      <trkpt lat="43.52368" lon="6.59992">
        <ele>111.17</ele>
        <time>2018-06-17T13:11:23Z</time>
      </trkpt>
      <trkpt lat="43.5235" lon="6.59971">
        <ele>111.65</ele>
        <time>2018-06-17T13:11:46Z</time>
      </trkpt>
      <trkpt lat="43.52337" lon="6.59946">
        <ele>110.21</ele>
        <time>2018-06-17T13:12:08Z</time>
      </trkpt>
      <trkpt lat="43.5232" lon="6.59919">
        <ele>108.77</ele>
        <time>2018-06-17T13:12:34Z</time>
      </trkpt>
      <trkpt lat="43.52313" lon="6.599">
        <ele>107.32</ele>
        <time>2018-06-17T13:12:51Z</time>
      </trkpt>
      <trkpt lat="43.5231" lon="6.59866">
        <ele>105.4</ele>
        <time>2018-06-17T13:13:16Z</time>
      </trkpt>
      <trkpt lat="43.52306" lon="6.59837">
        <ele>103.48</ele>
        <time>2018-06-17T13:13:37Z</time>
      </trkpt>
      <trkpt lat="43.52307" lon="6.59832">
        <ele>103.48</ele>
        <time>2018-06-17T13:13:56Z</time>
      </trkpt>
      <trkpt lat="43.52304" lon="6.59817">
        <ele>101.56</ele>
        <time>2018-06-17T13:14:17Z</time>
      </trkpt>
      <trkpt lat="43.52303" lon="6.59794">
        <ele>100.6</ele>
        <time>2018-06-17T13:14:34Z</time>
      </trkpt>
      <trkpt lat="43.523" lon="6.59764">
        <ele>99.63</ele>
        <time>2018-06-17T13:14:54Z</time>
      </trkpt>
      <trkpt lat="43.52293" lon="6.59728">
        <ele>98.67</ele>
        <time>2018-06-17T13:15:18Z</time>
      </trkpt>
      <trkpt lat="43.523" lon="6.59694">
        <ele>96.75</ele>
        <time>2018-06-17T13:15:42Z</time>
      </trkpt>
      <trkpt lat="43.52302" lon="6.59681">
        <ele>96.27</ele>
        <time>2018-06-17T13:15:51Z</time>
      </trkpt>
      <trkpt lat="43.52301" lon="6.59674">
        <ele>95.79</ele>
        <time>2018-06-17T13:15:55Z</time>
      </trkpt>
      <trkpt lat="43.5229" lon="6.5964">
        <ele>96.27</ele>
        <time>2018-06-17T13:16:18Z</time>
      </trkpt>
      <trkpt lat="43.52288" lon="6.5963">
        <ele>95.31</ele>
        <time>2018-06-17T13:16:35Z</time>
      </trkpt>
      <trkpt lat="43.52297" lon="6.59661">
        <ele>95.79</ele>
        <time>2018-06-17T13:16:57Z</time>
      </trkpt>
      <trkpt lat="43.52301" lon="6.59672">
        <ele>95.79</ele>
        <time>2018-06-17T13:17:09Z</time>
      </trkpt>
      <trkpt lat="43.52292" lon="6.59698">
        <ele>95.79</ele>
        <time>2018-06-17T13:17:29Z</time>
      </trkpt>
      <trkpt lat="43.52286" lon="6.59697">
        <ele>95.31</ele>
        <time>2018-06-17T13:17:44Z</time>
      </trkpt>
      <trkpt lat="43.52288" lon="6.59697">
        <ele>95.79</ele>
        <time>2018-06-17T13:18:12Z</time>
      </trkpt>
      <trkpt lat="43.52284" lon="6.59697">
        <ele>93.87</ele>
        <time>2018-06-17T13:18:27Z</time>
      </trkpt>
      <trkpt lat="43.5228" lon="6.5969">
        <ele>92.9</ele>
        <time>2018-06-17T13:18:43Z</time>
      </trkpt>
      <trkpt lat="43.52279" lon="6.59688">
        <ele>91.46</ele>
        <time>2018-06-17T13:18:57Z</time>
      </trkpt>
      <trkpt lat="43.52272" lon="6.59684">
        <ele>90.02</ele>
        <time>2018-06-17T13:19:13Z</time>
      </trkpt>
      <trkpt lat="43.5227" lon="6.59682">
        <ele>90.98</ele>
        <time>2018-06-17T13:19:29Z</time>
      </trkpt>
      <trkpt lat="43.52269" lon="6.59679">
        <ele>89.54</ele>
        <time>2018-06-17T13:19:47Z</time>
      </trkpt>
      <trkpt lat="43.5227" lon="6.59678">
        <ele>89.06</ele>
        <time>2018-06-17T13:20:02Z</time>
      </trkpt>
      <trkpt lat="43.52272" lon="6.59686">
        <ele>89.54</ele>
        <time>2018-06-17T13:20:14Z</time>
      </trkpt>
      <trkpt lat="43.52272" lon="6.59686">
        <ele>89.06</ele>
        <time>2018-06-17T13:20:31Z</time>
      </trkpt>
      <trkpt lat="43.5227" lon="6.59682">
        <ele>90.02</ele>
        <time>2018-06-17T13:20:45Z</time>
      </trkpt>
      <trkpt lat="43.52271" lon="6.59681">
        <ele>89.54</ele>
        <time>2018-06-17T13:21:07Z</time>
      </trkpt>
      <trkpt lat="43.5227" lon="6.59683">
        <ele>89.06</ele>
        <time>2018-06-17T13:21:21Z</time>
      </trkpt>
      <trkpt lat="43.52269" lon="6.59683">
        <ele>90.02</ele>
        <time>2018-06-17T13:21:57Z</time>
      </trkpt>
      <trkpt lat="43.52269" lon="6.59683">
        <ele>90.02</ele>
        <time>2018-06-17T13:22:26Z</time>
      </trkpt>
      <trkpt lat="43.5227" lon="6.59682">
        <ele>89.54</ele>
        <time>2018-06-17T13:22:58Z</time>
      </trkpt>
      <trkpt lat="43.52271" lon="6.59686">
        <ele>90.02</ele>
        <time>2018-06-17T13:23:31Z</time>
      </trkpt>
      <trkpt lat="43.5227" lon="6.59684">
        <ele>89.54</ele>
        <time>2018-06-17T13:24:07Z</time>
      </trkpt>
      <trkpt lat="43.5227" lon="6.59684">
        <ele>90.5</ele>
        <time>2018-06-17T13:24:58Z</time>
      </trkpt>
      <trkpt lat="43.5227" lon="6.59685">
        <ele>90.02</ele>
        <time>2018-06-17T13:25:46Z</time>
      </trkpt>
      <trkpt lat="43.52272" lon="6.59681">
        <ele>90.98</ele>
        <time>2018-06-17T13:26:39Z</time>
      </trkpt>
      <trkpt lat="43.52272" lon="6.59684">
        <ele>90.5</ele>
        <time>2018-06-17T13:27:13Z</time>
      </trkpt>
      <trkpt lat="43.52271" lon="6.59685">
        <ele>90.5</ele>
        <time>2018-06-17T13:27:56Z</time>
      </trkpt>
      <trkpt lat="43.5227" lon="6.59684">
        <ele>90.98</ele>
        <time>2018-06-17T13:28:38Z</time>
      </trkpt>
      <trkpt lat="43.52269" lon="6.59686">
        <ele>90.98</ele>
        <time>2018-06-17T13:29:25Z</time>
      </trkpt>
      <trkpt lat="43.52268" lon="6.59686">
        <ele>90.02</ele>
        <time>2018-06-17T13:30:04Z</time>
      </trkpt>
      <trkpt lat="43.52271" lon="6.59684">
        <ele>90.02</ele>
        <time>2018-06-17T13:30:32Z</time>
      </trkpt>
      <trkpt lat="43.5227" lon="6.59684">
        <ele>90.5</ele>
        <time>2018-06-17T13:31:14Z</time>
      </trkpt>
      <trkpt lat="43.52272" lon="6.59683">
        <ele>90.5</ele>
        <time>2018-06-17T13:31:47Z</time>
      </trkpt>
      <trkpt lat="43.5227" lon="6.59684">
        <ele>89.54</ele>
        <time>2018-06-17T13:32:16Z</time>
      </trkpt>
      <trkpt lat="43.52271" lon="6.59682">
        <ele>89.06</ele>
        <time>2018-06-17T13:32:43Z</time>
      </trkpt>
      <trkpt lat="43.5227" lon="6.59683">
        <ele>90.02</ele>
        <time>2018-06-17T13:33:15Z</time>
      </trkpt>
      <trkpt lat="43.5227" lon="6.59681">
        <ele>90.98</ele>
        <time>2018-06-17T13:33:59Z</time>
      </trkpt>
      <trkpt lat="43.52268" lon="6.59683">
        <ele>90.98</ele>
        <time>2018-06-17T13:34:25Z</time>
      </trkpt>
      <trkpt lat="43.52269" lon="6.59685">
        <ele>90.5</ele>
        <time>2018-06-17T13:35:07Z</time>
      </trkpt>
      <trkpt lat="43.5227" lon="6.59683">
        <ele>90.02</ele>
        <time>2018-06-17T13:35:47Z</time>
      </trkpt>
      <trkpt lat="43.52271" lon="6.59684">
        <ele>90.5</ele>
        <time>2018-06-17T13:36:22Z</time>
      </trkpt>
      <trkpt lat="43.52268" lon="6.59688">
        <ele>90.02</ele>
        <time>2018-06-17T13:37:01Z</time>
      </trkpt>
      <trkpt lat="43.52268" lon="6.59688">
        <ele>89.54</ele>
        <time>2018-06-17T13:37:35Z</time>
      </trkpt>
      <trkpt lat="43.52267" lon="6.59689">
        <ele>89.06</ele>
        <time>2018-06-17T13:38:25Z</time>
      </trkpt>
      <trkpt lat="43.5227" lon="6.59683">
        <ele>89.54</ele>
        <time>2018-06-17T13:39:13Z</time>
      </trkpt>
      <trkpt lat="43.52269" lon="6.59685">
        <ele>89.06</ele>
        <time>2018-06-17T13:39:40Z</time>
      </trkpt>
      <trkpt lat="43.52271" lon="6.59684">
        <ele>90.02</ele>
        <time>2018-06-17T13:39:54Z</time>
      </trkpt>
      <trkpt lat="43.52272" lon="6.59683">
        <ele>89.06</ele>
        <time>2018-06-17T13:40:18Z</time>
      </trkpt>
      <trkpt lat="43.52275" lon="6.59685">
        <ele>89.54</ele>
        <time>2018-06-17T13:40:39Z</time>
      </trkpt>
      <trkpt lat="43.5228" lon="6.59691">
        <ele>90.5</ele>
        <time>2018-06-17T13:40:55Z</time>
      </trkpt>
      <trkpt lat="43.52287" lon="6.59698">
        <ele>93.39</ele>
        <time>2018-06-17T13:41:08Z</time>
      </trkpt>
      <trkpt lat="43.5229" lon="6.59698">
        <ele>95.31</ele>
        <time>2018-06-17T13:41:22Z</time>
      </trkpt>
      <trkpt lat="43.52293" lon="6.59697">
        <ele>95.31</ele>
        <time>2018-06-17T13:41:26Z</time>
      </trkpt>
      <trkpt lat="43.52297" lon="6.59694">
        <ele>95.31</ele>
        <time>2018-06-17T13:41:32Z</time>
      </trkpt>
      <trkpt lat="43.52303" lon="6.5968">
        <ele>94.83</ele>
        <time>2018-06-17T13:41:51Z</time>
      </trkpt>
      <trkpt lat="43.52293" lon="6.5965">
        <ele>95.31</ele>
        <time>2018-06-17T13:42:12Z</time>
      </trkpt>
      <trkpt lat="43.52293" lon="6.59645">
        <ele>94.83</ele>
        <time>2018-06-17T13:42:26Z</time>
      </trkpt>
      <trkpt lat="43.5229" lon="6.59634">
        <ele>94.35</ele>
        <time>2018-06-17T13:42:43Z</time>
      </trkpt>
      <trkpt lat="43.52279" lon="6.5961">
        <ele>92.42</ele>
        <time>2018-06-17T13:43:03Z</time>
      </trkpt>
      <trkpt lat="43.52269" lon="6.59587">
        <ele>92.42</ele>
        <time>2018-06-17T13:43:20Z</time>
      </trkpt>
      <trkpt lat="43.52255" lon="6.59557">
        <ele>91.94</ele>
        <time>2018-06-17T13:43:42Z</time>
      </trkpt>
      <trkpt lat="43.52245" lon="6.59527">
        <ele>90.5</ele>
        <time>2018-06-17T13:44:04Z</time>
      </trkpt>
      <trkpt lat="43.52239" lon="6.59493">
        <ele>88.1</ele>
        <time>2018-06-17T13:44:27Z</time>
      </trkpt>
      <trkpt lat="43.52235" lon="6.59458">
        <ele>86.18</ele>
        <time>2018-06-17T13:44:50Z</time>
      </trkpt>
      <trkpt lat="43.52232" lon="6.59432">
        <ele>84.73</ele>
        <time>2018-06-17T13:45:09Z</time>
      </trkpt>
      <trkpt lat="43.5223" lon="6.59399">
        <ele>82.81</ele>
        <time>2018-06-17T13:45:31Z</time>
      </trkpt>
      <trkpt lat="43.52234" lon="6.59373">
        <ele>80.89</ele>
        <time>2018-06-17T13:45:48Z</time>
      </trkpt>
      <trkpt lat="43.52238" lon="6.59352">
        <ele>79.45</ele>
        <time>2018-06-17T13:46:03Z</time>
      </trkpt>
      <trkpt lat="43.52232" lon="6.59342">
        <ele>80.41</ele>
        <time>2018-06-17T13:46:15Z</time>
      </trkpt>
      <trkpt lat="43.52209" lon="6.59336">
        <ele>82.33</ele>
        <time>2018-06-17T13:46:39Z</time>
      </trkpt>
      <trkpt lat="43.52197" lon="6.59323">
        <ele>83.29</ele>
        <time>2018-06-17T13:46:58Z</time>
      </trkpt>
      <trkpt lat="43.5219" lon="6.5931">
        <ele>83.77</ele>
        <time>2018-06-17T13:47:17Z</time>
      </trkpt>
      <trkpt lat="43.52183" lon="6.59325">
        <ele>83.29</ele>
        <time>2018-06-17T13:47:33Z</time>
      </trkpt>
      <trkpt lat="43.52182" lon="6.59326">
        <ele>82.33</ele>
        <time>2018-06-17T13:47:34Z</time>
      </trkpt>
      <trkpt lat="43.52159" lon="6.59336">
        <ele>82.81</ele>
        <time>2018-06-17T13:47:56Z</time>
      </trkpt>
      <trkpt lat="43.52138" lon="6.59343">
        <ele>81.85</ele>
        <time>2018-06-17T13:48:17Z</time>
      </trkpt>
      <trkpt lat="43.52119" lon="6.59347">
        <ele>80.89</ele>
        <time>2018-06-17T13:48:36Z</time>
      </trkpt>
      <trkpt lat="43.5211" lon="6.59347">
        <ele>79.93</ele>
        <time>2018-06-17T13:48:51Z</time>
      </trkpt>
      <trkpt lat="43.52092" lon="6.59346">
        <ele>79.93</ele>
        <time>2018-06-17T13:49:07Z</time>
      </trkpt>
      <trkpt lat="43.52073" lon="6.59353">
        <ele>78</ele>
        <time>2018-06-17T13:49:25Z</time>
      </trkpt>
      <trkpt lat="43.52052" lon="6.59362">
        <ele>76.08</ele>
        <time>2018-06-17T13:49:45Z</time>
      </trkpt>
      <trkpt lat="43.52045" lon="6.59365">
        <ele>77.04</ele>
        <time>2018-06-17T13:49:59Z</time>
      </trkpt>
      <trkpt lat="43.52045" lon="6.59364">
        <ele>78</ele>
        <time>2018-06-17T13:50:15Z</time>
      </trkpt>
      <trkpt lat="43.52045" lon="6.59366">
        <ele>77.04</ele>
        <time>2018-06-17T13:50:29Z</time>
      </trkpt>
      <trkpt lat="43.52041" lon="6.59368">
        <ele>76.56</ele>
        <time>2018-06-17T13:50:44Z</time>
      </trkpt>
      <trkpt lat="43.5204" lon="6.59364">
        <ele>76.56</ele>
        <time>2018-06-17T13:51:02Z</time>
      </trkpt>
      <trkpt lat="43.52042" lon="6.59365">
        <ele>77.52</ele>
        <time>2018-06-17T13:51:21Z</time>
      </trkpt>
      <trkpt lat="43.52041" lon="6.59366">
        <ele>77.04</ele>
        <time>2018-06-17T13:51:40Z</time>
      </trkpt>
      <trkpt lat="43.52044" lon="6.59366">
        <ele>77.04</ele>
        <time>2018-06-17T13:51:55Z</time>
      </trkpt>
      <trkpt lat="43.52042" lon="6.59368">
        <ele>77.04</ele>
        <time>2018-06-17T13:52:11Z</time>
      </trkpt>
      <trkpt lat="43.52044" lon="6.59365">
        <ele>77.52</ele>
        <time>2018-06-17T13:52:33Z</time>
      </trkpt>
      <trkpt lat="43.52044" lon="6.59366">
        <ele>76.56</ele>
        <time>2018-06-17T13:52:52Z</time>
      </trkpt>
      <trkpt lat="43.5204" lon="6.59369">
        <ele>77.04</ele>
        <time>2018-06-17T13:53:06Z</time>
      </trkpt>
      <trkpt lat="43.52042" lon="6.59366">
        <ele>77.04</ele>
        <time>2018-06-17T13:53:20Z</time>
      </trkpt>
      <trkpt lat="43.52042" lon="6.59363">
        <ele>77.04</ele>
        <time>2018-06-17T13:53:44Z</time>
      </trkpt>
      <trkpt lat="43.5204" lon="6.59365">
        <ele>77.52</ele>
        <time>2018-06-17T13:54:16Z</time>
      </trkpt>
      <trkpt lat="43.52041" lon="6.59367">
        <ele>77.52</ele>
        <time>2018-06-17T13:54:41Z</time>
      </trkpt>
      <trkpt lat="43.52032" lon="6.59374">
        <ele>77.04</ele>
        <time>2018-06-17T13:54:56Z</time>
      </trkpt>
      <trkpt lat="43.52031" lon="6.59374">
        <ele>77.52</ele>
        <time>2018-06-17T13:54:57Z</time>
      </trkpt>
      <trkpt lat="43.52019" lon="6.59387">
        <ele>76.08</ele>
        <time>2018-06-17T13:55:17Z</time>
      </trkpt>
      <trkpt lat="43.52017" lon="6.59387">
        <ele>75.6</ele>
        <time>2018-06-17T13:55:49Z</time>
      </trkpt>
      <trkpt lat="43.52015" lon="6.59389">
        <ele>76.08</ele>
        <time>2018-06-17T13:56:14Z</time>
      </trkpt>
      <trkpt lat="43.51991" lon="6.59401">
        <ele>73.68</ele>
        <time>2018-06-17T13:56:35Z</time>
      </trkpt>
      <trkpt lat="43.51989" lon="6.59402">
        <ele>73.68</ele>
        <time>2018-06-17T13:56:37Z</time>
      </trkpt>
      <trkpt lat="43.51972" lon="6.59409">
        <ele>73.2</ele>
        <time>2018-06-17T13:56:52Z</time>
      </trkpt>
      <trkpt lat="43.51953" lon="6.59416">
        <ele>72.24</ele>
        <time>2018-06-17T13:57:10Z</time>
      </trkpt>
      <trkpt lat="43.51934" lon="6.59413">
        <ele>71.27</ele>
        <time>2018-06-17T13:57:26Z</time>
      </trkpt>
      <trkpt lat="43.51911" lon="6.59401">
        <ele>70.79</ele>
        <time>2018-06-17T13:57:47Z</time>
      </trkpt>
      <trkpt lat="43.5189" lon="6.59395">
        <ele>70.79</ele>
        <time>2018-06-17T13:58:06Z</time>
      </trkpt>
      <trkpt lat="43.51871" lon="6.59381">
        <ele>69.83</ele>
        <time>2018-06-17T13:58:25Z</time>
      </trkpt>
      <trkpt lat="43.51857" lon="6.59376">
        <ele>69.83</ele>
        <time>2018-06-17T13:58:39Z</time>
      </trkpt>
      <trkpt lat="43.51839" lon="6.59371">
        <ele>68.87</ele>
        <time>2018-06-17T13:58:55Z</time>
      </trkpt>
      <trkpt lat="43.5183" lon="6.59369">
        <ele>68.87</ele>
        <time>2018-06-17T13:59:11Z</time>
      </trkpt>
      <trkpt lat="43.51821" lon="6.59365">
        <ele>68.87</ele>
        <time>2018-06-17T13:59:29Z</time>
      </trkpt>
      <trkpt lat="43.51804" lon="6.5935">
        <ele>68.39</ele>
        <time>2018-06-17T13:59:46Z</time>
      </trkpt>
      <trkpt lat="43.51786" lon="6.59336">
        <ele>67.43</ele>
        <time>2018-06-17T14:00:03Z</time>
      </trkpt>
      <trkpt lat="43.51777" lon="6.59314">
        <ele>66.47</ele>
        <time>2018-06-17T14:00:18Z</time>
      </trkpt>
      <trkpt lat="43.51775" lon="6.59308">
        <ele>66.47</ele>
        <time>2018-06-17T14:00:22Z</time>
      </trkpt>
      <trkpt lat="43.5177" lon="6.59277">
        <ele>67.43</ele>
        <time>2018-06-17T14:00:41Z</time>
      </trkpt>
      <trkpt lat="43.51767" lon="6.5925">
        <ele>67.91</ele>
        <time>2018-06-17T14:00:58Z</time>
      </trkpt>
      <trkpt lat="43.51765" lon="6.59226">
        <ele>69.83</ele>
        <time>2018-06-17T14:01:16Z</time>
      </trkpt>
      <trkpt lat="43.51765" lon="6.59199">
        <ele>68.87</ele>
        <time>2018-06-17T14:01:34Z</time>
      </trkpt>
      <trkpt lat="43.51767" lon="6.59179">
        <ele>67.43</ele>
        <time>2018-06-17T14:01:50Z</time>
      </trkpt>
      <trkpt lat="43.51766" lon="6.59171">
        <ele>68.87</ele>
        <time>2018-06-17T14:02:08Z</time>
      </trkpt>
      <trkpt lat="43.51771" lon="6.59166">
        <ele>68.87</ele>
        <time>2018-06-17T14:02:23Z</time>
      </trkpt>
      <trkpt lat="43.51787" lon="6.59173">
        <ele>69.35</ele>
        <time>2018-06-17T14:02:42Z</time>
      </trkpt>
      <trkpt lat="43.51796" lon="6.59178">
        <ele>71.27</ele>
        <time>2018-06-17T14:02:58Z</time>
      </trkpt>
      <trkpt lat="43.51811" lon="6.59179">
        <ele>72.72</ele>
        <time>2018-06-17T14:03:17Z</time>
      </trkpt>
      <trkpt lat="43.51817" lon="6.59183">
        <ele>72.72</ele>
        <time>2018-06-17T14:03:34Z</time>
      </trkpt>
      <trkpt lat="43.51815" lon="6.59183">
        <ele>72.72</ele>
        <time>2018-06-17T14:03:52Z</time>
      </trkpt>
      <trkpt lat="43.51815" lon="6.59183">
        <ele>73.2</ele>
        <time>2018-06-17T14:04:04Z</time>
      </trkpt>
      <trkpt lat="43.51813" lon="6.5918">
        <ele>73.68</ele>
        <time>2018-06-17T14:04:22Z</time>
      </trkpt>
      <trkpt lat="43.51813" lon="6.59178">
        <ele>72.72</ele>
        <time>2018-06-17T14:04:44Z</time>
      </trkpt>
      <trkpt lat="43.51815" lon="6.59177">
        <ele>73.2</ele>
        <time>2018-06-17T14:05:08Z</time>
      </trkpt>
      <trkpt lat="43.51815" lon="6.59177">
        <ele>72.24</ele>
        <time>2018-06-17T14:05:26Z</time>
      </trkpt>
      <trkpt lat="43.51817" lon="6.59184">
        <ele>72.72</ele>
        <time>2018-06-17T14:05:38Z</time>
      </trkpt>
      <trkpt lat="43.51817" lon="6.59182">
        <ele>72.72</ele>
        <time>2018-06-17T14:05:52Z</time>
      </trkpt>
      <trkpt lat="43.51814" lon="6.59185">
        <ele>72.72</ele>
        <time>2018-06-17T14:06:09Z</time>
      </trkpt>
      <trkpt lat="43.51811" lon="6.59182">
        <ele>73.68</ele>
        <time>2018-06-17T14:06:23Z</time>
      </trkpt>
      <trkpt lat="43.51814" lon="6.59184">
        <ele>72.24</ele>
        <time>2018-06-17T14:06:48Z</time>
      </trkpt>
      <trkpt lat="43.51814" lon="6.59185">
        <ele>73.2</ele>
        <time>2018-06-17T14:07:09Z</time>
      </trkpt>
      <trkpt lat="43.51815" lon="6.5918">
        <ele>72.24</ele>
        <time>2018-06-17T14:07:36Z</time>
      </trkpt>
      <trkpt lat="43.51814" lon="6.59183">
        <ele>73.2</ele>
        <time>2018-06-17T14:07:55Z</time>
      </trkpt>
      <trkpt lat="43.51807" lon="6.59183">
        <ele>73.68</ele>
        <time>2018-06-17T14:08:04Z</time>
      </trkpt>
      <trkpt lat="43.51797" lon="6.59183">
        <ele>71.76</ele>
        <time>2018-06-17T14:08:18Z</time>
      </trkpt>
      <trkpt lat="43.51787" lon="6.5918">
        <ele>70.31</ele>
        <time>2018-06-17T14:08:29Z</time>
      </trkpt>
      <trkpt lat="43.51779" lon="6.59169">
        <ele>69.35</ele>
        <time>2018-06-17T14:08:40Z</time>
      </trkpt>
      <trkpt lat="43.51775" lon="6.59165">
        <ele>68.87</ele>
        <time>2018-06-17T14:08:45Z</time>
      </trkpt>
      <trkpt lat="43.51767" lon="6.59143">
        <ele>68.39</ele>
        <time>2018-06-17T14:09:01Z</time>
      </trkpt>
      <trkpt lat="43.51766" lon="6.59119">
        <ele>69.83</ele>
        <time>2018-06-17T14:09:19Z</time>
      </trkpt>
      <trkpt lat="43.51766" lon="6.5912">
        <ele>70.31</ele>
        <time>2018-06-17T14:09:31Z</time>
      </trkpt>
      <trkpt lat="43.51766" lon="6.59121">
        <ele>69.83</ele>
        <time>2018-06-17T14:09:58Z</time>
      </trkpt>
      <trkpt lat="43.51765" lon="6.59115">
        <ele>70.31</ele>
        <time>2018-06-17T14:10:22Z</time>
      </trkpt>
      <trkpt lat="43.51758" lon="6.59085">
        <ele>71.27</ele>
        <time>2018-06-17T14:10:42Z</time>
      </trkpt>
      <trkpt lat="43.51756" lon="6.59074">
        <ele>70.79</ele>
        <time>2018-06-17T14:10:50Z</time>
      </trkpt>
      <trkpt lat="43.51758" lon="6.59069">
        <ele>70.79</ele>
        <time>2018-06-17T14:10:54Z</time>
      </trkpt>
      <trkpt lat="43.51775" lon="6.59065">
        <ele>72.24</ele>
        <time>2018-06-17T14:11:11Z</time>
      </trkpt>
      <trkpt lat="43.51789" lon="6.59061">
        <ele>72.72</ele>
        <time>2018-06-17T14:11:27Z</time>
      </trkpt>
      <trkpt lat="43.51806" lon="6.59065">
        <ele>73.68</ele>
        <time>2018-06-17T14:11:42Z</time>
      </trkpt>
      <trkpt lat="43.5182" lon="6.59072">
        <ele>74.16</ele>
        <time>2018-06-17T14:11:56Z</time>
      </trkpt>
      <trkpt lat="43.5184" lon="6.59081">
        <ele>74.64</ele>
        <time>2018-06-17T14:12:14Z</time>
      </trkpt>
      <trkpt lat="43.51857" lon="6.59092">
        <ele>75.6</ele>
        <time>2018-06-17T14:12:30Z</time>
      </trkpt>
      <trkpt lat="43.51877" lon="6.59107">
        <ele>76.56</ele>
        <time>2018-06-17T14:12:49Z</time>
      </trkpt>
      <trkpt lat="43.51882" lon="6.5911">
        <ele>76.56</ele>
        <time>2018-06-17T14:12:55Z</time>
      </trkpt>
      <trkpt lat="43.51886" lon="6.59111">
        <ele>77.04</ele>
        <time>2018-06-17T14:13:09Z</time>
      </trkpt>
      <trkpt lat="43.51897" lon="6.59115">
        <ele>78</ele>
        <time>2018-06-17T14:13:29Z</time>
      </trkpt>
      <trkpt lat="43.51898" lon="6.59121">
        <ele>78.48</ele>
        <time>2018-06-17T14:13:34Z</time>
      </trkpt>
      <trkpt lat="43.51905" lon="6.59145">
        <ele>79.45</ele>
        <time>2018-06-17T14:13:52Z</time>
      </trkpt>
      <trkpt lat="43.51913" lon="6.59166">
        <ele>80.89</ele>
        <time>2018-06-17T14:14:09Z</time>
      </trkpt>
      <trkpt lat="43.51918" lon="6.59172">
        <ele>82.33</ele>
        <time>2018-06-17T14:14:24Z</time>
      </trkpt>
      <trkpt lat="43.51922" lon="6.59178">
        <ele>82.33</ele>
        <time>2018-06-17T14:14:44Z</time>
      </trkpt>
      <trkpt lat="43.51932" lon="6.5919">
        <ele>85.21</ele>
        <time>2018-06-17T14:15:00Z</time>
      </trkpt>
      <trkpt lat="43.51945" lon="6.59194">
        <ele>87.62</ele>
        <time>2018-06-17T14:15:17Z</time>
      </trkpt>
      <trkpt lat="43.5195" lon="6.59193">
        <ele>88.58</ele>
        <time>2018-06-17T14:15:24Z</time>
      </trkpt>
      <trkpt lat="43.51968" lon="6.59197">
        <ele>89.54</ele>
        <time>2018-06-17T14:15:42Z</time>
      </trkpt>
      <trkpt lat="43.51988" lon="6.59192">
        <ele>89.06</ele>
        <time>2018-06-17T14:16:00Z</time>
      </trkpt>
      <trkpt lat="43.52001" lon="6.5919">
        <ele>88.58</ele>
        <time>2018-06-17T14:16:14Z</time>
      </trkpt>
      <trkpt lat="43.52" lon="6.59187">
        <ele>88.58</ele>
        <time>2018-06-17T14:16:35Z</time>
      </trkpt>
      <trkpt lat="43.51999" lon="6.59186">
        <ele>88.58</ele>
        <time>2018-06-17T14:16:59Z</time>
      </trkpt>
      <trkpt lat="43.52017" lon="6.59181">
        <ele>88.58</ele>
        <time>2018-06-17T14:17:17Z</time>
      </trkpt>
      <trkpt lat="43.52035" lon="6.59177">
        <ele>89.06</ele>
        <time>2018-06-17T14:17:34Z</time>
      </trkpt>
      <trkpt lat="43.52051" lon="6.59174">
        <ele>89.06</ele>
        <time>2018-06-17T14:17:48Z</time>
      </trkpt>
      <trkpt lat="43.52068" lon="6.59167">
        <ele>88.1</ele>
        <time>2018-06-17T14:18:04Z</time>
      </trkpt>
      <trkpt lat="43.52071" lon="6.59166">
        <ele>88.1</ele>
        <time>2018-06-17T14:18:07Z</time>
      </trkpt>
      <trkpt lat="43.52088" lon="6.59154">
        <ele>88.58</ele>
        <time>2018-06-17T14:18:26Z</time>
      </trkpt>
      <trkpt lat="43.52106" lon="6.59151">
        <ele>89.06</ele>
        <time>2018-06-17T14:18:44Z</time>
      </trkpt>
      <trkpt lat="43.52118" lon="6.5915">
        <ele>88.58</ele>
        <time>2018-06-17T14:18:55Z</time>
      </trkpt>
      <trkpt lat="43.52139" lon="6.59148">
        <ele>89.06</ele>
        <time>2018-06-17T14:19:13Z</time>
      </trkpt>
      <trkpt lat="43.52152" lon="6.5914">
        <ele>89.06</ele>
        <time>2018-06-17T14:19:26Z</time>
      </trkpt>
      <trkpt lat="43.52154" lon="6.59138">
        <ele>89.06</ele>
        <time>2018-06-17T14:19:28Z</time>
      </trkpt>
      <trkpt lat="43.52155" lon="6.59137">
        <ele>89.06</ele>
        <time>2018-06-17T14:19:30Z</time>
      </trkpt>
      <trkpt lat="43.52167" lon="6.59133">
        <ele>89.06</ele>
        <time>2018-06-17T14:19:43Z</time>
      </trkpt>
      <trkpt lat="43.5217" lon="6.5912">
        <ele>89.06</ele>
        <time>2018-06-17T14:19:56Z</time>
      </trkpt>
      <trkpt lat="43.52172" lon="6.59107">
        <ele>90.02</ele>
        <time>2018-06-17T14:20:06Z</time>
      </trkpt>
      <trkpt lat="43.52176" lon="6.59081">
        <ele>90.02</ele>
        <time>2018-06-17T14:20:26Z</time>
      </trkpt>
      <trkpt lat="43.52174" lon="6.59069">
        <ele>89.54</ele>
        <time>2018-06-17T14:20:35Z</time>
      </trkpt>
      <trkpt lat="43.52158" lon="6.59062">
        <ele>89.54</ele>
        <time>2018-06-17T14:20:54Z</time>
      </trkpt>
      <trkpt lat="43.52155" lon="6.59055">
        <ele>89.54</ele>
        <time>2018-06-17T14:21:00Z</time>
      </trkpt>
      <trkpt lat="43.52148" lon="6.59043">
        <ele>89.54</ele>
        <time>2018-06-17T14:21:16Z</time>
      </trkpt>
      <trkpt lat="43.52146" lon="6.59033">
        <ele>89.54</ele>
        <time>2018-06-17T14:21:34Z</time>
      </trkpt>
      <trkpt lat="43.52146" lon="6.59031">
        <ele>90.98</ele>
        <time>2018-06-17T14:21:47Z</time>
      </trkpt>
      <trkpt lat="43.52146" lon="6.59031">
        <ele>90.02</ele>
        <time>2018-06-17T14:22:04Z</time>
      </trkpt>
      <trkpt lat="43.52149" lon="6.59033">
        <ele>90.02</ele>
        <time>2018-06-17T14:22:34Z</time>
      </trkpt>
      <trkpt lat="43.52147" lon="6.59034">
        <ele>90.02</ele>
        <time>2018-06-17T14:23:12Z</time>
      </trkpt>
      <trkpt lat="43.52149" lon="6.59034">
        <ele>90.02</ele>
        <time>2018-06-17T14:23:48Z</time>
      </trkpt>
      <trkpt lat="43.52147" lon="6.59035">
        <ele>90.02</ele>
        <time>2018-06-17T14:24:26Z</time>
      </trkpt>
      <trkpt lat="43.52145" lon="6.59032">
        <ele>89.54</ele>
        <time>2018-06-17T14:25:05Z</time>
      </trkpt>
      <trkpt lat="43.52145" lon="6.59033">
        <ele>90.02</ele>
        <time>2018-06-17T14:25:42Z</time>
      </trkpt>
      <trkpt lat="43.52146" lon="6.59032">
        <ele>89.54</ele>
        <time>2018-06-17T14:26:16Z</time>
      </trkpt>
      <trkpt lat="43.52148" lon="6.59032">
        <ele>90.5</ele>
        <time>2018-06-17T14:26:37Z</time>
      </trkpt>
      <trkpt lat="43.52149" lon="6.59032">
        <ele>90.5</ele>
        <time>2018-06-17T14:26:55Z</time>
      </trkpt>
      <trkpt lat="43.52154" lon="6.59033">
        <ele>88.58</ele>
        <time>2018-06-17T14:27:10Z</time>
      </trkpt>
      <trkpt lat="43.52156" lon="6.59031">
        <ele>86.66</ele>
        <time>2018-06-17T14:27:24Z</time>
      </trkpt>
      <trkpt lat="43.52157" lon="6.59031">
        <ele>86.18</ele>
        <time>2018-06-17T14:27:25Z</time>
      </trkpt>
      <trkpt lat="43.52169" lon="6.59023">
        <ele>85.69</ele>
        <time>2018-06-17T14:27:40Z</time>
      </trkpt>
      <trkpt lat="43.52179" lon="6.59018">
        <ele>86.18</ele>
        <time>2018-06-17T14:27:55Z</time>
      </trkpt>
      <trkpt lat="43.52183" lon="6.59013">
        <ele>87.14</ele>
        <time>2018-06-17T14:28:03Z</time>
      </trkpt>
      <trkpt lat="43.52185" lon="6.59008">
        <ele>87.62</ele>
        <time>2018-06-17T14:28:12Z</time>
      </trkpt>
      <trkpt lat="43.52187" lon="6.58977">
        <ele>85.21</ele>
        <time>2018-06-17T14:28:32Z</time>
      </trkpt>
      <trkpt lat="43.52185" lon="6.58947">
        <ele>83.77</ele>
        <time>2018-06-17T14:28:52Z</time>
      </trkpt>
      <trkpt lat="43.52177" lon="6.58927">
        <ele>81.85</ele>
        <time>2018-06-17T14:29:07Z</time>
      </trkpt>
      <trkpt lat="43.52165" lon="6.589">
        <ele>80.41</ele>
        <time>2018-06-17T14:29:27Z</time>
      </trkpt>
      <trkpt lat="43.52153" lon="6.58876">
        <ele>78.48</ele>
        <time>2018-06-17T14:29:45Z</time>
      </trkpt>
      <trkpt lat="43.52139" lon="6.58848">
        <ele>77.04</ele>
        <time>2018-06-17T14:30:06Z</time>
      </trkpt>
      <trkpt lat="43.52127" lon="6.58821">
        <ele>75.6</ele>
        <time>2018-06-17T14:30:25Z</time>
      </trkpt>
      <trkpt lat="43.52121" lon="6.58797">
        <ele>76.56</ele>
        <time>2018-06-17T14:30:41Z</time>
      </trkpt>
      <trkpt lat="43.52116" lon="6.58766">
        <ele>77.04</ele>
        <time>2018-06-17T14:31:01Z</time>
      </trkpt>
      <trkpt lat="43.52112" lon="6.58737">
        <ele>77.52</ele>
        <time>2018-06-17T14:31:19Z</time>
      </trkpt>
      <trkpt lat="43.52109" lon="6.58713">
        <ele>76.56</ele>
        <time>2018-06-17T14:31:35Z</time>
      </trkpt>
      <trkpt lat="43.52101" lon="6.58683">
        <ele>75.6</ele>
        <time>2018-06-17T14:31:56Z</time>
      </trkpt>
      <trkpt lat="43.52101" lon="6.58682">
        <ele>76.08</ele>
        <time>2018-06-17T14:32:10Z</time>
      </trkpt>
      <trkpt lat="43.52098" lon="6.58678">
        <ele>76.08</ele>
        <time>2018-06-17T14:32:33Z</time>
      </trkpt>
      <trkpt lat="43.52099" lon="6.5868">
        <ele>75.12</ele>
        <time>2018-06-17T14:32:58Z</time>
      </trkpt>
      <trkpt lat="43.521" lon="6.58684">
        <ele>75.6</ele>
        <time>2018-06-17T14:33:16Z</time>
      </trkpt>
      <trkpt lat="43.52105" lon="6.58692">
        <ele>76.08</ele>
        <time>2018-06-17T14:33:32Z</time>
      </trkpt>
      <trkpt lat="43.52118" lon="6.58698">
        <ele>78</ele>
        <time>2018-06-17T14:33:49Z</time>
      </trkpt>
      <trkpt lat="43.52126" lon="6.587">
        <ele>78.97</ele>
        <time>2018-06-17T14:33:56Z</time>
      </trkpt>
      <trkpt lat="43.5214" lon="6.58702">
        <ele>79.45</ele>
        <time>2018-06-17T14:34:14Z</time>
      </trkpt>
      <trkpt lat="43.52143" lon="6.58701">
        <ele>80.89</ele>
        <time>2018-06-17T14:34:35Z</time>
      </trkpt>
      <trkpt lat="43.52144" lon="6.58694">
        <ele>80.41</ele>
        <time>2018-06-17T14:34:50Z</time>
      </trkpt>
      <trkpt lat="43.52141" lon="6.58693">
        <ele>80.41</ele>
        <time>2018-06-17T14:35:05Z</time>
      </trkpt>
      <trkpt lat="43.52143" lon="6.58694">
        <ele>80.41</ele>
        <time>2018-06-17T14:35:17Z</time>
      </trkpt>
      <trkpt lat="43.52146" lon="6.58694">
        <ele>79.93</ele>
        <time>2018-06-17T14:35:34Z</time>
      </trkpt>
      <trkpt lat="43.52145" lon="6.587">
        <ele>79.93</ele>
        <time>2018-06-17T14:35:49Z</time>
      </trkpt>
      <trkpt lat="43.52148" lon="6.58691">
        <ele>80.41</ele>
        <time>2018-06-17T14:36:06Z</time>
      </trkpt>
      <trkpt lat="43.52147" lon="6.58687">
        <ele>80.41</ele>
        <time>2018-06-17T14:36:25Z</time>
      </trkpt>
      <trkpt lat="43.52147" lon="6.5869">
        <ele>80.41</ele>
        <time>2018-06-17T14:36:52Z</time>
      </trkpt>
      <trkpt lat="43.52147" lon="6.58691">
        <ele>80.41</ele>
        <time>2018-06-17T14:37:16Z</time>
      </trkpt>
      <trkpt lat="43.52146" lon="6.58691">
        <ele>80.89</ele>
        <time>2018-06-17T14:37:31Z</time>
      </trkpt>
      <trkpt lat="43.52151" lon="6.58692">
        <ele>80.41</ele>
        <time>2018-06-17T14:37:49Z</time>
      </trkpt>
      <trkpt lat="43.5215" lon="6.58692">
        <ele>80.89</ele>
        <time>2018-06-17T14:38:12Z</time>
      </trkpt>
      <trkpt lat="43.5215" lon="6.58695">
        <ele>80.41</ele>
        <time>2018-06-17T14:38:38Z</time>
      </trkpt>
      <trkpt lat="43.52142" lon="6.587">
        <ele>79.45</ele>
        <time>2018-06-17T14:39:05Z</time>
      </trkpt>
      <trkpt lat="43.5214" lon="6.58701">
        <ele>79.93</ele>
        <time>2018-06-17T14:39:20Z</time>
      </trkpt>
      <trkpt lat="43.52135" lon="6.58703">
        <ele>79.45</ele>
        <time>2018-06-17T14:39:46Z</time>
      </trkpt>
      <trkpt lat="43.52139" lon="6.58704">
        <ele>79.45</ele>
        <time>2018-06-17T14:40:14Z</time>
      </trkpt>
      <trkpt lat="43.52134" lon="6.58697">
        <ele>79.45</ele>
        <time>2018-06-17T14:40:30Z</time>
      </trkpt>
      <trkpt lat="43.52132" lon="6.58694">
        <ele>78.48</ele>
        <time>2018-06-17T14:40:34Z</time>
      </trkpt>
      <trkpt lat="43.52125" lon="6.58685">
        <ele>78.97</ele>
        <time>2018-06-17T14:40:50Z</time>
      </trkpt>
      <trkpt lat="43.52127" lon="6.58683">
        <ele>78.97</ele>
        <time>2018-06-17T14:41:08Z</time>
      </trkpt>
      <trkpt lat="43.5212" lon="6.58678">
        <ele>78</ele>
        <time>2018-06-17T14:41:25Z</time>
      </trkpt>
      <trkpt lat="43.52111" lon="6.58671">
        <ele>76.56</ele>
        <time>2018-06-17T14:41:38Z</time>
      </trkpt>
      <trkpt lat="43.52105" lon="6.5867">
        <ele>75.12</ele>
        <time>2018-06-17T14:41:44Z</time>
      </trkpt>
      <trkpt lat="43.52093" lon="6.58664">
        <ele>74.64</ele>
        <time>2018-06-17T14:41:59Z</time>
      </trkpt>
      <trkpt lat="43.52084" lon="6.58658">
        <ele>74.16</ele>
        <time>2018-06-17T14:42:13Z</time>
      </trkpt>
      <trkpt lat="43.52076" lon="6.58656">
        <ele>73.2</ele>
        <time>2018-06-17T14:42:31Z</time>
      </trkpt>
      <trkpt lat="43.52078" lon="6.58656">
        <ele>72.72</ele>
        <time>2018-06-17T14:42:50Z</time>
      </trkpt>
      <trkpt lat="43.52075" lon="6.58657">
        <ele>73.2</ele>
        <time>2018-06-17T14:43:00Z</time>
      </trkpt>
      <trkpt lat="43.52056" lon="6.58653">
        <ele>71.76</ele>
        <time>2018-06-17T14:43:17Z</time>
      </trkpt>
      <trkpt lat="43.52039" lon="6.58655">
        <ele>70.79</ele>
        <time>2018-06-17T14:43:32Z</time>
      </trkpt>
      <trkpt lat="43.52023" lon="6.58661">
        <ele>70.31</ele>
        <time>2018-06-17T14:43:48Z</time>
      </trkpt>
      <trkpt lat="43.52022" lon="6.58663">
        <ele>69.83</ele>
        <time>2018-06-17T14:43:50Z</time>
      </trkpt>
      <trkpt lat="43.52013" lon="6.58682">
        <ele>70.31</ele>
        <time>2018-06-17T14:44:06Z</time>
      </trkpt>
      <trkpt lat="43.52009" lon="6.58709">
        <ele>68.87</ele>
        <time>2018-06-17T14:44:24Z</time>
      </trkpt>
      <trkpt lat="43.52009" lon="6.58737">
        <ele>68.39</ele>
        <time>2018-06-17T14:44:43Z</time>
      </trkpt>
      <trkpt lat="43.51996" lon="6.58741">
        <ele>69.83</ele>
        <time>2018-06-17T14:45:00Z</time>
      </trkpt>
      <trkpt lat="43.51996" lon="6.58741">
        <ele>69.83</ele>
        <time>2018-06-17T14:45:01Z</time>
      </trkpt>
      <trkpt lat="43.51977" lon="6.58741">
        <ele>69.83</ele>
        <time>2018-06-17T14:45:16Z</time>
      </trkpt>
      <trkpt lat="43.51957" lon="6.5873">
        <ele>69.35</ele>
        <time>2018-06-17T14:45:35Z</time>
      </trkpt>
      <trkpt lat="43.51941" lon="6.58722">
        <ele>69.83</ele>
        <time>2018-06-17T14:45:50Z</time>
      </trkpt>
      <trkpt lat="43.51921" lon="6.58721">
        <ele>67.91</ele>
        <time>2018-06-17T14:46:08Z</time>
      </trkpt>
      <trkpt lat="43.51907" lon="6.58722">
        <ele>68.39</ele>
        <time>2018-06-17T14:46:22Z</time>
      </trkpt>
      <trkpt lat="43.51891" lon="6.58717">
        <ele>68.39</ele>
        <time>2018-06-17T14:46:37Z</time>
      </trkpt>
      <trkpt lat="43.51883" lon="6.58712">
        <ele>67.43</ele>
        <time>2018-06-17T14:46:51Z</time>
      </trkpt>
      <trkpt lat="43.5188" lon="6.5871">
        <ele>67.91</ele>
        <time>2018-06-17T14:46:54Z</time>
      </trkpt>
      <trkpt lat="43.5187" lon="6.58687">
        <ele>66.95</ele>
        <time>2018-06-17T14:47:10Z</time>
      </trkpt>
      <trkpt lat="43.51861" lon="6.58658">
        <ele>66.95</ele>
        <time>2018-06-17T14:47:30Z</time>
      </trkpt>
      <trkpt lat="43.51858" lon="6.58646">
        <ele>66.47</ele>
        <time>2018-06-17T14:47:44Z</time>
      </trkpt>
      <trkpt lat="43.51855" lon="6.58648">
        <ele>66.47</ele>
        <time>2018-06-17T14:48:01Z</time>
      </trkpt>
      <trkpt lat="43.51854" lon="6.58652">
        <ele>66.95</ele>
        <time>2018-06-17T14:48:18Z</time>
      </trkpt>
      <trkpt lat="43.51856" lon="6.58651">
        <ele>66.47</ele>
        <time>2018-06-17T14:48:36Z</time>
      </trkpt>
      <trkpt lat="43.51854" lon="6.58648">
        <ele>66.95</ele>
        <time>2018-06-17T14:48:52Z</time>
      </trkpt>
      <trkpt lat="43.51855" lon="6.58652">
        <ele>66.95</ele>
        <time>2018-06-17T14:49:09Z</time>
      </trkpt>
      <trkpt lat="43.51855" lon="6.58657">
        <ele>66.47</ele>
        <time>2018-06-17T14:49:22Z</time>
      </trkpt>
      <trkpt lat="43.51854" lon="6.58656">
        <ele>66.47</ele>
        <time>2018-06-17T14:49:34Z</time>
      </trkpt>
      <trkpt lat="43.51857" lon="6.58651">
        <ele>66.95</ele>
        <time>2018-06-17T14:49:48Z</time>
      </trkpt>
      <trkpt lat="43.51857" lon="6.58653">
        <ele>67.43</ele>
        <time>2018-06-17T14:50:03Z</time>
      </trkpt>
      <trkpt lat="43.51857" lon="6.5866">
        <ele>66.47</ele>
        <time>2018-06-17T14:50:16Z</time>
      </trkpt>
      <trkpt lat="43.51855" lon="6.58658">
        <ele>67.43</ele>
        <time>2018-06-17T14:50:38Z</time>
      </trkpt>
      <trkpt lat="43.51857" lon="6.5866">
        <ele>66.95</ele>
        <time>2018-06-17T14:50:56Z</time>
      </trkpt>
      <trkpt lat="43.51854" lon="6.58659">
        <ele>66.95</ele>
        <time>2018-06-17T14:51:15Z</time>
      </trkpt>
      <trkpt lat="43.51856" lon="6.5866">
        <ele>67.43</ele>
        <time>2018-06-17T14:51:35Z</time>
      </trkpt>
      <trkpt lat="43.51856" lon="6.58654">
        <ele>66.95</ele>
        <time>2018-06-17T14:51:51Z</time>
      </trkpt>
      <trkpt lat="43.51855" lon="6.58647">
        <ele>66.95</ele>
        <time>2018-06-17T14:52:04Z</time>
      </trkpt>
      <trkpt lat="43.51856" lon="6.58649">
        <ele>66.95</ele>
        <time>2018-06-17T14:52:23Z</time>
      </trkpt>
      <trkpt lat="43.51856" lon="6.58652">
        <ele>66.47</ele>
        <time>2018-06-17T14:52:37Z</time>
      </trkpt>
      <trkpt lat="43.51858" lon="6.58652">
        <ele>66.95</ele>
        <time>2018-06-17T14:53:11Z</time>
      </trkpt>
      <trkpt lat="43.51857" lon="6.58652">
        <ele>66.47</ele>
        <time>2018-06-17T14:53:35Z</time>
      </trkpt>
      <trkpt lat="43.51856" lon="6.58653">
        <ele>66.95</ele>
        <time>2018-06-17T14:54:00Z</time>
      </trkpt>
      <trkpt lat="43.51856" lon="6.58653">
        <ele>66.47</ele>
        <time>2018-06-17T14:54:26Z</time>
      </trkpt>
      <trkpt lat="43.51856" lon="6.58656">
        <ele>66.47</ele>
        <time>2018-06-17T14:54:49Z</time>
      </trkpt>
      <trkpt lat="43.51856" lon="6.58659">
        <ele>66.47</ele>
        <time>2018-06-17T14:55:19Z</time>
      </trkpt>
      <trkpt lat="43.51856" lon="6.58658">
        <ele>66.47</ele>
        <time>2018-06-17T14:55:54Z</time>
      </trkpt>
      <trkpt lat="43.51855" lon="6.5866">
        <ele>66.47</ele>
        <time>2018-06-17T14:56:24Z</time>
      </trkpt>
      <trkpt lat="43.51856" lon="6.58659">
        <ele>66.47</ele>
        <time>2018-06-17T14:56:53Z</time>
      </trkpt>
      <trkpt lat="43.51857" lon="6.58657">
        <ele>65.99</ele>
        <time>2018-06-17T14:57:14Z</time>
      </trkpt>
      <trkpt lat="43.51859" lon="6.58656">
        <ele>66.47</ele>
        <time>2018-06-17T14:57:34Z</time>
      </trkpt>
      <trkpt lat="43.51858" lon="6.58661">
        <ele>65.99</ele>
        <time>2018-06-17T14:57:50Z</time>
      </trkpt>
      <trkpt lat="43.51855" lon="6.5866">
        <ele>66.95</ele>
        <time>2018-06-17T14:58:19Z</time>
      </trkpt>
      <trkpt lat="43.51855" lon="6.58656">
        <ele>66.47</ele>
        <time>2018-06-17T14:58:41Z</time>
      </trkpt>
      <trkpt lat="43.51854" lon="6.58651">
        <ele>66.47</ele>
        <time>2018-06-17T14:58:56Z</time>
      </trkpt>
      <trkpt lat="43.51853" lon="6.58651">
        <ele>65.99</ele>
        <time>2018-06-17T14:59:11Z</time>
      </trkpt>
      <trkpt lat="43.51853" lon="6.58637">
        <ele>66.47</ele>
        <time>2018-06-17T14:59:26Z</time>
      </trkpt>
      <trkpt lat="43.51854" lon="6.58633">
        <ele>65.99</ele>
        <time>2018-06-17T14:59:40Z</time>
      </trkpt>
      <trkpt lat="43.51851" lon="6.58627">
        <ele>65.51</ele>
        <time>2018-06-17T15:00:16Z</time>
      </trkpt>
      <trkpt lat="43.51846" lon="6.58616">
        <ele>65.51</ele>
        <time>2018-06-17T15:00:26Z</time>
      </trkpt>
      <trkpt lat="43.51841" lon="6.58605">
        <ele>64.55</ele>
        <time>2018-06-17T15:00:39Z</time>
      </trkpt>
      <trkpt lat="43.5183" lon="6.58602">
        <ele>64.07</ele>
        <time>2018-06-17T15:00:54Z</time>
      </trkpt>
      <trkpt lat="43.51811" lon="6.58619">
        <ele>64.07</ele>
        <time>2018-06-17T15:01:15Z</time>
      </trkpt>
      <trkpt lat="43.51791" lon="6.5863">
        <ele>64.55</ele>
        <time>2018-06-17T15:01:33Z</time>
      </trkpt>
      <trkpt lat="43.51786" lon="6.58631">
        <ele>64.55</ele>
        <time>2018-06-17T15:01:39Z</time>
      </trkpt>
      <trkpt lat="43.5178" lon="6.58634">
        <ele>64.55</ele>
        <time>2018-06-17T15:01:45Z</time>
      </trkpt>
      <trkpt lat="43.51772" lon="6.58635">
        <ele>64.55</ele>
        <time>2018-06-17T15:02:02Z</time>
      </trkpt>
      <trkpt lat="43.51771" lon="6.58632">
        <ele>64.07</ele>
        <time>2018-06-17T15:02:22Z</time>
      </trkpt>
      <trkpt lat="43.51763" lon="6.58632">
        <ele>64.07</ele>
        <time>2018-06-17T15:02:37Z</time>
      </trkpt>
      <trkpt lat="43.51746" lon="6.5862">
        <ele>63.1</ele>
        <time>2018-06-17T15:02:53Z</time>
      </trkpt>
      <trkpt lat="43.51736" lon="6.58609">
        <ele>63.1</ele>
        <time>2018-06-17T15:03:05Z</time>
      </trkpt>
      <trkpt lat="43.51724" lon="6.58606">
        <ele>62.62</ele>
        <time>2018-06-17T15:03:19Z</time>
      </trkpt>
      <trkpt lat="43.51707" lon="6.58612">
        <ele>62.62</ele>
        <time>2018-06-17T15:03:33Z</time>
      </trkpt>
      <trkpt lat="43.51702" lon="6.58613">
        <ele>62.62</ele>
        <time>2018-06-17T15:03:37Z</time>
      </trkpt>
      <trkpt lat="43.51698" lon="6.58611">
        <ele>62.62</ele>
        <time>2018-06-17T15:03:41Z</time>
      </trkpt>
      <trkpt lat="43.51695" lon="6.58607">
        <ele>62.14</ele>
        <time>2018-06-17T15:03:45Z</time>
      </trkpt>
      <trkpt lat="43.51688" lon="6.58604">
        <ele>61.66</ele>
        <time>2018-06-17T15:03:51Z</time>
      </trkpt>
      <trkpt lat="43.51675" lon="6.58601">
        <ele>61.66</ele>
        <time>2018-06-17T15:04:08Z</time>
      </trkpt>
      <trkpt lat="43.51654" lon="6.58603">
        <ele>60.22</ele>
        <time>2018-06-17T15:04:27Z</time>
      </trkpt>
      <trkpt lat="43.51637" lon="6.58613">
        <ele>61.18</ele>
        <time>2018-06-17T15:04:46Z</time>
      </trkpt>
      <trkpt lat="43.51629" lon="6.58627">
        <ele>60.22</ele>
        <time>2018-06-17T15:05:02Z</time>
      </trkpt>
      <trkpt lat="43.51628" lon="6.58617">
        <ele>60.7</ele>
        <time>2018-06-17T15:05:18Z</time>
      </trkpt>
      <trkpt lat="43.51615" lon="6.58616">
        <ele>60.22</ele>
        <time>2018-06-17T15:05:37Z</time>
      </trkpt>
      <trkpt lat="43.51611" lon="6.58615">
        <ele>59.74</ele>
        <time>2018-06-17T15:05:53Z</time>
      </trkpt>
      <trkpt lat="43.51611" lon="6.58613">
        <ele>60.22</ele>
        <time>2018-06-17T15:06:13Z</time>
      </trkpt>
      <trkpt lat="43.51625" lon="6.58605">
        <ele>60.22</ele>
        <time>2018-06-17T15:06:30Z</time>
      </trkpt>
      <trkpt lat="43.51632" lon="6.58601">
        <ele>59.74</ele>
        <time>2018-06-17T15:06:46Z</time>
      </trkpt>
      <trkpt lat="43.51632" lon="6.58604">
        <ele>60.22</ele>
        <time>2018-06-17T15:07:12Z</time>
      </trkpt>
      <trkpt lat="43.51633" lon="6.58605">
        <ele>60.22</ele>
        <time>2018-06-17T15:07:44Z</time>
      </trkpt>
      <trkpt lat="43.51639" lon="6.58605">
        <ele>60.7</ele>
        <time>2018-06-17T15:08:09Z</time>
      </trkpt>
      <trkpt lat="43.51644" lon="6.58605">
        <ele>60.7</ele>
        <time>2018-06-17T15:08:23Z</time>
      </trkpt>
      <trkpt lat="43.51643" lon="6.58603">
        <ele>60.7</ele>
        <time>2018-06-17T15:08:49Z</time>
      </trkpt>
      <trkpt lat="43.5164" lon="6.58603">
        <ele>60.22</ele>
        <time>2018-06-17T15:09:19Z</time>
      </trkpt>
      <trkpt lat="43.51648" lon="6.58602">
        <ele>61.18</ele>
        <time>2018-06-17T15:09:30Z</time>
      </trkpt>
      <trkpt lat="43.51668" lon="6.58594">
        <ele>60.7</ele>
        <time>2018-06-17T15:09:48Z</time>
      </trkpt>
      <trkpt lat="43.51684" lon="6.58597">
        <ele>62.14</ele>
        <time>2018-06-17T15:10:03Z</time>
      </trkpt>
      <trkpt lat="43.51697" lon="6.58604">
        <ele>62.62</ele>
        <time>2018-06-17T15:10:17Z</time>
      </trkpt>
      <trkpt lat="43.51703" lon="6.58607">
        <ele>62.62</ele>
        <time>2018-06-17T15:10:30Z</time>
      </trkpt>
      <trkpt lat="43.51705" lon="6.58606">
        <ele>62.62</ele>
        <time>2018-06-17T15:10:32Z</time>
      </trkpt>
      <trkpt lat="43.51722" lon="6.58605">
        <ele>63.58</ele>
        <time>2018-06-17T15:10:47Z</time>
      </trkpt>
      <trkpt lat="43.51737" lon="6.58607">
        <ele>64.07</ele>
        <time>2018-06-17T15:11:02Z</time>
      </trkpt>
      <trkpt lat="43.51751" lon="6.58622">
        <ele>64.55</ele>
        <time>2018-06-17T15:11:17Z</time>
      </trkpt>
      <trkpt lat="43.51766" lon="6.58632">
        <ele>65.03</ele>
        <time>2018-06-17T15:11:34Z</time>
      </trkpt>
      <trkpt lat="43.51785" lon="6.58628">
        <ele>65.03</ele>
        <time>2018-06-17T15:11:52Z</time>
      </trkpt>
      <trkpt lat="43.518" lon="6.58623">
        <ele>65.03</ele>
        <time>2018-06-17T15:12:08Z</time>
      </trkpt>
      <trkpt lat="43.51806" lon="6.58619">
        <ele>64.55</ele>
        <time>2018-06-17T15:12:16Z</time>
      </trkpt>
      <trkpt lat="43.51825" lon="6.58602">
        <ele>64.55</ele>
        <time>2018-06-17T15:12:37Z</time>
      </trkpt>
      <trkpt lat="43.51825" lon="6.58593">
        <ele>63.58</ele>
        <time>2018-06-17T15:12:48Z</time>
      </trkpt>
      <trkpt lat="43.51812" lon="6.58589">
        <ele>61.66</ele>
        <time>2018-06-17T15:13:01Z</time>
      </trkpt>
      <trkpt lat="43.51794" lon="6.58585">
        <ele>60.22</ele>
        <time>2018-06-17T15:13:19Z</time>
      </trkpt>
      <trkpt lat="43.51788" lon="6.58584">
        <ele>60.22</ele>
        <time>2018-06-17T15:13:25Z</time>
      </trkpt>
      <trkpt lat="43.51782" lon="6.58582">
        <ele>59.26</ele>
        <time>2018-06-17T15:13:31Z</time>
      </trkpt>
      <trkpt lat="43.51762" lon="6.5858">
        <ele>59.26</ele>
        <time>2018-06-17T15:13:50Z</time>
      </trkpt>
      <trkpt lat="43.51743" lon="6.58582">
        <ele>58.3</ele>
        <time>2018-06-17T15:14:08Z</time>
      </trkpt>
      <trkpt lat="43.51725" lon="6.58581">
        <ele>57.34</ele>
        <time>2018-06-17T15:14:24Z</time>
      </trkpt>
      <trkpt lat="43.51711" lon="6.58579">
        <ele>56.37</ele>
        <time>2018-06-17T15:14:38Z</time>
      </trkpt>
      <trkpt lat="43.51696" lon="6.58577">
        <ele>56.37</ele>
        <time>2018-06-17T15:14:53Z</time>
      </trkpt>
      <trkpt lat="43.51676" lon="6.58572">
        <ele>54.45</ele>
        <time>2018-06-17T15:15:11Z</time>
      </trkpt>
      <trkpt lat="43.51652" lon="6.58569">
        <ele>53.97</ele>
        <time>2018-06-17T15:15:32Z</time>
      </trkpt>
      <trkpt lat="43.51645" lon="6.58571">
        <ele>53.01</ele>
        <time>2018-06-17T15:15:49Z</time>
      </trkpt>
      <trkpt lat="43.51634" lon="6.58574">
        <ele>52.53</ele>
        <time>2018-06-17T15:16:07Z</time>
      </trkpt>
      <trkpt lat="43.51617" lon="6.5858">
        <ele>51.57</ele>
        <time>2018-06-17T15:16:25Z</time>
      </trkpt>
      <trkpt lat="43.5161" lon="6.58585">
        <ele>51.57</ele>
        <time>2018-06-17T15:16:42Z</time>
      </trkpt>
      <trkpt lat="43.51599" lon="6.58598">
        <ele>50.61</ele>
        <time>2018-06-17T15:16:58Z</time>
      </trkpt>
      <trkpt lat="43.51598" lon="6.586">
        <ele>50.61</ele>
        <time>2018-06-17T15:17:00Z</time>
      </trkpt>
      <trkpt lat="43.51594" lon="6.58613">
        <ele>50.13</ele>
        <time>2018-06-17T15:17:13Z</time>
      </trkpt>
      <trkpt lat="43.51599" lon="6.58639">
        <ele>50.13</ele>
        <time>2018-06-17T15:17:36Z</time>
      </trkpt>
      <trkpt lat="43.51608" lon="6.58653">
        <ele>49.65</ele>
        <time>2018-06-17T15:17:56Z</time>
      </trkpt>
      <trkpt lat="43.51617" lon="6.58664">
        <ele>51.09</ele>
        <time>2018-06-17T15:18:17Z</time>
      </trkpt>
      <trkpt lat="43.51622" lon="6.5867">
        <ele>51.57</ele>
        <time>2018-06-17T15:18:35Z</time>
      </trkpt>
      <trkpt lat="43.51624" lon="6.58669">
        <ele>51.09</ele>
        <time>2018-06-17T15:18:56Z</time>
      </trkpt>
      <trkpt lat="43.51622" lon="6.58667">
        <ele>51.09</ele>
        <time>2018-06-17T15:19:11Z</time>
      </trkpt>
      <trkpt lat="43.51621" lon="6.58665">
        <ele>50.61</ele>
        <time>2018-06-17T15:19:41Z</time>
      </trkpt>
      <trkpt lat="43.51623" lon="6.58672">
        <ele>51.09</ele>
        <time>2018-06-17T15:19:54Z</time>
      </trkpt>
      <trkpt lat="43.51621" lon="6.58675">
        <ele>50.13</ele>
        <time>2018-06-17T15:20:13Z</time>
      </trkpt>
      <trkpt lat="43.51618" lon="6.58673">
        <ele>50.61</ele>
        <time>2018-06-17T15:20:28Z</time>
      </trkpt>
      <trkpt lat="43.51623" lon="6.58667">
        <ele>51.09</ele>
        <time>2018-06-17T15:20:47Z</time>
      </trkpt>
      <trkpt lat="43.51618" lon="6.58664">
        <ele>50.13</ele>
        <time>2018-06-17T15:21:01Z</time>
      </trkpt>
      <trkpt lat="43.51617" lon="6.58662">
        <ele>50.61</ele>
        <time>2018-06-17T15:21:19Z</time>
      </trkpt>
      <trkpt lat="43.51617" lon="6.58662">
        <ele>50.13</ele>
        <time>2018-06-17T15:21:38Z</time>
      </trkpt>
      <trkpt lat="43.51616" lon="6.58664">
        <ele>50.61</ele>
        <time>2018-06-17T15:22:00Z</time>
      </trkpt>
      <trkpt lat="43.51616" lon="6.58669">
        <ele>51.09</ele>
        <time>2018-06-17T15:22:21Z</time>
      </trkpt>
      <trkpt lat="43.51618" lon="6.58664">
        <ele>51.57</ele>
        <time>2018-06-17T15:22:50Z</time>
      </trkpt>
      <trkpt lat="43.51616" lon="6.58663">
        <ele>51.09</ele>
        <time>2018-06-17T15:23:11Z</time>
      </trkpt>
      <trkpt lat="43.5162" lon="6.58669">
        <ele>51.57</ele>
        <time>2018-06-17T15:23:27Z</time>
      </trkpt>
      <trkpt lat="43.51623" lon="6.58668">
        <ele>51.09</ele>
        <time>2018-06-17T15:23:49Z</time>
      </trkpt>
      <trkpt lat="43.51624" lon="6.58668">
        <ele>51.09</ele>
        <time>2018-06-17T15:24:13Z</time>
      </trkpt>
      <trkpt lat="43.51623" lon="6.5867">
        <ele>51.57</ele>
        <time>2018-06-17T15:24:39Z</time>
      </trkpt>
      <trkpt lat="43.51621" lon="6.5867">
        <ele>51.57</ele>
        <time>2018-06-17T15:24:59Z</time>
      </trkpt>
      <trkpt lat="43.51621" lon="6.5867">
        <ele>51.09</ele>
        <time>2018-06-17T15:25:28Z</time>
      </trkpt>
      <trkpt lat="43.5162" lon="6.58673">
        <ele>51.57</ele>
        <time>2018-06-17T15:25:42Z</time>
      </trkpt>
      <trkpt lat="43.51612" lon="6.58664">
        <ele>50.61</ele>
        <time>2018-06-17T15:25:59Z</time>
      </trkpt>
      <trkpt lat="43.51603" lon="6.58651">
        <ele>49.16</ele>
        <time>2018-06-17T15:26:15Z</time>
      </trkpt>
      <trkpt lat="43.51598" lon="6.58646">
        <ele>50.13</ele>
        <time>2018-06-17T15:26:22Z</time>
      </trkpt>
      <trkpt lat="43.51579" lon="6.58641">
        <ele>49.65</ele>
        <time>2018-06-17T15:26:40Z</time>
      </trkpt>
      <trkpt lat="43.51567" lon="6.58633">
        <ele>49.65</ele>
        <time>2018-06-17T15:26:55Z</time>
      </trkpt>
      <trkpt lat="43.51568" lon="6.58635">
        <ele>49.65</ele>
        <time>2018-06-17T15:27:08Z</time>
      </trkpt>
      <trkpt lat="43.51568" lon="6.58633">
        <ele>50.13</ele>
        <time>2018-06-17T15:27:36Z</time>
      </trkpt>
      <trkpt lat="43.51553" lon="6.58629">
        <ele>49.16</ele>
        <time>2018-06-17T15:27:52Z</time>
      </trkpt>
      <trkpt lat="43.51546" lon="6.58628">
        <ele>49.65</ele>
        <time>2018-06-17T15:27:59Z</time>
      </trkpt>
      <trkpt lat="43.51527" lon="6.5863">
        <ele>49.65</ele>
        <time>2018-06-17T15:28:16Z</time>
      </trkpt>
      <trkpt lat="43.51511" lon="6.58632">
        <ele>50.13</ele>
        <time>2018-06-17T15:28:31Z</time>
      </trkpt>
      <trkpt lat="43.51494" lon="6.58639">
        <ele>50.13</ele>
        <time>2018-06-17T15:28:47Z</time>
      </trkpt>
      <trkpt lat="43.51477" lon="6.58641">
        <ele>49.16</ele>
        <time>2018-06-17T15:29:03Z</time>
      </trkpt>
      <trkpt lat="43.51459" lon="6.58644">
        <ele>47.72</ele>
        <time>2018-06-17T15:29:20Z</time>
      </trkpt>
      <trkpt lat="43.51447" lon="6.58653">
        <ele>46.76</ele>
        <time>2018-06-17T15:29:35Z</time>
      </trkpt>
      <trkpt lat="43.51443" lon="6.58665">
        <ele>46.28</ele>
        <time>2018-06-17T15:29:47Z</time>
      </trkpt>
      <trkpt lat="43.51445" lon="6.58679">
        <ele>45.8</ele>
        <time>2018-06-17T15:29:57Z</time>
      </trkpt>
      <trkpt lat="43.51052" lon="6.58827">
        <ele>34.74</ele>
        <time>2018-06-17T15:38:49Z</time>
      </trkpt>
      <trkpt lat="43.51053" lon="6.58827">
        <ele>34.74</ele>
        <time>2018-06-17T15:38:50Z</time>
      </trkpt>
      <trkpt lat="43.51051" lon="6.58828">
        <ele>34.26</ele>
        <time>2018-06-17T15:39:20Z</time>
      </trkpt>
      <trkpt lat="43.51049" lon="6.5883">
        <ele>34.26</ele>
        <time>2018-06-17T15:39:22Z</time>
      </trkpt>
      <trkpt lat="43.51032" lon="6.58847">
        <ele>32.82</ele>
        <time>2018-06-17T15:39:40Z</time>
      </trkpt>
      <trkpt lat="43.51019" lon="6.58861">
        <ele>33.3</ele>
        <time>2018-06-17T15:39:59Z</time>
      </trkpt>
      <trkpt lat="43.51002" lon="6.58872">
        <ele>32.82</ele>
        <time>2018-06-17T15:40:17Z</time>
      </trkpt>
      <trkpt lat="43.50983" lon="6.5888">
        <ele>32.82</ele>
        <time>2018-06-17T15:40:35Z</time>
      </trkpt>
      <trkpt lat="43.5097" lon="6.58882">
        <ele>32.82</ele>
        <time>2018-06-17T15:40:50Z</time>
      </trkpt>
      <trkpt lat="43.50965" lon="6.58883">
        <ele>33.78</ele>
        <time>2018-06-17T15:41:08Z</time>
      </trkpt>
      <trkpt lat="43.50959" lon="6.58882">
        <ele>32.82</ele>
        <time>2018-06-17T15:41:36Z</time>
      </trkpt>
      <trkpt lat="43.50943" lon="6.58881">
        <ele>32.82</ele>
        <time>2018-06-17T15:41:53Z</time>
      </trkpt>
      <trkpt lat="43.50931" lon="6.58879">
        <ele>34.74</ele>
        <time>2018-06-17T15:42:06Z</time>
      </trkpt>
      <trkpt lat="43.50918" lon="6.58882">
        <ele>35.23</ele>
        <time>2018-06-17T15:42:21Z</time>
      </trkpt>
      <trkpt lat="43.50915" lon="6.58881">
        <ele>35.23</ele>
        <time>2018-06-17T15:42:25Z</time>
      </trkpt>
      <trkpt lat="43.50903" lon="6.58889">
        <ele>35.23</ele>
        <time>2018-06-17T15:42:39Z</time>
      </trkpt>
      <trkpt lat="43.50892" lon="6.58892">
        <ele>34.74</ele>
        <time>2018-06-17T15:42:51Z</time>
      </trkpt>
      <trkpt lat="43.50876" lon="6.58896">
        <ele>34.26</ele>
        <time>2018-06-17T15:43:05Z</time>
      </trkpt>
      <trkpt lat="43.50874" lon="6.58896">
        <ele>34.74</ele>
        <time>2018-06-17T15:43:08Z</time>
      </trkpt>
      <trkpt lat="43.50852" lon="6.58902">
        <ele>34.74</ele>
        <time>2018-06-17T15:43:24Z</time>
      </trkpt>
      <trkpt lat="43.50835" lon="6.58902">
        <ele>34.74</ele>
        <time>2018-06-17T15:43:38Z</time>
      </trkpt>
      <trkpt lat="43.50819" lon="6.5891">
        <ele>34.74</ele>
        <time>2018-06-17T15:43:53Z</time>
      </trkpt>
      <trkpt lat="43.50805" lon="6.58922">
        <ele>33.78</ele>
        <time>2018-06-17T15:44:08Z</time>
      </trkpt>
      <trkpt lat="43.50787" lon="6.58936">
        <ele>34.26</ele>
        <time>2018-06-17T15:44:24Z</time>
      </trkpt>
      <trkpt lat="43.50766" lon="6.58945">
        <ele>33.78</ele>
        <time>2018-06-17T15:44:44Z</time>
      </trkpt>
      <trkpt lat="43.50749" lon="6.58956">
        <ele>32.82</ele>
        <time>2018-06-17T15:45:02Z</time>
      </trkpt>
      <trkpt lat="43.50734" lon="6.58966">
        <ele>32.82</ele>
        <time>2018-06-17T15:45:17Z</time>
      </trkpt>
      <trkpt lat="43.50736" lon="6.5897">
        <ele>34.26</ele>
        <time>2018-06-17T15:45:30Z</time>
      </trkpt>
      <trkpt lat="43.50737" lon="6.58971">
        <ele>33.78</ele>
        <time>2018-06-17T15:45:32Z</time>
      </trkpt>
      <trkpt lat="43.50735" lon="6.58977">
        <ele>33.78</ele>
        <time>2018-06-17T15:45:40Z</time>
      </trkpt>
      <trkpt lat="43.50726" lon="6.58982">
        <ele>32.34</ele>
        <time>2018-06-17T15:45:50Z</time>
      </trkpt>
      <trkpt lat="43.50707" lon="6.58992">
        <ele>31.86</ele>
        <time>2018-06-17T15:46:06Z</time>
      </trkpt>
      <trkpt lat="43.50696" lon="6.58998">
        <ele>33.3</ele>
        <time>2018-06-17T15:46:17Z</time>
      </trkpt>
      <trkpt lat="43.50678" lon="6.59002">
        <ele>34.26</ele>
        <time>2018-06-17T15:46:34Z</time>
      </trkpt>
      <trkpt lat="43.50659" lon="6.59006">
        <ele>34.74</ele>
        <time>2018-06-17T15:46:51Z</time>
      </trkpt>
      <trkpt lat="43.50637" lon="6.59011">
        <ele>34.26</ele>
        <time>2018-06-17T15:47:11Z</time>
      </trkpt>
      <trkpt lat="43.50617" lon="6.59015">
        <ele>34.74</ele>
        <time>2018-06-17T15:47:29Z</time>
      </trkpt>
      <trkpt lat="43.50606" lon="6.59017">
        <ele>34.26</ele>
        <time>2018-06-17T15:47:38Z</time>
      </trkpt>
      <trkpt lat="43.50584" lon="6.5902">
        <ele>34.26</ele>
        <time>2018-06-17T15:47:58Z</time>
      </trkpt>
      <trkpt lat="43.50567" lon="6.59022">
        <ele>34.26</ele>
        <time>2018-06-17T15:48:13Z</time>
      </trkpt>
      <trkpt lat="43.50551" lon="6.59024">
        <ele>35.23</ele>
        <time>2018-06-17T15:48:29Z</time>
      </trkpt>
      <trkpt lat="43.50549" lon="6.59024">
        <ele>34.74</ele>
        <time>2018-06-17T15:48:31Z</time>
      </trkpt>
      <trkpt lat="43.50525" lon="6.59028">
        <ele>34.26</ele>
        <time>2018-06-17T15:48:50Z</time>
      </trkpt>
      <trkpt lat="43.50507" lon="6.5903">
        <ele>34.74</ele>
        <time>2018-06-17T15:49:06Z</time>
      </trkpt>
      <trkpt lat="43.50493" lon="6.59034">
        <ele>33.78</ele>
        <time>2018-06-17T15:49:19Z</time>
      </trkpt>
      <trkpt lat="43.50473" lon="6.59036">
        <ele>33.78</ele>
        <time>2018-06-17T15:49:38Z</time>
      </trkpt>
      <trkpt lat="43.50463" lon="6.59039">
        <ele>32.82</ele>
        <time>2018-06-17T15:49:47Z</time>
      </trkpt>
      <trkpt lat="43.5044" lon="6.59035">
        <ele>31.86</ele>
        <time>2018-06-17T15:50:07Z</time>
      </trkpt>
      <trkpt lat="43.50424" lon="6.59032">
        <ele>31.86</ele>
        <time>2018-06-17T15:50:26Z</time>
      </trkpt>
      <trkpt lat="43.50426" lon="6.59029">
        <ele>31.86</ele>
        <time>2018-06-17T15:50:47Z</time>
      </trkpt>
      <trkpt lat="43.50425" lon="6.59031">
        <ele>32.34</ele>
        <time>2018-06-17T15:51:07Z</time>
      </trkpt>
      <trkpt lat="43.50423" lon="6.59032">
        <ele>31.86</ele>
        <time>2018-06-17T15:51:24Z</time>
      </trkpt>
    </trkseg>
  </trk>
</gpx>